<?xml version="1.0" encoding="UTF-8" standalone="no" ?>
<gpx xmlns="http://www.topografix.com/GPX/1/1" xmlns:xsi="http://www.w3.org/2001/XMLSchema-instance" xsi:schemaLocation="http://www.topografix.com/GPX/1/1 http://www.topografix.com/GPX/1/1/gpx.xsd" version="1.1" creator="VisuGPX - https://www.visugpx.com">
  <metadata>
    <name>V170905_Larrazet</name>
    <desc><![CDATA[Circuit Journee Depart Larrazet 
Visite Beaumont de Lomagne 
Larrazet-Manas-Beaumont-Austerive -Maudec-Faudoas (resto)
Apres midi :Goas Les Oules -Escazeaux -St Jean de Cauquessac-Belbeze en Lomagne -Larrazet]]></desc>
  </metadata>
  <trk>
    <name><![CDATA[20180423141410-yMRHA]]></name>
    <trkseg>
      <trkpt lat="43.93164" lon="1.08568">
        <ele>90</ele>
        <time>2017-09-05T07:06:19Z</time>
      </trkpt>
      <trkpt lat="43.93164" lon="1.08568">
        <ele>90</ele>
        <time>2017-09-05T07:06:20Z</time>
      </trkpt>
      <trkpt lat="43.93166" lon="1.08567">
        <ele>90</ele>
        <time>2017-09-05T07:06:25Z</time>
      </trkpt>
      <trkpt lat="43.9317" lon="1.08566">
        <ele>92</ele>
        <time>2017-09-05T07:06:29Z</time>
      </trkpt>
      <trkpt lat="43.93175" lon="1.08574">
        <ele>92</ele>
        <time>2017-09-05T07:06:47Z</time>
      </trkpt>
      <trkpt lat="43.93176" lon="1.08576">
        <ele>92</ele>
        <time>2017-09-05T07:07:10Z</time>
      </trkpt>
      <trkpt lat="43.93176" lon="1.08575">
        <ele>92</ele>
        <time>2017-09-05T07:07:33Z</time>
      </trkpt>
      <trkpt lat="43.93175" lon="1.08575">
        <ele>92</ele>
        <time>2017-09-05T07:07:52Z</time>
      </trkpt>
      <trkpt lat="43.93176" lon="1.08573">
        <ele>92</ele>
        <time>2017-09-05T07:08:15Z</time>
      </trkpt>
      <trkpt lat="43.93174" lon="1.08573">
        <ele>92</ele>
        <time>2017-09-05T07:08:48Z</time>
      </trkpt>
      <trkpt lat="43.93179" lon="1.0857">
        <ele>92</ele>
        <time>2017-09-05T07:09:10Z</time>
      </trkpt>
      <trkpt lat="43.93179" lon="1.08571">
        <ele>92</ele>
        <time>2017-09-05T07:09:44Z</time>
      </trkpt>
      <trkpt lat="43.9318" lon="1.08569">
        <ele>93</ele>
        <time>2017-09-05T07:10:07Z</time>
      </trkpt>
      <trkpt lat="43.93179" lon="1.08569">
        <ele>92</ele>
        <time>2017-09-05T07:10:18Z</time>
      </trkpt>
      <trkpt lat="43.93187" lon="1.08554">
        <ele>94</ele>
        <time>2017-09-05T07:10:32Z</time>
      </trkpt>
      <trkpt lat="43.93187" lon="1.08551">
        <ele>94</ele>
        <time>2017-09-05T07:10:33Z</time>
      </trkpt>
      <trkpt lat="43.93185" lon="1.08547">
        <ele>94</ele>
        <time>2017-09-05T07:10:34Z</time>
      </trkpt>
      <trkpt lat="43.93164" lon="1.08523">
        <ele>91</ele>
        <time>2017-09-05T07:10:44Z</time>
      </trkpt>
      <trkpt lat="43.93161" lon="1.08525">
        <ele>91</ele>
        <time>2017-09-05T07:10:45Z</time>
      </trkpt>
      <trkpt lat="43.93158" lon="1.08529">
        <ele>91</ele>
        <time>2017-09-05T07:10:46Z</time>
      </trkpt>
      <trkpt lat="43.93156" lon="1.08532">
        <ele>91</ele>
        <time>2017-09-05T07:10:47Z</time>
      </trkpt>
      <trkpt lat="43.93154" lon="1.08537">
        <ele>91</ele>
        <time>2017-09-05T07:10:48Z</time>
      </trkpt>
      <trkpt lat="43.9312" lon="1.0859">
        <ele>89</ele>
        <time>2017-09-05T07:11:03Z</time>
      </trkpt>
      <trkpt lat="43.9307" lon="1.08662">
        <ele>89</ele>
        <time>2017-09-05T07:11:19Z</time>
      </trkpt>
      <trkpt lat="43.93031" lon="1.08731">
        <ele>90</ele>
        <time>2017-09-05T07:11:34Z</time>
      </trkpt>
      <trkpt lat="43.93009" lon="1.08763">
        <ele>92</ele>
        <time>2017-09-05T07:11:47Z</time>
      </trkpt>
      <trkpt lat="43.93003" lon="1.08763">
        <ele>92</ele>
        <time>2017-09-05T07:12:00Z</time>
      </trkpt>
      <trkpt lat="43.92977" lon="1.08776">
        <ele>92</ele>
        <time>2017-09-05T07:12:09Z</time>
      </trkpt>
      <trkpt lat="43.92974" lon="1.08774">
        <ele>92</ele>
        <time>2017-09-05T07:12:10Z</time>
      </trkpt>
      <trkpt lat="43.92872" lon="1.0872">
        <ele>91</ele>
        <time>2017-09-05T07:12:34Z</time>
      </trkpt>
      <trkpt lat="43.92812" lon="1.08687">
        <ele>92</ele>
        <time>2017-09-05T07:12:48Z</time>
      </trkpt>
      <trkpt lat="43.92701" lon="1.08628">
        <ele>92</ele>
        <time>2017-09-05T07:13:12Z</time>
      </trkpt>
      <trkpt lat="43.92603" lon="1.08609">
        <ele>93</ele>
        <time>2017-09-05T07:13:36Z</time>
      </trkpt>
      <trkpt lat="43.92515" lon="1.08602">
        <ele>94</ele>
        <time>2017-09-05T07:13:57Z</time>
      </trkpt>
      <trkpt lat="43.92423" lon="1.08595">
        <ele>95</ele>
        <time>2017-09-05T07:14:19Z</time>
      </trkpt>
      <trkpt lat="43.92316" lon="1.08613">
        <ele>93</ele>
        <time>2017-09-05T07:14:41Z</time>
      </trkpt>
      <trkpt lat="43.92258" lon="1.08641">
        <ele>94</ele>
        <time>2017-09-05T07:14:54Z</time>
      </trkpt>
      <trkpt lat="43.92195" lon="1.08695">
        <ele>100</ele>
        <time>2017-09-05T07:15:11Z</time>
      </trkpt>
      <trkpt lat="43.92166" lon="1.08711">
        <ele>100</ele>
        <time>2017-09-05T07:15:19Z</time>
      </trkpt>
      <trkpt lat="43.92094" lon="1.08717">
        <ele>100</ele>
        <time>2017-09-05T07:15:39Z</time>
      </trkpt>
      <trkpt lat="43.92019" lon="1.08691">
        <ele>98</ele>
        <time>2017-09-05T07:15:56Z</time>
      </trkpt>
      <trkpt lat="43.91989" lon="1.08679">
        <ele>96</ele>
        <time>2017-09-05T07:16:01Z</time>
      </trkpt>
      <trkpt lat="43.91983" lon="1.08678">
        <ele>96</ele>
        <time>2017-09-05T07:16:02Z</time>
      </trkpt>
      <trkpt lat="43.91976" lon="1.08678">
        <ele>96</ele>
        <time>2017-09-05T07:16:03Z</time>
      </trkpt>
      <trkpt lat="43.9197" lon="1.08679">
        <ele>96</ele>
        <time>2017-09-05T07:16:04Z</time>
      </trkpt>
      <trkpt lat="43.91965" lon="1.08681">
        <ele>96</ele>
        <time>2017-09-05T07:16:05Z</time>
      </trkpt>
      <trkpt lat="43.91959" lon="1.08684">
        <ele>96</ele>
        <time>2017-09-05T07:16:06Z</time>
      </trkpt>
      <trkpt lat="43.91954" lon="1.08687">
        <ele>97</ele>
        <time>2017-09-05T07:16:07Z</time>
      </trkpt>
      <trkpt lat="43.9195" lon="1.08691">
        <ele>97</ele>
        <time>2017-09-05T07:16:08Z</time>
      </trkpt>
      <trkpt lat="43.91945" lon="1.08695">
        <ele>97</ele>
        <time>2017-09-05T07:16:09Z</time>
      </trkpt>
      <trkpt lat="43.91929" lon="1.0871">
        <ele>97</ele>
        <time>2017-09-05T07:16:13Z</time>
      </trkpt>
      <trkpt lat="43.91924" lon="1.08712">
        <ele>98</ele>
        <time>2017-09-05T07:16:14Z</time>
      </trkpt>
      <trkpt lat="43.9192" lon="1.08713">
        <ele>98</ele>
        <time>2017-09-05T07:16:15Z</time>
      </trkpt>
      <trkpt lat="43.91859" lon="1.08702">
        <ele>99</ele>
        <time>2017-09-05T07:16:29Z</time>
      </trkpt>
      <trkpt lat="43.91771" lon="1.0868">
        <ele>100</ele>
        <time>2017-09-05T07:16:48Z</time>
      </trkpt>
      <trkpt lat="43.91766" lon="1.08678">
        <ele>100</ele>
        <time>2017-09-05T07:16:49Z</time>
      </trkpt>
      <trkpt lat="43.91703" lon="1.08633">
        <ele>96</ele>
        <time>2017-09-05T07:17:03Z</time>
      </trkpt>
      <trkpt lat="43.91699" lon="1.08629">
        <ele>96</ele>
        <time>2017-09-05T07:17:04Z</time>
      </trkpt>
      <trkpt lat="43.91695" lon="1.08624">
        <ele>95</ele>
        <time>2017-09-05T07:17:05Z</time>
      </trkpt>
      <trkpt lat="43.91692" lon="1.08617">
        <ele>95</ele>
        <time>2017-09-05T07:17:06Z</time>
      </trkpt>
      <trkpt lat="43.91689" lon="1.08611">
        <ele>95</ele>
        <time>2017-09-05T07:17:07Z</time>
      </trkpt>
      <trkpt lat="43.91687" lon="1.08605">
        <ele>95</ele>
        <time>2017-09-05T07:17:08Z</time>
      </trkpt>
      <trkpt lat="43.91684" lon="1.08598">
        <ele>94</ele>
        <time>2017-09-05T07:17:09Z</time>
      </trkpt>
      <trkpt lat="43.91636" lon="1.08453">
        <ele>93</ele>
        <time>2017-09-05T07:17:31Z</time>
      </trkpt>
      <trkpt lat="43.91584" lon="1.08309">
        <ele>92</ele>
        <time>2017-09-05T07:17:53Z</time>
      </trkpt>
      <trkpt lat="43.91553" lon="1.08215">
        <ele>95</ele>
        <time>2017-09-05T07:18:10Z</time>
      </trkpt>
      <trkpt lat="43.91537" lon="1.08106">
        <ele>93</ele>
        <time>2017-09-05T07:18:27Z</time>
      </trkpt>
      <trkpt lat="43.91521" lon="1.07976">
        <ele>91</ele>
        <time>2017-09-05T07:18:46Z</time>
      </trkpt>
      <trkpt lat="43.91519" lon="1.07925">
        <ele>92</ele>
        <time>2017-09-05T07:18:54Z</time>
      </trkpt>
      <trkpt lat="43.9155" lon="1.07782">
        <ele>93</ele>
        <time>2017-09-05T07:19:16Z</time>
      </trkpt>
      <trkpt lat="43.91582" lon="1.07634">
        <ele>93</ele>
        <time>2017-09-05T07:19:40Z</time>
      </trkpt>
      <trkpt lat="43.91604" lon="1.07489">
        <ele>94</ele>
        <time>2017-09-05T07:20:03Z</time>
      </trkpt>
      <trkpt lat="43.91606" lon="1.07446">
        <ele>94</ele>
        <time>2017-09-05T07:20:10Z</time>
      </trkpt>
      <trkpt lat="43.91607" lon="1.07439">
        <ele>94</ele>
        <time>2017-09-05T07:20:11Z</time>
      </trkpt>
      <trkpt lat="43.91609" lon="1.07433">
        <ele>94</ele>
        <time>2017-09-05T07:20:12Z</time>
      </trkpt>
      <trkpt lat="43.91611" lon="1.07428">
        <ele>94</ele>
        <time>2017-09-05T07:20:13Z</time>
      </trkpt>
      <trkpt lat="43.91613" lon="1.07422">
        <ele>94</ele>
        <time>2017-09-05T07:20:14Z</time>
      </trkpt>
      <trkpt lat="43.91615" lon="1.07416">
        <ele>95</ele>
        <time>2017-09-05T07:20:15Z</time>
      </trkpt>
      <trkpt lat="43.91673" lon="1.07306">
        <ele>94</ele>
        <time>2017-09-05T07:20:35Z</time>
      </trkpt>
      <trkpt lat="43.91681" lon="1.07282">
        <ele>94</ele>
        <time>2017-09-05T07:20:39Z</time>
      </trkpt>
      <trkpt lat="43.91683" lon="1.07275">
        <ele>94</ele>
        <time>2017-09-05T07:20:40Z</time>
      </trkpt>
      <trkpt lat="43.9169" lon="1.07206">
        <ele>94</ele>
        <time>2017-09-05T07:20:51Z</time>
      </trkpt>
      <trkpt lat="43.91715" lon="1.07096">
        <ele>93</ele>
        <time>2017-09-05T07:21:12Z</time>
      </trkpt>
      <trkpt lat="43.9175" lon="1.06938">
        <ele>92</ele>
        <time>2017-09-05T07:21:38Z</time>
      </trkpt>
      <trkpt lat="43.91764" lon="1.06803">
        <ele>92</ele>
        <time>2017-09-05T07:21:59Z</time>
      </trkpt>
      <trkpt lat="43.9178" lon="1.06719">
        <ele>93</ele>
        <time>2017-09-05T07:22:13Z</time>
      </trkpt>
      <trkpt lat="43.91795" lon="1.06593">
        <ele>94</ele>
        <time>2017-09-05T07:22:34Z</time>
      </trkpt>
      <trkpt lat="43.91798" lon="1.06482">
        <ele>93</ele>
        <time>2017-09-05T07:22:51Z</time>
      </trkpt>
      <trkpt lat="43.91773" lon="1.06371">
        <ele>93</ele>
        <time>2017-09-05T07:23:09Z</time>
      </trkpt>
      <trkpt lat="43.91745" lon="1.06307">
        <ele>93</ele>
        <time>2017-09-05T07:23:21Z</time>
      </trkpt>
      <trkpt lat="43.91676" lon="1.06223">
        <ele>93</ele>
        <time>2017-09-05T07:23:42Z</time>
      </trkpt>
      <trkpt lat="43.9157" lon="1.06136">
        <ele>94</ele>
        <time>2017-09-05T07:24:08Z</time>
      </trkpt>
      <trkpt lat="43.91506" lon="1.06083">
        <ele>94</ele>
        <time>2017-09-05T07:24:23Z</time>
      </trkpt>
      <trkpt lat="43.91429" lon="1.05976">
        <ele>93</ele>
        <time>2017-09-05T07:24:45Z</time>
      </trkpt>
      <trkpt lat="43.91364" lon="1.05889">
        <ele>94</ele>
        <time>2017-09-05T07:25:04Z</time>
      </trkpt>
      <trkpt lat="43.9128" lon="1.05832">
        <ele>95</ele>
        <time>2017-09-05T07:25:25Z</time>
      </trkpt>
      <trkpt lat="43.9118" lon="1.05769">
        <ele>96</ele>
        <time>2017-09-05T07:25:52Z</time>
      </trkpt>
      <trkpt lat="43.91079" lon="1.05719">
        <ele>98</ele>
        <time>2017-09-05T07:26:15Z</time>
      </trkpt>
      <trkpt lat="43.90995" lon="1.05676">
        <ele>97</ele>
        <time>2017-09-05T07:26:34Z</time>
      </trkpt>
      <trkpt lat="43.90917" lon="1.05614">
        <ele>97</ele>
        <time>2017-09-05T07:26:54Z</time>
      </trkpt>
      <trkpt lat="43.90889" lon="1.05591">
        <ele>97</ele>
        <time>2017-09-05T07:27:01Z</time>
      </trkpt>
      <trkpt lat="43.90885" lon="1.05589">
        <ele>97</ele>
        <time>2017-09-05T07:27:02Z</time>
      </trkpt>
      <trkpt lat="43.90788" lon="1.05553">
        <ele>97</ele>
        <time>2017-09-05T07:27:23Z</time>
      </trkpt>
      <trkpt lat="43.90705" lon="1.05498">
        <ele>98</ele>
        <time>2017-09-05T07:27:45Z</time>
      </trkpt>
      <trkpt lat="43.90659" lon="1.05419">
        <ele>97</ele>
        <time>2017-09-05T07:28:03Z</time>
      </trkpt>
      <trkpt lat="43.90652" lon="1.05408">
        <ele>96</ele>
        <time>2017-09-05T07:28:05Z</time>
      </trkpt>
      <trkpt lat="43.90564" lon="1.05293">
        <ele>97</ele>
        <time>2017-09-05T07:28:27Z</time>
      </trkpt>
      <trkpt lat="43.9056" lon="1.05289">
        <ele>97</ele>
        <time>2017-09-05T07:28:28Z</time>
      </trkpt>
      <trkpt lat="43.90481" lon="1.05188">
        <ele>98</ele>
        <time>2017-09-05T07:28:49Z</time>
      </trkpt>
      <trkpt lat="43.90404" lon="1.05049">
        <ele>98</ele>
        <time>2017-09-05T07:29:15Z</time>
      </trkpt>
      <trkpt lat="43.90332" lon="1.04924">
        <ele>97</ele>
        <time>2017-09-05T07:29:38Z</time>
      </trkpt>
      <trkpt lat="43.90264" lon="1.04792">
        <ele>98</ele>
        <time>2017-09-05T07:30:00Z</time>
      </trkpt>
      <trkpt lat="43.9019" lon="1.04678">
        <ele>98</ele>
        <time>2017-09-05T07:30:23Z</time>
      </trkpt>
      <trkpt lat="43.90148" lon="1.04619">
        <ele>99</ele>
        <time>2017-09-05T07:30:39Z</time>
      </trkpt>
      <trkpt lat="43.9009" lon="1.04514">
        <ele>97</ele>
        <time>2017-09-05T07:31:00Z</time>
      </trkpt>
      <trkpt lat="43.90079" lon="1.04484">
        <ele>98</ele>
        <time>2017-09-05T07:31:05Z</time>
      </trkpt>
      <trkpt lat="43.90076" lon="1.04478">
        <ele>98</ele>
        <time>2017-09-05T07:31:06Z</time>
      </trkpt>
      <trkpt lat="43.89994" lon="1.04365">
        <ele>99</ele>
        <time>2017-09-05T07:31:28Z</time>
      </trkpt>
      <trkpt lat="43.89948" lon="1.04308">
        <ele>98</ele>
        <time>2017-09-05T07:31:45Z</time>
      </trkpt>
      <trkpt lat="43.89893" lon="1.04254">
        <ele>100</ele>
        <time>2017-09-05T07:32:03Z</time>
      </trkpt>
      <trkpt lat="43.89887" lon="1.04243">
        <ele>99</ele>
        <time>2017-09-05T07:32:13Z</time>
      </trkpt>
      <trkpt lat="43.89887" lon="1.04243">
        <ele>99</ele>
        <time>2017-09-05T07:32:34Z</time>
      </trkpt>
      <trkpt lat="43.89888" lon="1.04245">
        <ele>99</ele>
        <time>2017-09-05T07:33:21Z</time>
      </trkpt>
      <trkpt lat="43.89886" lon="1.04247">
        <ele>99</ele>
        <time>2017-09-05T07:33:46Z</time>
      </trkpt>
      <trkpt lat="43.89884" lon="1.04248">
        <ele>99</ele>
        <time>2017-09-05T07:33:47Z</time>
      </trkpt>
      <trkpt lat="43.8988" lon="1.04248">
        <ele>99</ele>
        <time>2017-09-05T07:33:50Z</time>
      </trkpt>
      <trkpt lat="43.89878" lon="1.04246">
        <ele>99</ele>
        <time>2017-09-05T07:33:51Z</time>
      </trkpt>
      <trkpt lat="43.89827" lon="1.04188">
        <ele>101</ele>
        <time>2017-09-05T07:34:05Z</time>
      </trkpt>
      <trkpt lat="43.89755" lon="1.0408">
        <ele>104</ele>
        <time>2017-09-05T07:34:24Z</time>
      </trkpt>
      <trkpt lat="43.89752" lon="1.04074">
        <ele>103</ele>
        <time>2017-09-05T07:34:25Z</time>
      </trkpt>
      <trkpt lat="43.89749" lon="1.04067">
        <ele>104</ele>
        <time>2017-09-05T07:34:26Z</time>
      </trkpt>
      <trkpt lat="43.89748" lon="1.04059">
        <ele>104</ele>
        <time>2017-09-05T07:34:27Z</time>
      </trkpt>
      <trkpt lat="43.89747" lon="1.0405">
        <ele>104</ele>
        <time>2017-09-05T07:34:28Z</time>
      </trkpt>
      <trkpt lat="43.89748" lon="1.04042">
        <ele>104</ele>
        <time>2017-09-05T07:34:29Z</time>
      </trkpt>
      <trkpt lat="43.89749" lon="1.04033">
        <ele>103</ele>
        <time>2017-09-05T07:34:30Z</time>
      </trkpt>
      <trkpt lat="43.89751" lon="1.04024">
        <ele>101</ele>
        <time>2017-09-05T07:34:31Z</time>
      </trkpt>
      <trkpt lat="43.89759" lon="1.03993">
        <ele>100</ele>
        <time>2017-09-05T07:34:35Z</time>
      </trkpt>
      <trkpt lat="43.89759" lon="1.03987">
        <ele>100</ele>
        <time>2017-09-05T07:34:36Z</time>
      </trkpt>
      <trkpt lat="43.89758" lon="1.03983">
        <ele>100</ele>
        <time>2017-09-05T07:34:37Z</time>
      </trkpt>
      <trkpt lat="43.89757" lon="1.03981">
        <ele>99</ele>
        <time>2017-09-05T07:34:38Z</time>
      </trkpt>
      <trkpt lat="43.89755" lon="1.0398">
        <ele>99</ele>
        <time>2017-09-05T07:34:39Z</time>
      </trkpt>
      <trkpt lat="43.89753" lon="1.03979">
        <ele>99</ele>
        <time>2017-09-05T07:34:40Z</time>
      </trkpt>
      <trkpt lat="43.8975" lon="1.03978">
        <ele>99</ele>
        <time>2017-09-05T07:34:41Z</time>
      </trkpt>
      <trkpt lat="43.89682" lon="1.03963">
        <ele>101</ele>
        <time>2017-09-05T07:34:57Z</time>
      </trkpt>
      <trkpt lat="43.89604" lon="1.03949">
        <ele>103</ele>
        <time>2017-09-05T07:35:17Z</time>
      </trkpt>
      <trkpt lat="43.89564" lon="1.03968">
        <ele>106</ele>
        <time>2017-09-05T07:35:33Z</time>
      </trkpt>
      <trkpt lat="43.8954" lon="1.03995">
        <ele>107</ele>
        <time>2017-09-05T07:35:47Z</time>
      </trkpt>
      <trkpt lat="43.89518" lon="1.04029">
        <ele>112</ele>
        <time>2017-09-05T07:36:02Z</time>
      </trkpt>
      <trkpt lat="43.89495" lon="1.0406">
        <ele>116</ele>
        <time>2017-09-05T07:36:18Z</time>
      </trkpt>
      <trkpt lat="43.89459" lon="1.04111">
        <ele>118</ele>
        <time>2017-09-05T07:36:38Z</time>
      </trkpt>
      <trkpt lat="43.89428" lon="1.04167">
        <ele>119</ele>
        <time>2017-09-05T07:36:58Z</time>
      </trkpt>
      <trkpt lat="43.89394" lon="1.04231">
        <ele>120</ele>
        <time>2017-09-05T07:37:18Z</time>
      </trkpt>
      <trkpt lat="43.89354" lon="1.04299">
        <ele>122</ele>
        <time>2017-09-05T07:37:40Z</time>
      </trkpt>
      <trkpt lat="43.89314" lon="1.04371">
        <ele>126</ele>
        <time>2017-09-05T07:38:02Z</time>
      </trkpt>
      <trkpt lat="43.89264" lon="1.0445">
        <ele>126</ele>
        <time>2017-09-05T07:38:25Z</time>
      </trkpt>
      <trkpt lat="43.89206" lon="1.04508">
        <ele>128</ele>
        <time>2017-09-05T07:38:47Z</time>
      </trkpt>
      <trkpt lat="43.89134" lon="1.04575">
        <ele>132</ele>
        <time>2017-09-05T07:39:11Z</time>
      </trkpt>
      <trkpt lat="43.89058" lon="1.04669">
        <ele>136</ele>
        <time>2017-09-05T07:39:39Z</time>
      </trkpt>
      <trkpt lat="43.89005" lon="1.04738">
        <ele>137</ele>
        <time>2017-09-05T07:39:59Z</time>
      </trkpt>
      <trkpt lat="43.88974" lon="1.04773">
        <ele>142</ele>
        <time>2017-09-05T07:40:13Z</time>
      </trkpt>
      <trkpt lat="43.88944" lon="1.04805">
        <ele>144</ele>
        <time>2017-09-05T07:40:27Z</time>
      </trkpt>
      <trkpt lat="43.88912" lon="1.04831">
        <ele>147</ele>
        <time>2017-09-05T07:40:43Z</time>
      </trkpt>
      <trkpt lat="43.88872" lon="1.04827">
        <ele>146</ele>
        <time>2017-09-05T07:41:01Z</time>
      </trkpt>
      <trkpt lat="43.88857" lon="1.04813">
        <ele>146</ele>
        <time>2017-09-05T07:41:05Z</time>
      </trkpt>
      <trkpt lat="43.88852" lon="1.0481">
        <ele>147</ele>
        <time>2017-09-05T07:41:06Z</time>
      </trkpt>
      <trkpt lat="43.88847" lon="1.04809">
        <ele>147</ele>
        <time>2017-09-05T07:41:07Z</time>
      </trkpt>
      <trkpt lat="43.88842" lon="1.0481">
        <ele>147</ele>
        <time>2017-09-05T07:41:08Z</time>
      </trkpt>
      <trkpt lat="43.88837" lon="1.04811">
        <ele>147</ele>
        <time>2017-09-05T07:41:09Z</time>
      </trkpt>
      <trkpt lat="43.88832" lon="1.04813">
        <ele>148</ele>
        <time>2017-09-05T07:41:10Z</time>
      </trkpt>
      <trkpt lat="43.88821" lon="1.04816">
        <ele>149</ele>
        <time>2017-09-05T07:41:12Z</time>
      </trkpt>
      <trkpt lat="43.88816" lon="1.04817">
        <ele>149</ele>
        <time>2017-09-05T07:41:13Z</time>
      </trkpt>
      <trkpt lat="43.88811" lon="1.04817">
        <ele>149</ele>
        <time>2017-09-05T07:41:14Z</time>
      </trkpt>
      <trkpt lat="43.88807" lon="1.04816">
        <ele>149</ele>
        <time>2017-09-05T07:41:15Z</time>
      </trkpt>
      <trkpt lat="43.88802" lon="1.04815">
        <ele>149</ele>
        <time>2017-09-05T07:41:16Z</time>
      </trkpt>
      <trkpt lat="43.88778" lon="1.048">
        <ele>149</ele>
        <time>2017-09-05T07:41:29Z</time>
      </trkpt>
      <trkpt lat="43.88778" lon="1.048">
        <ele>149</ele>
        <time>2017-09-05T07:41:51Z</time>
      </trkpt>
      <trkpt lat="43.88777" lon="1.04797">
        <ele>149</ele>
        <time>2017-09-05T07:42:18Z</time>
      </trkpt>
      <trkpt lat="43.88775" lon="1.04797">
        <ele>149</ele>
        <time>2017-09-05T07:42:19Z</time>
      </trkpt>
      <trkpt lat="43.88775" lon="1.04796">
        <ele>149</ele>
        <time>2017-09-05T07:42:20Z</time>
      </trkpt>
      <trkpt lat="43.88774" lon="1.04795">
        <ele>149</ele>
        <time>2017-09-05T07:42:21Z</time>
      </trkpt>
      <trkpt lat="43.88773" lon="1.04794">
        <ele>149</ele>
        <time>2017-09-05T07:42:22Z</time>
      </trkpt>
      <trkpt lat="43.88771" lon="1.04793">
        <ele>149</ele>
        <time>2017-09-05T07:42:23Z</time>
      </trkpt>
      <trkpt lat="43.8877" lon="1.04791">
        <ele>149</ele>
        <time>2017-09-05T07:42:24Z</time>
      </trkpt>
      <trkpt lat="43.88769" lon="1.0479">
        <ele>149</ele>
        <time>2017-09-05T07:42:25Z</time>
      </trkpt>
      <trkpt lat="43.88746" lon="1.04719">
        <ele>150</ele>
        <time>2017-09-05T07:42:40Z</time>
      </trkpt>
      <trkpt lat="43.88729" lon="1.04597">
        <ele>150</ele>
        <time>2017-09-05T07:43:00Z</time>
      </trkpt>
      <trkpt lat="43.88733" lon="1.04534">
        <ele>151</ele>
        <time>2017-09-05T07:43:10Z</time>
      </trkpt>
      <trkpt lat="43.88737" lon="1.04419">
        <ele>150</ele>
        <time>2017-09-05T07:43:32Z</time>
      </trkpt>
      <trkpt lat="43.88724" lon="1.04329">
        <ele>146</ele>
        <time>2017-09-05T07:43:46Z</time>
      </trkpt>
      <trkpt lat="43.8871" lon="1.04269">
        <ele>146</ele>
        <time>2017-09-05T07:43:53Z</time>
      </trkpt>
      <trkpt lat="43.88691" lon="1.04187">
        <ele>142</ele>
        <time>2017-09-05T07:44:01Z</time>
      </trkpt>
      <trkpt lat="43.88671" lon="1.04089">
        <ele>139</ele>
        <time>2017-09-05T07:44:10Z</time>
      </trkpt>
      <trkpt lat="43.88671" lon="1.04078">
        <ele>138</ele>
        <time>2017-09-05T07:44:11Z</time>
      </trkpt>
      <trkpt lat="43.88671" lon="1.04067">
        <ele>138</ele>
        <time>2017-09-05T07:44:12Z</time>
      </trkpt>
      <trkpt lat="43.88672" lon="1.04056">
        <ele>137</ele>
        <time>2017-09-05T07:44:13Z</time>
      </trkpt>
      <trkpt lat="43.88673" lon="1.04045">
        <ele>137</ele>
        <time>2017-09-05T07:44:14Z</time>
      </trkpt>
      <trkpt lat="43.88688" lon="1.03947">
        <ele>134</ele>
        <time>2017-09-05T07:44:23Z</time>
      </trkpt>
      <trkpt lat="43.88692" lon="1.0388">
        <ele>131</ele>
        <time>2017-09-05T07:44:29Z</time>
      </trkpt>
      <trkpt lat="43.88693" lon="1.03814">
        <ele>128</ele>
        <time>2017-09-05T07:44:34Z</time>
      </trkpt>
      <trkpt lat="43.88694" lon="1.03745">
        <ele>125</ele>
        <time>2017-09-05T07:44:39Z</time>
      </trkpt>
      <trkpt lat="43.88694" lon="1.03731">
        <ele>124</ele>
        <time>2017-09-05T07:44:40Z</time>
      </trkpt>
      <trkpt lat="43.88695" lon="1.03687">
        <ele>124</ele>
        <time>2017-09-05T07:44:43Z</time>
      </trkpt>
      <trkpt lat="43.88695" lon="1.03658">
        <ele>122</ele>
        <time>2017-09-05T07:44:45Z</time>
      </trkpt>
      <trkpt lat="43.88695" lon="1.03629">
        <ele>122</ele>
        <time>2017-09-05T07:44:47Z</time>
      </trkpt>
      <trkpt lat="43.88676" lon="1.03462">
        <ele>119</ele>
        <time>2017-09-05T07:45:00Z</time>
      </trkpt>
      <trkpt lat="43.88659" lon="1.03336">
        <ele>117</ele>
        <time>2017-09-05T07:45:16Z</time>
      </trkpt>
      <trkpt lat="43.88643" lon="1.03232">
        <ele>114</ele>
        <time>2017-09-05T07:45:29Z</time>
      </trkpt>
      <trkpt lat="43.88614" lon="1.03036">
        <ele>113</ele>
        <time>2017-09-05T07:45:52Z</time>
      </trkpt>
      <trkpt lat="43.8858" lon="1.0295">
        <ele>116</ele>
        <time>2017-09-05T07:46:07Z</time>
      </trkpt>
      <trkpt lat="43.88568" lon="1.02929">
        <ele>115</ele>
        <time>2017-09-05T07:46:23Z</time>
      </trkpt>
      <trkpt lat="43.88568" lon="1.02928">
        <ele>115</ele>
        <time>2017-09-05T07:46:29Z</time>
      </trkpt>
      <trkpt lat="43.88567" lon="1.02926">
        <ele>115</ele>
        <time>2017-09-05T07:46:30Z</time>
      </trkpt>
      <trkpt lat="43.88565" lon="1.02923">
        <ele>115</ele>
        <time>2017-09-05T07:46:31Z</time>
      </trkpt>
      <trkpt lat="43.88537" lon="1.02846">
        <ele>115</ele>
        <time>2017-09-05T07:46:45Z</time>
      </trkpt>
      <trkpt lat="43.88535" lon="1.02829">
        <ele>114</ele>
        <time>2017-09-05T07:46:47Z</time>
      </trkpt>
      <trkpt lat="43.88514" lon="1.02629">
        <ele>111</ele>
        <time>2017-09-05T07:47:08Z</time>
      </trkpt>
      <trkpt lat="43.88516" lon="1.02492">
        <ele>109</ele>
        <time>2017-09-05T07:47:22Z</time>
      </trkpt>
      <trkpt lat="43.88527" lon="1.02299">
        <ele>109</ele>
        <time>2017-09-05T07:47:43Z</time>
      </trkpt>
      <trkpt lat="43.88535" lon="1.02156">
        <ele>109</ele>
        <time>2017-09-05T07:48:00Z</time>
      </trkpt>
      <trkpt lat="43.88543" lon="1.02001">
        <ele>107</ele>
        <time>2017-09-05T07:48:21Z</time>
      </trkpt>
      <trkpt lat="43.88541" lon="1.01937">
        <ele>107</ele>
        <time>2017-09-05T07:48:29Z</time>
      </trkpt>
      <trkpt lat="43.88509" lon="1.01764">
        <ele>105</ele>
        <time>2017-09-05T07:48:49Z</time>
      </trkpt>
      <trkpt lat="43.88468" lon="1.01569">
        <ele>102</ele>
        <time>2017-09-05T07:49:09Z</time>
      </trkpt>
      <trkpt lat="43.88443" lon="1.0144">
        <ele>103</ele>
        <time>2017-09-05T07:49:26Z</time>
      </trkpt>
      <trkpt lat="43.88442" lon="1.01433">
        <ele>103</ele>
        <time>2017-09-05T07:49:27Z</time>
      </trkpt>
      <trkpt lat="43.88421" lon="1.0132">
        <ele>100</ele>
        <time>2017-09-05T07:49:40Z</time>
      </trkpt>
      <trkpt lat="43.8837" lon="1.01178">
        <ele>101</ele>
        <time>2017-09-05T07:49:58Z</time>
      </trkpt>
      <trkpt lat="43.88309" lon="1.01064">
        <ele>101</ele>
        <time>2017-09-05T07:50:16Z</time>
      </trkpt>
      <trkpt lat="43.88262" lon="1.00914">
        <ele>102</ele>
        <time>2017-09-05T07:50:38Z</time>
      </trkpt>
      <trkpt lat="43.88236" lon="1.00829">
        <ele>104</ele>
        <time>2017-09-05T07:50:56Z</time>
      </trkpt>
      <trkpt lat="43.88233" lon="1.00824">
        <ele>103</ele>
        <time>2017-09-05T07:51:11Z</time>
      </trkpt>
      <trkpt lat="43.88232" lon="1.00822">
        <ele>103</ele>
        <time>2017-09-05T07:51:40Z</time>
      </trkpt>
      <trkpt lat="43.88224" lon="1.00791">
        <ele>103</ele>
        <time>2017-09-05T07:51:54Z</time>
      </trkpt>
      <trkpt lat="43.88192" lon="1.00686">
        <ele>102</ele>
        <time>2017-09-05T07:52:15Z</time>
      </trkpt>
      <trkpt lat="43.88148" lon="1.00565">
        <ele>104</ele>
        <time>2017-09-05T07:52:37Z</time>
      </trkpt>
      <trkpt lat="43.88098" lon="1.00427">
        <ele>106</ele>
        <time>2017-09-05T07:53:01Z</time>
      </trkpt>
      <trkpt lat="43.88047" lon="1.00292">
        <ele>104</ele>
        <time>2017-09-05T07:53:22Z</time>
      </trkpt>
      <trkpt lat="43.87996" lon="1.00157">
        <ele>104</ele>
        <time>2017-09-05T07:53:44Z</time>
      </trkpt>
      <trkpt lat="43.87945" lon="1.00028">
        <ele>104</ele>
        <time>2017-09-05T07:54:06Z</time>
      </trkpt>
      <trkpt lat="43.87914" lon="0.99954">
        <ele>104</ele>
        <time>2017-09-05T07:54:18Z</time>
      </trkpt>
      <trkpt lat="43.87857" lon="0.99806">
        <ele>103</ele>
        <time>2017-09-05T07:54:41Z</time>
      </trkpt>
      <trkpt lat="43.87817" lon="0.99693">
        <ele>106</ele>
        <time>2017-09-05T07:55:01Z</time>
      </trkpt>
      <trkpt lat="43.87801" lon="0.99649">
        <ele>105</ele>
        <time>2017-09-05T07:55:17Z</time>
      </trkpt>
      <trkpt lat="43.878" lon="0.99643">
        <ele>105</ele>
        <time>2017-09-05T07:55:38Z</time>
      </trkpt>
      <trkpt lat="43.87801" lon="0.9964">
        <ele>105</ele>
        <time>2017-09-05T07:55:39Z</time>
      </trkpt>
      <trkpt lat="43.87801" lon="0.99639">
        <ele>105</ele>
        <time>2017-09-05T07:55:40Z</time>
      </trkpt>
      <trkpt lat="43.87825" lon="0.99566">
        <ele>104</ele>
        <time>2017-09-05T07:55:57Z</time>
      </trkpt>
      <trkpt lat="43.8788" lon="0.99403">
        <ele>102</ele>
        <time>2017-09-05T07:56:22Z</time>
      </trkpt>
      <trkpt lat="43.87928" lon="0.9926">
        <ele>104</ele>
        <time>2017-09-05T07:56:43Z</time>
      </trkpt>
      <trkpt lat="43.87956" lon="0.99175">
        <ele>105</ele>
        <time>2017-09-05T07:56:59Z</time>
      </trkpt>
      <trkpt lat="43.87962" lon="0.99159">
        <ele>105</ele>
        <time>2017-09-05T07:57:02Z</time>
      </trkpt>
      <trkpt lat="43.87973" lon="0.99139">
        <ele>105</ele>
        <time>2017-09-05T07:57:06Z</time>
      </trkpt>
      <trkpt lat="43.87977" lon="0.99135">
        <ele>105</ele>
        <time>2017-09-05T07:57:07Z</time>
      </trkpt>
      <trkpt lat="43.8798" lon="0.99132">
        <ele>105</ele>
        <time>2017-09-05T07:57:08Z</time>
      </trkpt>
      <trkpt lat="43.87984" lon="0.99127">
        <ele>105</ele>
        <time>2017-09-05T07:57:09Z</time>
      </trkpt>
      <trkpt lat="43.87987" lon="0.99121">
        <ele>105</ele>
        <time>2017-09-05T07:57:10Z</time>
      </trkpt>
      <trkpt lat="43.87988" lon="0.99115">
        <ele>105</ele>
        <time>2017-09-05T07:57:11Z</time>
      </trkpt>
      <trkpt lat="43.87989" lon="0.99107">
        <ele>106</ele>
        <time>2017-09-05T07:57:12Z</time>
      </trkpt>
      <trkpt lat="43.87988" lon="0.99102">
        <ele>106</ele>
        <time>2017-09-05T07:57:13Z</time>
      </trkpt>
      <trkpt lat="43.87988" lon="0.99097">
        <ele>106</ele>
        <time>2017-09-05T07:57:14Z</time>
      </trkpt>
      <trkpt lat="43.87989" lon="0.99092">
        <ele>106</ele>
        <time>2017-09-05T07:57:15Z</time>
      </trkpt>
      <trkpt lat="43.8799" lon="0.99087">
        <ele>106</ele>
        <time>2017-09-05T07:57:16Z</time>
      </trkpt>
      <trkpt lat="43.87991" lon="0.99083">
        <ele>107</ele>
        <time>2017-09-05T07:57:17Z</time>
      </trkpt>
      <trkpt lat="43.88015" lon="0.99037">
        <ele>108</ele>
        <time>2017-09-05T07:57:28Z</time>
      </trkpt>
      <trkpt lat="43.88031" lon="0.99018">
        <ele>108</ele>
        <time>2017-09-05T07:57:33Z</time>
      </trkpt>
      <trkpt lat="43.88034" lon="0.99015">
        <ele>108</ele>
        <time>2017-09-05T07:57:34Z</time>
      </trkpt>
      <trkpt lat="43.88084" lon="0.98981">
        <ele>110</ele>
        <time>2017-09-05T07:57:47Z</time>
      </trkpt>
      <trkpt lat="43.8813" lon="0.98955">
        <ele>112</ele>
        <time>2017-09-05T07:58:04Z</time>
      </trkpt>
      <trkpt lat="43.88174" lon="0.98931">
        <ele>116</ele>
        <time>2017-09-05T07:58:20Z</time>
      </trkpt>
      <trkpt lat="43.88215" lon="0.98915">
        <ele>119</ele>
        <time>2017-09-05T07:58:35Z</time>
      </trkpt>
      <trkpt lat="43.88244" lon="0.98904">
        <ele>120</ele>
        <time>2017-09-05T07:58:47Z</time>
      </trkpt>
      <trkpt lat="43.88245" lon="0.98901">
        <ele>120</ele>
        <time>2017-09-05T07:58:48Z</time>
      </trkpt>
      <trkpt lat="43.88246" lon="0.989">
        <ele>120</ele>
        <time>2017-09-05T07:58:49Z</time>
      </trkpt>
      <trkpt lat="43.88246" lon="0.98899">
        <ele>120</ele>
        <time>2017-09-05T07:58:50Z</time>
      </trkpt>
      <trkpt lat="43.88247" lon="0.98897">
        <ele>120</ele>
        <time>2017-09-05T07:58:51Z</time>
      </trkpt>
      <trkpt lat="43.88261" lon="0.98888">
        <ele>123</ele>
        <time>2017-09-05T07:59:05Z</time>
      </trkpt>
      <trkpt lat="43.88274" lon="0.98883">
        <ele>124</ele>
        <time>2017-09-05T07:59:20Z</time>
      </trkpt>
      <trkpt lat="43.88285" lon="0.98881">
        <ele>124</ele>
        <time>2017-09-05T07:59:29Z</time>
      </trkpt>
      <trkpt lat="43.88287" lon="0.98883">
        <ele>124</ele>
        <time>2017-09-05T07:59:30Z</time>
      </trkpt>
      <trkpt lat="43.88288" lon="0.98884">
        <ele>124</ele>
        <time>2017-09-05T07:59:31Z</time>
      </trkpt>
      <trkpt lat="43.88296" lon="0.9888">
        <ele>125</ele>
        <time>2017-09-05T07:59:50Z</time>
      </trkpt>
      <trkpt lat="43.883" lon="0.9888">
        <ele>125</ele>
        <time>2017-09-05T08:00:38Z</time>
      </trkpt>
      <trkpt lat="43.88298" lon="0.98877">
        <ele>125</ele>
        <time>2017-09-05T08:01:01Z</time>
      </trkpt>
      <trkpt lat="43.88296" lon="0.98871">
        <ele>125</ele>
        <time>2017-09-05T08:01:54Z</time>
      </trkpt>
      <trkpt lat="43.88298" lon="0.98857">
        <ele>125</ele>
        <time>2017-09-05T08:02:07Z</time>
      </trkpt>
      <trkpt lat="43.88298" lon="0.98841">
        <ele>125</ele>
        <time>2017-09-05T08:02:23Z</time>
      </trkpt>
      <trkpt lat="43.88297" lon="0.98837">
        <ele>125</ele>
        <time>2017-09-05T08:02:44Z</time>
      </trkpt>
      <trkpt lat="43.88296" lon="0.98837">
        <ele>125</ele>
        <time>2017-09-05T08:03:24Z</time>
      </trkpt>
      <trkpt lat="43.88302" lon="0.98834">
        <ele>125</ele>
        <time>2017-09-05T08:04:05Z</time>
      </trkpt>
      <trkpt lat="43.883" lon="0.98834">
        <ele>125</ele>
        <time>2017-09-05T08:04:53Z</time>
      </trkpt>
      <trkpt lat="43.883" lon="0.98835">
        <ele>125</ele>
        <time>2017-09-05T08:05:38Z</time>
      </trkpt>
      <trkpt lat="43.88299" lon="0.98838">
        <ele>125</ele>
        <time>2017-09-05T08:06:30Z</time>
      </trkpt>
      <trkpt lat="43.88298" lon="0.98837">
        <ele>125</ele>
        <time>2017-09-05T08:07:16Z</time>
      </trkpt>
      <trkpt lat="43.88297" lon="0.98833">
        <ele>125</ele>
        <time>2017-09-05T08:07:47Z</time>
      </trkpt>
      <trkpt lat="43.88298" lon="0.98831">
        <ele>125</ele>
        <time>2017-09-05T08:08:30Z</time>
      </trkpt>
      <trkpt lat="43.88295" lon="0.98835">
        <ele>125</ele>
        <time>2017-09-05T08:09:00Z</time>
      </trkpt>
      <trkpt lat="43.88299" lon="0.98834">
        <ele>125</ele>
        <time>2017-09-05T08:09:29Z</time>
      </trkpt>
      <trkpt lat="43.88296" lon="0.98838">
        <ele>125</ele>
        <time>2017-09-05T08:10:06Z</time>
      </trkpt>
      <trkpt lat="43.88298" lon="0.98834">
        <ele>125</ele>
        <time>2017-09-05T08:10:33Z</time>
      </trkpt>
      <trkpt lat="43.88297" lon="0.98833">
        <ele>125</ele>
        <time>2017-09-05T08:10:54Z</time>
      </trkpt>
      <trkpt lat="43.88294" lon="0.98832">
        <ele>125</ele>
        <time>2017-09-05T08:11:18Z</time>
      </trkpt>
      <trkpt lat="43.88293" lon="0.98831">
        <ele>125</ele>
        <time>2017-09-05T08:11:19Z</time>
      </trkpt>
      <trkpt lat="43.88257" lon="0.98831">
        <ele>122</ele>
        <time>2017-09-05T08:11:32Z</time>
      </trkpt>
      <trkpt lat="43.88236" lon="0.98824">
        <ele>120</ele>
        <time>2017-09-05T08:11:45Z</time>
      </trkpt>
      <trkpt lat="43.88201" lon="0.98834">
        <ele>118</ele>
        <time>2017-09-05T08:12:03Z</time>
      </trkpt>
      <trkpt lat="43.88169" lon="0.98845">
        <ele>117</ele>
        <time>2017-09-05T08:12:16Z</time>
      </trkpt>
      <trkpt lat="43.8811" lon="0.98868">
        <ele>113</ele>
        <time>2017-09-05T08:12:27Z</time>
      </trkpt>
      <trkpt lat="43.8809" lon="0.98878">
        <ele>113</ele>
        <time>2017-09-05T08:12:30Z</time>
      </trkpt>
      <trkpt lat="43.88057" lon="0.98901">
        <ele>110</ele>
        <time>2017-09-05T08:12:35Z</time>
      </trkpt>
      <trkpt lat="43.88014" lon="0.98941">
        <ele>109</ele>
        <time>2017-09-05T08:12:46Z</time>
      </trkpt>
      <trkpt lat="43.88005" lon="0.98951">
        <ele>109</ele>
        <time>2017-09-05T08:12:52Z</time>
      </trkpt>
      <trkpt lat="43.88004" lon="0.98954">
        <ele>109</ele>
        <time>2017-09-05T08:12:53Z</time>
      </trkpt>
      <trkpt lat="43.88004" lon="0.98959">
        <ele>109</ele>
        <time>2017-09-05T08:12:54Z</time>
      </trkpt>
      <trkpt lat="43.88005" lon="0.98964">
        <ele>109</ele>
        <time>2017-09-05T08:12:55Z</time>
      </trkpt>
      <trkpt lat="43.88007" lon="0.98969">
        <ele>109</ele>
        <time>2017-09-05T08:12:56Z</time>
      </trkpt>
      <trkpt lat="43.88008" lon="0.98974">
        <ele>109</ele>
        <time>2017-09-05T08:12:57Z</time>
      </trkpt>
      <trkpt lat="43.88011" lon="0.98986">
        <ele>109</ele>
        <time>2017-09-05T08:12:59Z</time>
      </trkpt>
      <trkpt lat="43.88012" lon="0.98993">
        <ele>109</ele>
        <time>2017-09-05T08:13:00Z</time>
      </trkpt>
      <trkpt lat="43.88011" lon="0.98999">
        <ele>108</ele>
        <time>2017-09-05T08:13:01Z</time>
      </trkpt>
      <trkpt lat="43.88002" lon="0.99041">
        <ele>108</ele>
        <time>2017-09-05T08:13:10Z</time>
      </trkpt>
      <trkpt lat="43.8799" lon="0.99071">
        <ele>106</ele>
        <time>2017-09-05T08:13:27Z</time>
      </trkpt>
      <trkpt lat="43.87989" lon="0.99072">
        <ele>106</ele>
        <time>2017-09-05T08:14:04Z</time>
      </trkpt>
      <trkpt lat="43.87987" lon="0.99076">
        <ele>106</ele>
        <time>2017-09-05T08:14:22Z</time>
      </trkpt>
      <trkpt lat="43.87983" lon="0.99088">
        <ele>106</ele>
        <time>2017-09-05T08:14:39Z</time>
      </trkpt>
      <trkpt lat="43.87964" lon="0.99123">
        <ele>105</ele>
        <time>2017-09-05T08:14:49Z</time>
      </trkpt>
      <trkpt lat="43.87962" lon="0.99145">
        <ele>105</ele>
        <time>2017-09-05T08:14:53Z</time>
      </trkpt>
      <trkpt lat="43.87922" lon="0.99267">
        <ele>104</ele>
        <time>2017-09-05T08:15:14Z</time>
      </trkpt>
      <trkpt lat="43.87878" lon="0.99401">
        <ele>102</ele>
        <time>2017-09-05T08:15:34Z</time>
      </trkpt>
      <trkpt lat="43.87855" lon="0.99462">
        <ele>102</ele>
        <time>2017-09-05T08:15:43Z</time>
      </trkpt>
      <trkpt lat="43.87849" lon="0.99474">
        <ele>103</ele>
        <time>2017-09-05T08:15:45Z</time>
      </trkpt>
      <trkpt lat="43.87773" lon="0.99543">
        <ele>103</ele>
        <time>2017-09-05T08:16:01Z</time>
      </trkpt>
      <trkpt lat="43.87685" lon="0.99615">
        <ele>104</ele>
        <time>2017-09-05T08:16:20Z</time>
      </trkpt>
      <trkpt lat="43.8768" lon="0.99615">
        <ele>104</ele>
        <time>2017-09-05T08:16:21Z</time>
      </trkpt>
      <trkpt lat="43.87675" lon="0.99613">
        <ele>104</ele>
        <time>2017-09-05T08:16:22Z</time>
      </trkpt>
      <trkpt lat="43.87669" lon="0.99609">
        <ele>104</ele>
        <time>2017-09-05T08:16:23Z</time>
      </trkpt>
      <trkpt lat="43.87666" lon="0.99604">
        <ele>104</ele>
        <time>2017-09-05T08:16:24Z</time>
      </trkpt>
      <trkpt lat="43.87663" lon="0.99599">
        <ele>104</ele>
        <time>2017-09-05T08:16:25Z</time>
      </trkpt>
      <trkpt lat="43.8766" lon="0.99592">
        <ele>104</ele>
        <time>2017-09-05T08:16:26Z</time>
      </trkpt>
      <trkpt lat="43.87601" lon="0.99477">
        <ele>103</ele>
        <time>2017-09-05T08:16:45Z</time>
      </trkpt>
      <trkpt lat="43.8752" lon="0.99396">
        <ele>105</ele>
        <time>2017-09-05T08:17:03Z</time>
      </trkpt>
      <trkpt lat="43.87424" lon="0.99332">
        <ele>106</ele>
        <time>2017-09-05T08:17:22Z</time>
      </trkpt>
      <trkpt lat="43.87348" lon="0.99232">
        <ele>102</ele>
        <time>2017-09-05T08:17:40Z</time>
      </trkpt>
      <trkpt lat="43.87278" lon="0.99094">
        <ele>104</ele>
        <time>2017-09-05T08:18:01Z</time>
      </trkpt>
      <trkpt lat="43.87225" lon="0.98971">
        <ele>103</ele>
        <time>2017-09-05T08:18:20Z</time>
      </trkpt>
      <trkpt lat="43.87175" lon="0.98837">
        <ele>103</ele>
        <time>2017-09-05T08:18:41Z</time>
      </trkpt>
      <trkpt lat="43.87133" lon="0.98697">
        <ele>104</ele>
        <time>2017-09-05T08:19:02Z</time>
      </trkpt>
      <trkpt lat="43.87096" lon="0.98525">
        <ele>105</ele>
        <time>2017-09-05T08:19:27Z</time>
      </trkpt>
      <trkpt lat="43.87065" lon="0.98388">
        <ele>106</ele>
        <time>2017-09-05T08:19:48Z</time>
      </trkpt>
      <trkpt lat="43.87058" lon="0.98371">
        <ele>106</ele>
        <time>2017-09-05T08:19:51Z</time>
      </trkpt>
      <trkpt lat="43.86985" lon="0.98279">
        <ele>106</ele>
        <time>2017-09-05T08:20:11Z</time>
      </trkpt>
      <trkpt lat="43.86897" lon="0.98225">
        <ele>107</ele>
        <time>2017-09-05T08:20:31Z</time>
      </trkpt>
      <trkpt lat="43.86833" lon="0.98152">
        <ele>109</ele>
        <time>2017-09-05T08:20:49Z</time>
      </trkpt>
      <trkpt lat="43.86776" lon="0.98057">
        <ele>109</ele>
        <time>2017-09-05T08:21:12Z</time>
      </trkpt>
      <trkpt lat="43.86714" lon="0.9793">
        <ele>110</ele>
        <time>2017-09-05T08:21:37Z</time>
      </trkpt>
      <trkpt lat="43.86708" lon="0.97916">
        <ele>109</ele>
        <time>2017-09-05T08:21:39Z</time>
      </trkpt>
      <trkpt lat="43.86642" lon="0.97763">
        <ele>109</ele>
        <time>2017-09-05T08:22:01Z</time>
      </trkpt>
      <trkpt lat="43.86578" lon="0.97603">
        <ele>109</ele>
        <time>2017-09-05T08:22:24Z</time>
      </trkpt>
      <trkpt lat="43.86531" lon="0.97479">
        <ele>109</ele>
        <time>2017-09-05T08:22:45Z</time>
      </trkpt>
      <trkpt lat="43.86484" lon="0.97325">
        <ele>107</ele>
        <time>2017-09-05T08:23:07Z</time>
      </trkpt>
      <trkpt lat="43.86429" lon="0.9715">
        <ele>108</ele>
        <time>2017-09-05T08:23:31Z</time>
      </trkpt>
      <trkpt lat="43.86361" lon="0.97046">
        <ele>108</ele>
        <time>2017-09-05T08:23:51Z</time>
      </trkpt>
      <trkpt lat="43.86265" lon="0.96935">
        <ele>108</ele>
        <time>2017-09-05T08:24:15Z</time>
      </trkpt>
      <trkpt lat="43.86178" lon="0.96884">
        <ele>109</ele>
        <time>2017-09-05T08:24:34Z</time>
      </trkpt>
      <trkpt lat="43.86093" lon="0.96827">
        <ele>113</ele>
        <time>2017-09-05T08:24:55Z</time>
      </trkpt>
      <trkpt lat="43.86043" lon="0.96751">
        <ele>112</ele>
        <time>2017-09-05T08:25:15Z</time>
      </trkpt>
      <trkpt lat="43.8598" lon="0.96654">
        <ele>112</ele>
        <time>2017-09-05T08:25:37Z</time>
      </trkpt>
      <trkpt lat="43.85963" lon="0.9663">
        <ele>112</ele>
        <time>2017-09-05T08:25:43Z</time>
      </trkpt>
      <trkpt lat="43.85952" lon="0.96608">
        <ele>112</ele>
        <time>2017-09-05T08:25:47Z</time>
      </trkpt>
      <trkpt lat="43.85892" lon="0.96509">
        <ele>112</ele>
        <time>2017-09-05T08:26:06Z</time>
      </trkpt>
      <trkpt lat="43.85861" lon="0.96462">
        <ele>113</ele>
        <time>2017-09-05T08:26:17Z</time>
      </trkpt>
      <trkpt lat="43.85793" lon="0.9637">
        <ele>114</ele>
        <time>2017-09-05T08:26:40Z</time>
      </trkpt>
      <trkpt lat="43.85712" lon="0.96254">
        <ele>115</ele>
        <time>2017-09-05T08:27:05Z</time>
      </trkpt>
      <trkpt lat="43.85658" lon="0.96151">
        <ele>116</ele>
        <time>2017-09-05T08:27:26Z</time>
      </trkpt>
      <trkpt lat="43.85635" lon="0.96093">
        <ele>115</ele>
        <time>2017-09-05T08:27:35Z</time>
      </trkpt>
      <trkpt lat="43.856" lon="0.96011">
        <ele>113</ele>
        <time>2017-09-05T08:27:45Z</time>
      </trkpt>
      <trkpt lat="43.85523" lon="0.95865">
        <ele>111</ele>
        <time>2017-09-05T08:28:04Z</time>
      </trkpt>
      <trkpt lat="43.8542" lon="0.95793">
        <ele>111</ele>
        <time>2017-09-05T08:28:24Z</time>
      </trkpt>
      <trkpt lat="43.85363" lon="0.95708">
        <ele>109</ele>
        <time>2017-09-05T08:28:40Z</time>
      </trkpt>
      <trkpt lat="43.85312" lon="0.95623">
        <ele>109</ele>
        <time>2017-09-05T08:28:55Z</time>
      </trkpt>
      <trkpt lat="43.85225" lon="0.95571">
        <ele>110</ele>
        <time>2017-09-05T08:29:14Z</time>
      </trkpt>
      <trkpt lat="43.85113" lon="0.95505">
        <ele>112</ele>
        <time>2017-09-05T08:29:39Z</time>
      </trkpt>
      <trkpt lat="43.8501" lon="0.95457">
        <ele>115</ele>
        <time>2017-09-05T08:30:02Z</time>
      </trkpt>
      <trkpt lat="43.84912" lon="0.95406">
        <ele>114</ele>
        <time>2017-09-05T08:30:23Z</time>
      </trkpt>
      <trkpt lat="43.84801" lon="0.95313">
        <ele>116</ele>
        <time>2017-09-05T08:30:50Z</time>
      </trkpt>
      <trkpt lat="43.84709" lon="0.95217">
        <ele>117</ele>
        <time>2017-09-05T08:31:14Z</time>
      </trkpt>
      <trkpt lat="43.84579" lon="0.9508">
        <ele>114</ele>
        <time>2017-09-05T08:31:45Z</time>
      </trkpt>
      <trkpt lat="43.84475" lon="0.94972">
        <ele>115</ele>
        <time>2017-09-05T08:32:09Z</time>
      </trkpt>
      <trkpt lat="43.84392" lon="0.94838">
        <ele>115</ele>
        <time>2017-09-05T08:32:32Z</time>
      </trkpt>
      <trkpt lat="43.84313" lon="0.94715">
        <ele>116</ele>
        <time>2017-09-05T08:32:53Z</time>
      </trkpt>
      <trkpt lat="43.842" lon="0.9458">
        <ele>116</ele>
        <time>2017-09-05T08:33:20Z</time>
      </trkpt>
      <trkpt lat="43.8412" lon="0.9447">
        <ele>116</ele>
        <time>2017-09-05T08:33:41Z</time>
      </trkpt>
      <trkpt lat="43.84047" lon="0.94367">
        <ele>117</ele>
        <time>2017-09-05T08:33:58Z</time>
      </trkpt>
      <trkpt lat="43.84019" lon="0.94332">
        <ele>118</ele>
        <time>2017-09-05T08:34:08Z</time>
      </trkpt>
      <trkpt lat="43.83956" lon="0.94267">
        <ele>120</ele>
        <time>2017-09-05T08:34:24Z</time>
      </trkpt>
      <trkpt lat="43.83871" lon="0.94163">
        <ele>116</ele>
        <time>2017-09-05T08:34:44Z</time>
      </trkpt>
      <trkpt lat="43.83853" lon="0.94142">
        <ele>116</ele>
        <time>2017-09-05T08:34:49Z</time>
      </trkpt>
      <trkpt lat="43.8385" lon="0.94138">
        <ele>116</ele>
        <time>2017-09-05T08:34:50Z</time>
      </trkpt>
      <trkpt lat="43.83784" lon="0.94054">
        <ele>114</ele>
        <time>2017-09-05T08:35:08Z</time>
      </trkpt>
      <trkpt lat="43.83713" lon="0.93983">
        <ele>114</ele>
        <time>2017-09-05T08:35:27Z</time>
      </trkpt>
      <trkpt lat="43.83624" lon="0.93897">
        <ele>112</ele>
        <time>2017-09-05T08:35:48Z</time>
      </trkpt>
      <trkpt lat="43.83532" lon="0.93792">
        <ele>116</ele>
        <time>2017-09-05T08:36:15Z</time>
      </trkpt>
      <trkpt lat="43.8346" lon="0.93699">
        <ele>117</ele>
        <time>2017-09-05T08:36:38Z</time>
      </trkpt>
      <trkpt lat="43.83444" lon="0.93664">
        <ele>116</ele>
        <time>2017-09-05T08:36:44Z</time>
      </trkpt>
      <trkpt lat="43.83388" lon="0.93538">
        <ele>116</ele>
        <time>2017-09-05T08:37:04Z</time>
      </trkpt>
      <trkpt lat="43.83387" lon="0.93532">
        <ele>116</ele>
        <time>2017-09-05T08:37:05Z</time>
      </trkpt>
      <trkpt lat="43.83387" lon="0.93526">
        <ele>116</ele>
        <time>2017-09-05T08:37:06Z</time>
      </trkpt>
      <trkpt lat="43.83387" lon="0.9352">
        <ele>116</ele>
        <time>2017-09-05T08:37:07Z</time>
      </trkpt>
      <trkpt lat="43.83388" lon="0.93513">
        <ele>116</ele>
        <time>2017-09-05T08:37:08Z</time>
      </trkpt>
      <trkpt lat="43.83389" lon="0.93506">
        <ele>116</ele>
        <time>2017-09-05T08:37:09Z</time>
      </trkpt>
      <trkpt lat="43.8339" lon="0.93499">
        <ele>115</ele>
        <time>2017-09-05T08:37:10Z</time>
      </trkpt>
      <trkpt lat="43.83402" lon="0.93415">
        <ele>114</ele>
        <time>2017-09-05T08:37:20Z</time>
      </trkpt>
      <trkpt lat="43.83401" lon="0.93405">
        <ele>114</ele>
        <time>2017-09-05T08:37:21Z</time>
      </trkpt>
      <trkpt lat="43.83399" lon="0.93396">
        <ele>114</ele>
        <time>2017-09-05T08:37:22Z</time>
      </trkpt>
      <trkpt lat="43.83396" lon="0.93388">
        <ele>114</ele>
        <time>2017-09-05T08:37:23Z</time>
      </trkpt>
      <trkpt lat="43.83393" lon="0.93379">
        <ele>114</ele>
        <time>2017-09-05T08:37:24Z</time>
      </trkpt>
      <trkpt lat="43.83326" lon="0.93275">
        <ele>111</ele>
        <time>2017-09-05T08:37:41Z</time>
      </trkpt>
      <trkpt lat="43.83232" lon="0.93165">
        <ele>110</ele>
        <time>2017-09-05T08:38:01Z</time>
      </trkpt>
      <trkpt lat="43.83144" lon="0.93078">
        <ele>113</ele>
        <time>2017-09-05T08:38:21Z</time>
      </trkpt>
      <trkpt lat="43.8314" lon="0.93074">
        <ele>113</ele>
        <time>2017-09-05T08:38:22Z</time>
      </trkpt>
      <trkpt lat="43.8304" lon="0.92989">
        <ele>112</ele>
        <time>2017-09-05T08:38:44Z</time>
      </trkpt>
      <trkpt lat="43.82935" lon="0.9294">
        <ele>111</ele>
        <time>2017-09-05T08:39:06Z</time>
      </trkpt>
      <trkpt lat="43.82813" lon="0.92897">
        <ele>110</ele>
        <time>2017-09-05T08:39:31Z</time>
      </trkpt>
      <trkpt lat="43.82724" lon="0.92831">
        <ele>111</ele>
        <time>2017-09-05T08:39:52Z</time>
      </trkpt>
      <trkpt lat="43.82653" lon="0.92797">
        <ele>112</ele>
        <time>2017-09-05T08:40:08Z</time>
      </trkpt>
      <trkpt lat="43.82568" lon="0.92749">
        <ele>111</ele>
        <time>2017-09-05T08:40:26Z</time>
      </trkpt>
      <trkpt lat="43.82457" lon="0.92689">
        <ele>114</ele>
        <time>2017-09-05T08:40:49Z</time>
      </trkpt>
      <trkpt lat="43.82345" lon="0.92619">
        <ele>114</ele>
        <time>2017-09-05T08:41:13Z</time>
      </trkpt>
      <trkpt lat="43.82244" lon="0.9253">
        <ele>117</ele>
        <time>2017-09-05T08:41:36Z</time>
      </trkpt>
      <trkpt lat="43.82154" lon="0.92455">
        <ele>117</ele>
        <time>2017-09-05T08:41:57Z</time>
      </trkpt>
      <trkpt lat="43.82124" lon="0.92428">
        <ele>117</ele>
        <time>2017-09-05T08:42:04Z</time>
      </trkpt>
      <trkpt lat="43.82055" lon="0.92316">
        <ele>115</ele>
        <time>2017-09-05T08:42:25Z</time>
      </trkpt>
      <trkpt lat="43.82015" lon="0.92248">
        <ele>114</ele>
        <time>2017-09-05T08:42:36Z</time>
      </trkpt>
      <trkpt lat="43.81929" lon="0.92169">
        <ele>118</ele>
        <time>2017-09-05T08:42:56Z</time>
      </trkpt>
      <trkpt lat="43.81872" lon="0.92118">
        <ele>120</ele>
        <time>2017-09-05T08:43:11Z</time>
      </trkpt>
      <trkpt lat="43.81821" lon="0.92077">
        <ele>120</ele>
        <time>2017-09-05T08:43:28Z</time>
      </trkpt>
      <trkpt lat="43.81801" lon="0.92059">
        <ele>119</ele>
        <time>2017-09-05T08:43:32Z</time>
      </trkpt>
      <trkpt lat="43.81722" lon="0.91959">
        <ele>121</ele>
        <time>2017-09-05T08:43:49Z</time>
      </trkpt>
      <trkpt lat="43.8166" lon="0.91863">
        <ele>122</ele>
        <time>2017-09-05T08:44:08Z</time>
      </trkpt>
      <trkpt lat="43.8158" lon="0.91764">
        <ele>122</ele>
        <time>2017-09-05T08:44:29Z</time>
      </trkpt>
      <trkpt lat="43.81506" lon="0.9167">
        <ele>123</ele>
        <time>2017-09-05T08:44:50Z</time>
      </trkpt>
      <trkpt lat="43.81428" lon="0.91568">
        <ele>120</ele>
        <time>2017-09-05T08:45:11Z</time>
      </trkpt>
      <trkpt lat="43.8137" lon="0.91504">
        <ele>125</ele>
        <time>2017-09-05T08:45:28Z</time>
      </trkpt>
      <trkpt lat="43.81366" lon="0.91501">
        <ele>125</ele>
        <time>2017-09-05T08:45:29Z</time>
      </trkpt>
      <trkpt lat="43.81362" lon="0.915">
        <ele>121</ele>
        <time>2017-09-05T08:45:30Z</time>
      </trkpt>
      <trkpt lat="43.81358" lon="0.91499">
        <ele>122</ele>
        <time>2017-09-05T08:45:31Z</time>
      </trkpt>
      <trkpt lat="43.81354" lon="0.91498">
        <ele>122</ele>
        <time>2017-09-05T08:45:32Z</time>
      </trkpt>
      <trkpt lat="43.8135" lon="0.91499">
        <ele>123</ele>
        <time>2017-09-05T08:45:33Z</time>
      </trkpt>
      <trkpt lat="43.81347" lon="0.91499">
        <ele>123</ele>
        <time>2017-09-05T08:45:34Z</time>
      </trkpt>
      <trkpt lat="43.81344" lon="0.91499">
        <ele>124</ele>
        <time>2017-09-05T08:45:35Z</time>
      </trkpt>
      <trkpt lat="43.81305" lon="0.91496">
        <ele>125</ele>
        <time>2017-09-05T08:45:51Z</time>
      </trkpt>
      <trkpt lat="43.81247" lon="0.91504">
        <ele>129</ele>
        <time>2017-09-05T08:46:08Z</time>
      </trkpt>
      <trkpt lat="43.81185" lon="0.91514">
        <ele>133</ele>
        <time>2017-09-05T08:46:26Z</time>
      </trkpt>
      <trkpt lat="43.81146" lon="0.91516">
        <ele>136</ele>
        <time>2017-09-05T08:46:39Z</time>
      </trkpt>
      <trkpt lat="43.81111" lon="0.91519">
        <ele>138</ele>
        <time>2017-09-05T08:46:53Z</time>
      </trkpt>
      <trkpt lat="43.8108" lon="0.91523">
        <ele>146</ele>
        <time>2017-09-05T08:47:07Z</time>
      </trkpt>
      <trkpt lat="43.81058" lon="0.91491">
        <ele>146</ele>
        <time>2017-09-05T08:47:21Z</time>
      </trkpt>
      <trkpt lat="43.81054" lon="0.9144">
        <ele>147</ele>
        <time>2017-09-05T08:47:36Z</time>
      </trkpt>
      <trkpt lat="43.81028" lon="0.914">
        <ele>145</ele>
        <time>2017-09-05T08:47:53Z</time>
      </trkpt>
      <trkpt lat="43.80987" lon="0.91405">
        <ele>149</ele>
        <time>2017-09-05T08:48:08Z</time>
      </trkpt>
      <trkpt lat="43.80944" lon="0.9143">
        <ele>155</ele>
        <time>2017-09-05T08:48:26Z</time>
      </trkpt>
      <trkpt lat="43.80903" lon="0.91462">
        <ele>155</ele>
        <time>2017-09-05T08:48:43Z</time>
      </trkpt>
      <trkpt lat="43.80867" lon="0.91497">
        <ele>154</ele>
        <time>2017-09-05T08:49:01Z</time>
      </trkpt>
      <trkpt lat="43.80879" lon="0.91546">
        <ele>160</ele>
        <time>2017-09-05T08:49:16Z</time>
      </trkpt>
      <trkpt lat="43.80892" lon="0.91616">
        <ele>163</ele>
        <time>2017-09-05T08:49:37Z</time>
      </trkpt>
      <trkpt lat="43.80884" lon="0.91697">
        <ele>164</ele>
        <time>2017-09-05T08:49:55Z</time>
      </trkpt>
      <trkpt lat="43.80886" lon="0.91759">
        <ele>167</ele>
        <time>2017-09-05T08:50:11Z</time>
      </trkpt>
      <trkpt lat="43.80888" lon="0.9176">
        <ele>167</ele>
        <time>2017-09-05T08:50:12Z</time>
      </trkpt>
      <trkpt lat="43.80889" lon="0.91761">
        <ele>167</ele>
        <time>2017-09-05T08:50:13Z</time>
      </trkpt>
      <trkpt lat="43.8089" lon="0.91761">
        <ele>167</ele>
        <time>2017-09-05T08:50:14Z</time>
      </trkpt>
      <trkpt lat="43.80892" lon="0.91761">
        <ele>167</ele>
        <time>2017-09-05T08:50:15Z</time>
      </trkpt>
      <trkpt lat="43.80893" lon="0.91761">
        <ele>168</ele>
        <time>2017-09-05T08:50:16Z</time>
      </trkpt>
      <trkpt lat="43.80895" lon="0.91761">
        <ele>168</ele>
        <time>2017-09-05T08:50:17Z</time>
      </trkpt>
      <trkpt lat="43.80896" lon="0.91761">
        <ele>168</ele>
        <time>2017-09-05T08:50:18Z</time>
      </trkpt>
      <trkpt lat="43.80897" lon="0.9176">
        <ele>168</ele>
        <time>2017-09-05T08:50:33Z</time>
      </trkpt>
      <trkpt lat="43.80893" lon="0.91761">
        <ele>168</ele>
        <time>2017-09-05T08:50:53Z</time>
      </trkpt>
      <trkpt lat="43.80894" lon="0.91762">
        <ele>168</ele>
        <time>2017-09-05T08:51:25Z</time>
      </trkpt>
      <trkpt lat="43.80917" lon="0.91763">
        <ele>171</ele>
        <time>2017-09-05T08:51:47Z</time>
      </trkpt>
      <trkpt lat="43.80925" lon="0.91756">
        <ele>171</ele>
        <time>2017-09-05T08:52:06Z</time>
      </trkpt>
      <trkpt lat="43.80928" lon="0.9175">
        <ele>170</ele>
        <time>2017-09-05T08:52:22Z</time>
      </trkpt>
      <trkpt lat="43.80928" lon="0.91749">
        <ele>170</ele>
        <time>2017-09-05T08:53:07Z</time>
      </trkpt>
      <trkpt lat="43.80927" lon="0.91749">
        <ele>170</ele>
        <time>2017-09-05T08:53:39Z</time>
      </trkpt>
      <trkpt lat="43.80927" lon="0.91741">
        <ele>170</ele>
        <time>2017-09-05T08:54:14Z</time>
      </trkpt>
      <trkpt lat="43.80926" lon="0.91734">
        <ele>169</ele>
        <time>2017-09-05T08:54:34Z</time>
      </trkpt>
      <trkpt lat="43.80926" lon="0.91729">
        <ele>169</ele>
        <time>2017-09-05T08:54:53Z</time>
      </trkpt>
      <trkpt lat="43.80925" lon="0.91715">
        <ele>169</ele>
        <time>2017-09-05T08:55:13Z</time>
      </trkpt>
      <trkpt lat="43.80924" lon="0.91699">
        <ele>169</ele>
        <time>2017-09-05T08:55:32Z</time>
      </trkpt>
      <trkpt lat="43.80924" lon="0.91679">
        <ele>170</ele>
        <time>2017-09-05T08:55:53Z</time>
      </trkpt>
      <trkpt lat="43.80925" lon="0.91672">
        <ele>170</ele>
        <time>2017-09-05T08:56:00Z</time>
      </trkpt>
      <trkpt lat="43.80928" lon="0.91641">
        <ele>168</ele>
        <time>2017-09-05T08:56:23Z</time>
      </trkpt>
      <trkpt lat="43.80927" lon="0.91634">
        <ele>167</ele>
        <time>2017-09-05T08:56:31Z</time>
      </trkpt>
      <trkpt lat="43.80923" lon="0.91627">
        <ele>167</ele>
        <time>2017-09-05T08:56:46Z</time>
      </trkpt>
      <trkpt lat="43.80921" lon="0.91623">
        <ele>167</ele>
        <time>2017-09-05T08:57:22Z</time>
      </trkpt>
      <trkpt lat="43.80921" lon="0.91623">
        <ele>167</ele>
        <time>2017-09-05T08:57:54Z</time>
      </trkpt>
      <trkpt lat="43.8092" lon="0.91625">
        <ele>168</ele>
        <time>2017-09-05T08:58:35Z</time>
      </trkpt>
      <trkpt lat="43.80921" lon="0.91623">
        <ele>168</ele>
        <time>2017-09-05T08:59:11Z</time>
      </trkpt>
      <trkpt lat="43.80921" lon="0.91622">
        <ele>167</ele>
        <time>2017-09-05T08:59:51Z</time>
      </trkpt>
      <trkpt lat="43.8092" lon="0.91628">
        <ele>168</ele>
        <time>2017-09-05T09:00:43Z</time>
      </trkpt>
      <trkpt lat="43.8092" lon="0.91628">
        <ele>168</ele>
        <time>2017-09-05T09:01:19Z</time>
      </trkpt>
      <trkpt lat="43.80918" lon="0.9163">
        <ele>168</ele>
        <time>2017-09-05T09:01:57Z</time>
      </trkpt>
      <trkpt lat="43.80921" lon="0.91627">
        <ele>168</ele>
        <time>2017-09-05T09:02:37Z</time>
      </trkpt>
      <trkpt lat="43.80921" lon="0.91628">
        <ele>168</ele>
        <time>2017-09-05T09:03:23Z</time>
      </trkpt>
      <trkpt lat="43.80921" lon="0.91627">
        <ele>168</ele>
        <time>2017-09-05T09:04:08Z</time>
      </trkpt>
      <trkpt lat="43.8092" lon="0.91629">
        <ele>168</ele>
        <time>2017-09-05T09:04:54Z</time>
      </trkpt>
      <trkpt lat="43.80918" lon="0.91627">
        <ele>168</ele>
        <time>2017-09-05T09:05:34Z</time>
      </trkpt>
      <trkpt lat="43.80918" lon="0.91626">
        <ele>168</ele>
        <time>2017-09-05T09:06:14Z</time>
      </trkpt>
      <trkpt lat="43.8092" lon="0.91624">
        <ele>168</ele>
        <time>2017-09-05T09:06:49Z</time>
      </trkpt>
      <trkpt lat="43.8092" lon="0.91626">
        <ele>168</ele>
        <time>2017-09-05T09:07:35Z</time>
      </trkpt>
      <trkpt lat="43.8092" lon="0.91628">
        <ele>168</ele>
        <time>2017-09-05T09:08:02Z</time>
      </trkpt>
      <trkpt lat="43.80921" lon="0.91628">
        <ele>168</ele>
        <time>2017-09-05T09:08:35Z</time>
      </trkpt>
      <trkpt lat="43.80922" lon="0.91625">
        <ele>167</ele>
        <time>2017-09-05T09:09:23Z</time>
      </trkpt>
      <trkpt lat="43.80922" lon="0.9163">
        <ele>168</ele>
        <time>2017-09-05T09:10:10Z</time>
      </trkpt>
      <trkpt lat="43.80921" lon="0.9163">
        <ele>168</ele>
        <time>2017-09-05T09:10:59Z</time>
      </trkpt>
      <trkpt lat="43.80918" lon="0.91628">
        <ele>168</ele>
        <time>2017-09-05T09:11:40Z</time>
      </trkpt>
      <trkpt lat="43.8092" lon="0.91623">
        <ele>168</ele>
        <time>2017-09-05T09:12:32Z</time>
      </trkpt>
      <trkpt lat="43.80921" lon="0.91625">
        <ele>168</ele>
        <time>2017-09-05T09:13:04Z</time>
      </trkpt>
      <trkpt lat="43.8092" lon="0.91616">
        <ele>168</ele>
        <time>2017-09-05T09:13:44Z</time>
      </trkpt>
      <trkpt lat="43.80919" lon="0.91617">
        <ele>168</ele>
        <time>2017-09-05T09:14:35Z</time>
      </trkpt>
      <trkpt lat="43.80919" lon="0.91619">
        <ele>168</ele>
        <time>2017-09-05T09:15:21Z</time>
      </trkpt>
      <trkpt lat="43.8092" lon="0.91624">
        <ele>168</ele>
        <time>2017-09-05T09:16:05Z</time>
      </trkpt>
      <trkpt lat="43.8092" lon="0.9162">
        <ele>168</ele>
        <time>2017-09-05T09:16:50Z</time>
      </trkpt>
      <trkpt lat="43.80923" lon="0.91629">
        <ele>168</ele>
        <time>2017-09-05T09:17:22Z</time>
      </trkpt>
      <trkpt lat="43.80923" lon="0.9164">
        <ele>168</ele>
        <time>2017-09-05T09:17:36Z</time>
      </trkpt>
      <trkpt lat="43.80923" lon="0.91641">
        <ele>168</ele>
        <time>2017-09-05T09:17:37Z</time>
      </trkpt>
      <trkpt lat="43.80923" lon="0.91643">
        <ele>168</ele>
        <time>2017-09-05T09:17:38Z</time>
      </trkpt>
      <trkpt lat="43.80923" lon="0.91645">
        <ele>168</ele>
        <time>2017-09-05T09:17:39Z</time>
      </trkpt>
      <trkpt lat="43.80923" lon="0.91647">
        <ele>168</ele>
        <time>2017-09-05T09:17:40Z</time>
      </trkpt>
      <trkpt lat="43.80923" lon="0.91649">
        <ele>169</ele>
        <time>2017-09-05T09:17:41Z</time>
      </trkpt>
      <trkpt lat="43.80924" lon="0.91708">
        <ele>169</ele>
        <time>2017-09-05T09:18:00Z</time>
      </trkpt>
      <trkpt lat="43.80924" lon="0.91724">
        <ele>169</ele>
        <time>2017-09-05T09:18:07Z</time>
      </trkpt>
      <trkpt lat="43.80924" lon="0.91726">
        <ele>169</ele>
        <time>2017-09-05T09:18:08Z</time>
      </trkpt>
      <trkpt lat="43.80924" lon="0.91727">
        <ele>169</ele>
        <time>2017-09-05T09:18:09Z</time>
      </trkpt>
      <trkpt lat="43.80924" lon="0.9173">
        <ele>169</ele>
        <time>2017-09-05T09:18:11Z</time>
      </trkpt>
      <trkpt lat="43.80925" lon="0.91732">
        <ele>169</ele>
        <time>2017-09-05T09:18:28Z</time>
      </trkpt>
      <trkpt lat="43.80921" lon="0.91761">
        <ele>171</ele>
        <time>2017-09-05T09:18:40Z</time>
      </trkpt>
      <trkpt lat="43.8092" lon="0.91819">
        <ele>171</ele>
        <time>2017-09-05T09:18:57Z</time>
      </trkpt>
      <trkpt lat="43.80924" lon="0.91858">
        <ele>173</ele>
        <time>2017-09-05T09:19:13Z</time>
      </trkpt>
      <trkpt lat="43.80924" lon="0.91859">
        <ele>173</ele>
        <time>2017-09-05T09:19:14Z</time>
      </trkpt>
      <trkpt lat="43.80925" lon="0.9186">
        <ele>173</ele>
        <time>2017-09-05T09:19:15Z</time>
      </trkpt>
      <trkpt lat="43.8096" lon="0.91881">
        <ele>173</ele>
        <time>2017-09-05T09:19:34Z</time>
      </trkpt>
      <trkpt lat="43.81022" lon="0.91932">
        <ele>175</ele>
        <time>2017-09-05T09:19:56Z</time>
      </trkpt>
      <trkpt lat="43.81069" lon="0.91994">
        <ele>176</ele>
        <time>2017-09-05T09:20:15Z</time>
      </trkpt>
      <trkpt lat="43.81124" lon="0.92047">
        <ele>178</ele>
        <time>2017-09-05T09:20:37Z</time>
      </trkpt>
      <trkpt lat="43.81165" lon="0.92103">
        <ele>179</ele>
        <time>2017-09-05T09:20:57Z</time>
      </trkpt>
      <trkpt lat="43.81159" lon="0.92183">
        <ele>180</ele>
        <time>2017-09-05T09:21:20Z</time>
      </trkpt>
      <trkpt lat="43.81134" lon="0.9228">
        <ele>181</ele>
        <time>2017-09-05T09:21:44Z</time>
      </trkpt>
      <trkpt lat="43.81134" lon="0.92286">
        <ele>181</ele>
        <time>2017-09-05T09:21:45Z</time>
      </trkpt>
      <trkpt lat="43.81135" lon="0.92292">
        <ele>181</ele>
        <time>2017-09-05T09:21:46Z</time>
      </trkpt>
      <trkpt lat="43.81137" lon="0.92298">
        <ele>181</ele>
        <time>2017-09-05T09:21:47Z</time>
      </trkpt>
      <trkpt lat="43.81139" lon="0.92305">
        <ele>181</ele>
        <time>2017-09-05T09:21:48Z</time>
      </trkpt>
      <trkpt lat="43.81143" lon="0.9231">
        <ele>180</ele>
        <time>2017-09-05T09:21:49Z</time>
      </trkpt>
      <trkpt lat="43.81147" lon="0.92316">
        <ele>180</ele>
        <time>2017-09-05T09:21:50Z</time>
      </trkpt>
      <trkpt lat="43.81151" lon="0.92322">
        <ele>180</ele>
        <time>2017-09-05T09:21:51Z</time>
      </trkpt>
      <trkpt lat="43.81195" lon="0.92371">
        <ele>179</ele>
        <time>2017-09-05T09:22:00Z</time>
      </trkpt>
      <trkpt lat="43.81199" lon="0.92378">
        <ele>178</ele>
        <time>2017-09-05T09:22:01Z</time>
      </trkpt>
      <trkpt lat="43.81226" lon="0.92437">
        <ele>178</ele>
        <time>2017-09-05T09:22:10Z</time>
      </trkpt>
      <trkpt lat="43.81231" lon="0.92465">
        <ele>177</ele>
        <time>2017-09-05T09:22:14Z</time>
      </trkpt>
      <trkpt lat="43.81232" lon="0.92473">
        <ele>177</ele>
        <time>2017-09-05T09:22:15Z</time>
      </trkpt>
      <trkpt lat="43.81228" lon="0.92538">
        <ele>172</ele>
        <time>2017-09-05T09:22:22Z</time>
      </trkpt>
      <trkpt lat="43.81222" lon="0.92588">
        <ele>165</ele>
        <time>2017-09-05T09:22:26Z</time>
      </trkpt>
      <trkpt lat="43.81218" lon="0.92632">
        <ele>163</ele>
        <time>2017-09-05T09:22:29Z</time>
      </trkpt>
      <trkpt lat="43.81216" lon="0.9266">
        <ele>162</ele>
        <time>2017-09-05T09:22:31Z</time>
      </trkpt>
      <trkpt lat="43.81197" lon="0.92791">
        <ele>157</ele>
        <time>2017-09-05T09:22:43Z</time>
      </trkpt>
      <trkpt lat="43.81198" lon="0.928">
        <ele>157</ele>
        <time>2017-09-05T09:22:44Z</time>
      </trkpt>
      <trkpt lat="43.81199" lon="0.92808">
        <ele>156</ele>
        <time>2017-09-05T09:22:45Z</time>
      </trkpt>
      <trkpt lat="43.81203" lon="0.92816">
        <ele>156</ele>
        <time>2017-09-05T09:22:46Z</time>
      </trkpt>
      <trkpt lat="43.81208" lon="0.92822">
        <ele>156</ele>
        <time>2017-09-05T09:22:47Z</time>
      </trkpt>
      <trkpt lat="43.81215" lon="0.92828">
        <ele>156</ele>
        <time>2017-09-05T09:22:48Z</time>
      </trkpt>
      <trkpt lat="43.81222" lon="0.92832">
        <ele>156</ele>
        <time>2017-09-05T09:22:49Z</time>
      </trkpt>
      <trkpt lat="43.81229" lon="0.92835">
        <ele>153</ele>
        <time>2017-09-05T09:22:50Z</time>
      </trkpt>
      <trkpt lat="43.81264" lon="0.9285">
        <ele>152</ele>
        <time>2017-09-05T09:22:55Z</time>
      </trkpt>
      <trkpt lat="43.81271" lon="0.92855">
        <ele>151</ele>
        <time>2017-09-05T09:22:56Z</time>
      </trkpt>
      <trkpt lat="43.81278" lon="0.92861">
        <ele>151</ele>
        <time>2017-09-05T09:22:57Z</time>
      </trkpt>
      <trkpt lat="43.81285" lon="0.9287">
        <ele>150</ele>
        <time>2017-09-05T09:22:58Z</time>
      </trkpt>
      <trkpt lat="43.81291" lon="0.92879">
        <ele>150</ele>
        <time>2017-09-05T09:22:59Z</time>
      </trkpt>
      <trkpt lat="43.81296" lon="0.92889">
        <ele>149</ele>
        <time>2017-09-05T09:23:00Z</time>
      </trkpt>
      <trkpt lat="43.81301" lon="0.929">
        <ele>149</ele>
        <time>2017-09-05T09:23:01Z</time>
      </trkpt>
      <trkpt lat="43.81306" lon="0.9291">
        <ele>149</ele>
        <time>2017-09-05T09:23:02Z</time>
      </trkpt>
      <trkpt lat="43.81315" lon="0.92931">
        <ele>146</ele>
        <time>2017-09-05T09:23:04Z</time>
      </trkpt>
      <trkpt lat="43.81371" lon="0.9304">
        <ele>142</ele>
        <time>2017-09-05T09:23:16Z</time>
      </trkpt>
      <trkpt lat="43.81462" lon="0.93126">
        <ele>139</ele>
        <time>2017-09-05T09:23:30Z</time>
      </trkpt>
      <trkpt lat="43.81488" lon="0.93141">
        <ele>139</ele>
        <time>2017-09-05T09:23:34Z</time>
      </trkpt>
      <trkpt lat="43.81495" lon="0.93143">
        <ele>139</ele>
        <time>2017-09-05T09:23:35Z</time>
      </trkpt>
      <trkpt lat="43.81502" lon="0.93145">
        <ele>139</ele>
        <time>2017-09-05T09:23:36Z</time>
      </trkpt>
      <trkpt lat="43.81508" lon="0.93146">
        <ele>139</ele>
        <time>2017-09-05T09:23:37Z</time>
      </trkpt>
      <trkpt lat="43.81515" lon="0.93146">
        <ele>139</ele>
        <time>2017-09-05T09:23:38Z</time>
      </trkpt>
      <trkpt lat="43.81521" lon="0.93146">
        <ele>139</ele>
        <time>2017-09-05T09:23:39Z</time>
      </trkpt>
      <trkpt lat="43.81547" lon="0.93148">
        <ele>139</ele>
        <time>2017-09-05T09:23:43Z</time>
      </trkpt>
      <trkpt lat="43.81553" lon="0.93149">
        <ele>139</ele>
        <time>2017-09-05T09:23:44Z</time>
      </trkpt>
      <trkpt lat="43.81559" lon="0.93152">
        <ele>139</ele>
        <time>2017-09-05T09:23:45Z</time>
      </trkpt>
      <trkpt lat="43.81565" lon="0.93155">
        <ele>138</ele>
        <time>2017-09-05T09:23:46Z</time>
      </trkpt>
      <trkpt lat="43.81571" lon="0.9316">
        <ele>138</ele>
        <time>2017-09-05T09:23:47Z</time>
      </trkpt>
      <trkpt lat="43.81576" lon="0.93164">
        <ele>138</ele>
        <time>2017-09-05T09:23:48Z</time>
      </trkpt>
      <trkpt lat="43.81594" lon="0.93178">
        <ele>137</ele>
        <time>2017-09-05T09:23:51Z</time>
      </trkpt>
      <trkpt lat="43.81599" lon="0.93185">
        <ele>137</ele>
        <time>2017-09-05T09:23:52Z</time>
      </trkpt>
      <trkpt lat="43.81603" lon="0.93192">
        <ele>137</ele>
        <time>2017-09-05T09:23:53Z</time>
      </trkpt>
      <trkpt lat="43.81606" lon="0.932">
        <ele>137</ele>
        <time>2017-09-05T09:23:54Z</time>
      </trkpt>
      <trkpt lat="43.81609" lon="0.9321">
        <ele>137</ele>
        <time>2017-09-05T09:23:55Z</time>
      </trkpt>
      <trkpt lat="43.81612" lon="0.93219">
        <ele>137</ele>
        <time>2017-09-05T09:23:56Z</time>
      </trkpt>
      <trkpt lat="43.8163" lon="0.93293">
        <ele>134</ele>
        <time>2017-09-05T09:24:03Z</time>
      </trkpt>
      <trkpt lat="43.81631" lon="0.93305">
        <ele>134</ele>
        <time>2017-09-05T09:24:04Z</time>
      </trkpt>
      <trkpt lat="43.81631" lon="0.93317">
        <ele>133</ele>
        <time>2017-09-05T09:24:05Z</time>
      </trkpt>
      <trkpt lat="43.81629" lon="0.9333">
        <ele>133</ele>
        <time>2017-09-05T09:24:06Z</time>
      </trkpt>
      <trkpt lat="43.81627" lon="0.93343">
        <ele>131</ele>
        <time>2017-09-05T09:24:07Z</time>
      </trkpt>
      <trkpt lat="43.81624" lon="0.93355">
        <ele>130</ele>
        <time>2017-09-05T09:24:08Z</time>
      </trkpt>
      <trkpt lat="43.81603" lon="0.93433">
        <ele>127</ele>
        <time>2017-09-05T09:24:14Z</time>
      </trkpt>
      <trkpt lat="43.81531" lon="0.93608">
        <ele>123</ele>
        <time>2017-09-05T09:24:30Z</time>
      </trkpt>
      <trkpt lat="43.81524" lon="0.93622">
        <ele>123</ele>
        <time>2017-09-05T09:24:32Z</time>
      </trkpt>
      <trkpt lat="43.81478" lon="0.93719">
        <ele>124</ele>
        <time>2017-09-05T09:24:49Z</time>
      </trkpt>
      <trkpt lat="43.81435" lon="0.9381">
        <ele>123</ele>
        <time>2017-09-05T09:25:04Z</time>
      </trkpt>
      <trkpt lat="43.81433" lon="0.93819">
        <ele>123</ele>
        <time>2017-09-05T09:25:05Z</time>
      </trkpt>
      <trkpt lat="43.81432" lon="0.93829">
        <ele>123</ele>
        <time>2017-09-05T09:25:06Z</time>
      </trkpt>
      <trkpt lat="43.81432" lon="0.9384">
        <ele>123</ele>
        <time>2017-09-05T09:25:07Z</time>
      </trkpt>
      <trkpt lat="43.81434" lon="0.93851">
        <ele>123</ele>
        <time>2017-09-05T09:25:08Z</time>
      </trkpt>
      <trkpt lat="43.81436" lon="0.93861">
        <ele>123</ele>
        <time>2017-09-05T09:25:09Z</time>
      </trkpt>
      <trkpt lat="43.81448" lon="0.93931">
        <ele>124</ele>
        <time>2017-09-05T09:25:16Z</time>
      </trkpt>
      <trkpt lat="43.81447" lon="0.93941">
        <ele>124</ele>
        <time>2017-09-05T09:25:17Z</time>
      </trkpt>
      <trkpt lat="43.81445" lon="0.9395">
        <ele>124</ele>
        <time>2017-09-05T09:25:18Z</time>
      </trkpt>
      <trkpt lat="43.81422" lon="0.9403">
        <ele>123</ele>
        <time>2017-09-05T09:25:28Z</time>
      </trkpt>
      <trkpt lat="43.81391" lon="0.9413">
        <ele>125</ele>
        <time>2017-09-05T09:25:44Z</time>
      </trkpt>
      <trkpt lat="43.81374" lon="0.94194">
        <ele>128</ele>
        <time>2017-09-05T09:25:59Z</time>
      </trkpt>
      <trkpt lat="43.81372" lon="0.94274">
        <ele>130</ele>
        <time>2017-09-05T09:26:19Z</time>
      </trkpt>
      <trkpt lat="43.81387" lon="0.94359">
        <ele>132</ele>
        <time>2017-09-05T09:26:40Z</time>
      </trkpt>
      <trkpt lat="43.81394" lon="0.94429">
        <ele>136</ele>
        <time>2017-09-05T09:26:58Z</time>
      </trkpt>
      <trkpt lat="43.81397" lon="0.94479">
        <ele>137</ele>
        <time>2017-09-05T09:27:13Z</time>
      </trkpt>
      <trkpt lat="43.81397" lon="0.94513">
        <ele>139</ele>
        <time>2017-09-05T09:27:25Z</time>
      </trkpt>
      <trkpt lat="43.81399" lon="0.94555">
        <ele>140</ele>
        <time>2017-09-05T09:27:40Z</time>
      </trkpt>
      <trkpt lat="43.81402" lon="0.94585">
        <ele>143</ele>
        <time>2017-09-05T09:27:59Z</time>
      </trkpt>
      <trkpt lat="43.81403" lon="0.94584">
        <ele>143</ele>
        <time>2017-09-05T09:28:32Z</time>
      </trkpt>
      <trkpt lat="43.81402" lon="0.94586">
        <ele>143</ele>
        <time>2017-09-05T09:29:03Z</time>
      </trkpt>
      <trkpt lat="43.81401" lon="0.94594">
        <ele>142</ele>
        <time>2017-09-05T09:29:12Z</time>
      </trkpt>
      <trkpt lat="43.81399" lon="0.94597">
        <ele>142</ele>
        <time>2017-09-05T09:29:27Z</time>
      </trkpt>
      <trkpt lat="43.81398" lon="0.94597">
        <ele>142</ele>
        <time>2017-09-05T09:29:44Z</time>
      </trkpt>
      <trkpt lat="43.81398" lon="0.94596">
        <ele>142</ele>
        <time>2017-09-05T09:30:20Z</time>
      </trkpt>
      <trkpt lat="43.81398" lon="0.94598">
        <ele>142</ele>
        <time>2017-09-05T09:30:58Z</time>
      </trkpt>
      <trkpt lat="43.81399" lon="0.94597">
        <ele>142</ele>
        <time>2017-09-05T09:31:46Z</time>
      </trkpt>
      <trkpt lat="43.81398" lon="0.94596">
        <ele>142</ele>
        <time>2017-09-05T09:32:37Z</time>
      </trkpt>
      <trkpt lat="43.81397" lon="0.94597">
        <ele>142</ele>
        <time>2017-09-05T09:33:31Z</time>
      </trkpt>
      <trkpt lat="43.81399" lon="0.94596">
        <ele>142</ele>
        <time>2017-09-05T09:34:25Z</time>
      </trkpt>
      <trkpt lat="43.81399" lon="0.94597">
        <ele>142</ele>
        <time>2017-09-05T09:35:16Z</time>
      </trkpt>
      <trkpt lat="43.81398" lon="0.94596">
        <ele>142</ele>
        <time>2017-09-05T09:36:10Z</time>
      </trkpt>
      <trkpt lat="43.81398" lon="0.94596">
        <ele>142</ele>
        <time>2017-09-05T09:37:01Z</time>
      </trkpt>
      <trkpt lat="43.81397" lon="0.94596">
        <ele>142</ele>
        <time>2017-09-05T09:37:54Z</time>
      </trkpt>
      <trkpt lat="43.81398" lon="0.94597">
        <ele>142</ele>
        <time>2017-09-05T09:38:46Z</time>
      </trkpt>
      <trkpt lat="43.81399" lon="0.94597">
        <ele>142</ele>
        <time>2017-09-05T09:39:42Z</time>
      </trkpt>
      <trkpt lat="43.81399" lon="0.94597">
        <ele>142</ele>
        <time>2017-09-05T09:40:34Z</time>
      </trkpt>
      <trkpt lat="43.814" lon="0.94598">
        <ele>142</ele>
        <time>2017-09-05T09:41:19Z</time>
      </trkpt>
      <trkpt lat="43.814" lon="0.94598">
        <ele>142</ele>
        <time>2017-09-05T09:42:07Z</time>
      </trkpt>
      <trkpt lat="43.81399" lon="0.94597">
        <ele>142</ele>
        <time>2017-09-05T09:42:54Z</time>
      </trkpt>
      <trkpt lat="43.81399" lon="0.94598">
        <ele>142</ele>
        <time>2017-09-05T09:43:39Z</time>
      </trkpt>
      <trkpt lat="43.814" lon="0.94598">
        <ele>142</ele>
        <time>2017-09-05T09:44:21Z</time>
      </trkpt>
      <trkpt lat="43.814" lon="0.94598">
        <ele>142</ele>
        <time>2017-09-05T09:45:04Z</time>
      </trkpt>
      <trkpt lat="43.81399" lon="0.94597">
        <ele>142</ele>
        <time>2017-09-05T09:45:56Z</time>
      </trkpt>
      <trkpt lat="43.81399" lon="0.94599">
        <ele>142</ele>
        <time>2017-09-05T09:46:41Z</time>
      </trkpt>
      <trkpt lat="43.814" lon="0.94599">
        <ele>142</ele>
        <time>2017-09-05T09:47:28Z</time>
      </trkpt>
      <trkpt lat="43.814" lon="0.946">
        <ele>142</ele>
        <time>2017-09-05T09:48:10Z</time>
      </trkpt>
      <trkpt lat="43.81399" lon="0.94598">
        <ele>142</ele>
        <time>2017-09-05T09:48:54Z</time>
      </trkpt>
      <trkpt lat="43.81398" lon="0.94597">
        <ele>142</ele>
        <time>2017-09-05T09:49:41Z</time>
      </trkpt>
      <trkpt lat="43.81398" lon="0.94599">
        <ele>142</ele>
        <time>2017-09-05T09:50:29Z</time>
      </trkpt>
      <trkpt lat="43.81398" lon="0.94597">
        <ele>142</ele>
        <time>2017-09-05T09:51:14Z</time>
      </trkpt>
      <trkpt lat="43.81399" lon="0.94598">
        <ele>142</ele>
        <time>2017-09-05T09:52:06Z</time>
      </trkpt>
      <trkpt lat="43.81399" lon="0.94598">
        <ele>142</ele>
        <time>2017-09-05T09:52:48Z</time>
      </trkpt>
      <trkpt lat="43.81399" lon="0.94599">
        <ele>142</ele>
        <time>2017-09-05T09:53:26Z</time>
      </trkpt>
      <trkpt lat="43.814" lon="0.94599">
        <ele>142</ele>
        <time>2017-09-05T09:54:06Z</time>
      </trkpt>
      <trkpt lat="43.814" lon="0.94599">
        <ele>142</ele>
        <time>2017-09-05T09:54:58Z</time>
      </trkpt>
      <trkpt lat="43.81401" lon="0.94599">
        <ele>142</ele>
        <time>2017-09-05T09:55:47Z</time>
      </trkpt>
      <trkpt lat="43.814" lon="0.94597">
        <ele>142</ele>
        <time>2017-09-05T09:56:31Z</time>
      </trkpt>
      <trkpt lat="43.814" lon="0.94597">
        <ele>142</ele>
        <time>2017-09-05T09:57:24Z</time>
      </trkpt>
      <trkpt lat="43.81399" lon="0.94598">
        <ele>142</ele>
        <time>2017-09-05T09:58:06Z</time>
      </trkpt>
      <trkpt lat="43.81401" lon="0.94599">
        <ele>142</ele>
        <time>2017-09-05T09:58:50Z</time>
      </trkpt>
      <trkpt lat="43.81404" lon="0.946">
        <ele>142</ele>
        <time>2017-09-05T09:58:56Z</time>
      </trkpt>
      <trkpt lat="43.81406" lon="0.94602">
        <ele>142</ele>
        <time>2017-09-05T09:58:59Z</time>
      </trkpt>
      <trkpt lat="43.81417" lon="0.94621">
        <ele>144</ele>
        <time>2017-09-05T09:59:10Z</time>
      </trkpt>
      <trkpt lat="43.81474" lon="0.947">
        <ele>147</ele>
        <time>2017-09-05T09:59:24Z</time>
      </trkpt>
      <trkpt lat="43.81481" lon="0.94708">
        <ele>147</ele>
        <time>2017-09-05T09:59:26Z</time>
      </trkpt>
      <trkpt lat="43.81529" lon="0.94772">
        <ele>151</ele>
        <time>2017-09-05T09:59:47Z</time>
      </trkpt>
      <trkpt lat="43.81553" lon="0.94806">
        <ele>152</ele>
        <time>2017-09-05T10:00:04Z</time>
      </trkpt>
      <trkpt lat="43.81576" lon="0.94837">
        <ele>155</ele>
        <time>2017-09-05T10:00:20Z</time>
      </trkpt>
      <trkpt lat="43.81598" lon="0.94867">
        <ele>157</ele>
        <time>2017-09-05T10:00:37Z</time>
      </trkpt>
      <trkpt lat="43.81625" lon="0.94899">
        <ele>158</ele>
        <time>2017-09-05T10:00:57Z</time>
      </trkpt>
      <trkpt lat="43.81663" lon="0.94948">
        <ele>162</ele>
        <time>2017-09-05T10:01:15Z</time>
      </trkpt>
      <trkpt lat="43.81684" lon="0.94975">
        <ele>159</ele>
        <time>2017-09-05T10:01:21Z</time>
      </trkpt>
      <trkpt lat="43.81704" lon="0.95003">
        <ele>158</ele>
        <time>2017-09-05T10:01:27Z</time>
      </trkpt>
      <trkpt lat="43.81726" lon="0.95055">
        <ele>157</ele>
        <time>2017-09-05T10:01:33Z</time>
      </trkpt>
      <trkpt lat="43.81788" lon="0.95155">
        <ele>155</ele>
        <time>2017-09-05T10:01:45Z</time>
      </trkpt>
      <trkpt lat="43.81796" lon="0.95165">
        <ele>155</ele>
        <time>2017-09-05T10:01:47Z</time>
      </trkpt>
      <trkpt lat="43.81836" lon="0.95208">
        <ele>159</ele>
        <time>2017-09-05T10:02:02Z</time>
      </trkpt>
      <trkpt lat="43.81894" lon="0.95269">
        <ele>163</ele>
        <time>2017-09-05T10:02:25Z</time>
      </trkpt>
      <trkpt lat="43.81929" lon="0.95314">
        <ele>165</ele>
        <time>2017-09-05T10:02:45Z</time>
      </trkpt>
      <trkpt lat="43.81954" lon="0.95346">
        <ele>168</ele>
        <time>2017-09-05T10:03:00Z</time>
      </trkpt>
      <trkpt lat="43.81998" lon="0.95389">
        <ele>169</ele>
        <time>2017-09-05T10:03:24Z</time>
      </trkpt>
      <trkpt lat="43.82039" lon="0.95435">
        <ele>168</ele>
        <time>2017-09-05T10:03:33Z</time>
      </trkpt>
      <trkpt lat="43.8207" lon="0.95477">
        <ele>167</ele>
        <time>2017-09-05T10:03:38Z</time>
      </trkpt>
      <trkpt lat="43.82091" lon="0.95502">
        <ele>164</ele>
        <time>2017-09-05T10:03:41Z</time>
      </trkpt>
      <trkpt lat="43.8212" lon="0.95532">
        <ele>163</ele>
        <time>2017-09-05T10:03:45Z</time>
      </trkpt>
      <trkpt lat="43.8223" lon="0.95608">
        <ele>160</ele>
        <time>2017-09-05T10:04:02Z</time>
      </trkpt>
      <trkpt lat="43.82284" lon="0.95645">
        <ele>163</ele>
        <time>2017-09-05T10:04:15Z</time>
      </trkpt>
      <trkpt lat="43.82317" lon="0.95668">
        <ele>168</ele>
        <time>2017-09-05T10:04:29Z</time>
      </trkpt>
      <trkpt lat="43.82322" lon="0.95709">
        <ele>169</ele>
        <time>2017-09-05T10:04:44Z</time>
      </trkpt>
      <trkpt lat="43.82299" lon="0.9577">
        <ele>172</ele>
        <time>2017-09-05T10:05:05Z</time>
      </trkpt>
      <trkpt lat="43.82303" lon="0.95821">
        <ele>173</ele>
        <time>2017-09-05T10:05:23Z</time>
      </trkpt>
      <trkpt lat="43.82327" lon="0.95835">
        <ele>175</ele>
        <time>2017-09-05T10:05:36Z</time>
      </trkpt>
      <trkpt lat="43.82328" lon="0.95837">
        <ele>175</ele>
        <time>2017-09-05T10:05:37Z</time>
      </trkpt>
      <trkpt lat="43.82332" lon="0.95841">
        <ele>175</ele>
        <time>2017-09-05T10:05:40Z</time>
      </trkpt>
      <trkpt lat="43.82334" lon="0.95841">
        <ele>175</ele>
        <time>2017-09-05T10:05:41Z</time>
      </trkpt>
      <trkpt lat="43.82335" lon="0.9584">
        <ele>175</ele>
        <time>2017-09-05T10:05:42Z</time>
      </trkpt>
      <trkpt lat="43.82336" lon="0.95838">
        <ele>175</ele>
        <time>2017-09-05T10:05:43Z</time>
      </trkpt>
      <trkpt lat="43.82336" lon="0.95836">
        <ele>175</ele>
        <time>2017-09-05T10:05:44Z</time>
      </trkpt>
      <trkpt lat="43.82335" lon="0.95834">
        <ele>175</ele>
        <time>2017-09-05T10:05:45Z</time>
      </trkpt>
      <trkpt lat="43.8235" lon="0.95803">
        <ele>174</ele>
        <time>2017-09-05T10:06:02Z</time>
      </trkpt>
      <trkpt lat="43.82363" lon="0.95801">
        <ele>174</ele>
        <time>2017-09-05T10:06:08Z</time>
      </trkpt>
      <trkpt lat="43.82365" lon="0.95798">
        <ele>174</ele>
        <time>2017-09-05T10:06:09Z</time>
      </trkpt>
      <trkpt lat="43.82366" lon="0.95796">
        <ele>174</ele>
        <time>2017-09-05T10:06:10Z</time>
      </trkpt>
      <trkpt lat="43.82367" lon="0.95793">
        <ele>174</ele>
        <time>2017-09-05T10:06:11Z</time>
      </trkpt>
      <trkpt lat="43.82368" lon="0.95791">
        <ele>174</ele>
        <time>2017-09-05T10:06:12Z</time>
      </trkpt>
      <trkpt lat="43.8238" lon="0.9575">
        <ele>174</ele>
        <time>2017-09-05T10:06:28Z</time>
      </trkpt>
      <trkpt lat="43.82381" lon="0.95746">
        <ele>173</ele>
        <time>2017-09-05T10:06:30Z</time>
      </trkpt>
      <trkpt lat="43.82383" lon="0.95745">
        <ele>173</ele>
        <time>2017-09-05T10:06:31Z</time>
      </trkpt>
      <trkpt lat="43.82384" lon="0.95745">
        <ele>173</ele>
        <time>2017-09-05T10:06:32Z</time>
      </trkpt>
      <trkpt lat="43.82395" lon="0.95751">
        <ele>174</ele>
        <time>2017-09-05T10:06:47Z</time>
      </trkpt>
      <trkpt lat="43.82392" lon="0.95757">
        <ele>174</ele>
        <time>2017-09-05T10:07:04Z</time>
      </trkpt>
      <trkpt lat="43.82392" lon="0.95759">
        <ele>174</ele>
        <time>2017-09-05T10:08:01Z</time>
      </trkpt>
      <trkpt lat="43.82391" lon="0.95758">
        <ele>174</ele>
        <time>2017-09-05T10:08:50Z</time>
      </trkpt>
      <trkpt lat="43.82392" lon="0.95761">
        <ele>174</ele>
        <time>2017-09-05T10:09:37Z</time>
      </trkpt>
      <trkpt lat="43.82392" lon="0.95759">
        <ele>174</ele>
        <time>2017-09-05T10:10:22Z</time>
      </trkpt>
      <trkpt lat="43.8239" lon="0.95759">
        <ele>174</ele>
        <time>2017-09-05T10:11:25Z</time>
      </trkpt>
      <trkpt lat="43.82391" lon="0.95759">
        <ele>174</ele>
        <time>2017-09-05T10:12:09Z</time>
      </trkpt>
      <trkpt lat="43.82394" lon="0.9576">
        <ele>174</ele>
        <time>2017-09-05T10:12:53Z</time>
      </trkpt>
      <trkpt lat="43.82393" lon="0.95761">
        <ele>174</ele>
        <time>2017-09-05T10:13:42Z</time>
      </trkpt>
      <trkpt lat="43.82395" lon="0.95762">
        <ele>174</ele>
        <time>2017-09-05T10:14:29Z</time>
      </trkpt>
      <trkpt lat="43.82396" lon="0.95763">
        <ele>174</ele>
        <time>2017-09-05T10:15:19Z</time>
      </trkpt>
      <trkpt lat="43.82398" lon="0.95759">
        <ele>174</ele>
        <time>2017-09-05T10:16:04Z</time>
      </trkpt>
      <trkpt lat="43.82393" lon="0.9576">
        <ele>174</ele>
        <time>2017-09-05T10:16:41Z</time>
      </trkpt>
      <trkpt lat="43.82397" lon="0.95756">
        <ele>174</ele>
        <time>2017-09-05T10:17:21Z</time>
      </trkpt>
      <trkpt lat="43.82397" lon="0.95756">
        <ele>174</ele>
        <time>2017-09-05T10:18:14Z</time>
      </trkpt>
      <trkpt lat="43.82394" lon="0.95759">
        <ele>174</ele>
        <time>2017-09-05T10:18:57Z</time>
      </trkpt>
      <trkpt lat="43.82393" lon="0.9576">
        <ele>174</ele>
        <time>2017-09-05T10:19:50Z</time>
      </trkpt>
      <trkpt lat="43.82395" lon="0.95763">
        <ele>174</ele>
        <time>2017-09-05T10:20:34Z</time>
      </trkpt>
      <trkpt lat="43.82392" lon="0.95767">
        <ele>174</ele>
        <time>2017-09-05T10:21:11Z</time>
      </trkpt>
      <trkpt lat="43.82395" lon="0.95769">
        <ele>174</ele>
        <time>2017-09-05T10:21:32Z</time>
      </trkpt>
      <trkpt lat="43.82396" lon="0.95769">
        <ele>174</ele>
        <time>2017-09-05T10:21:37Z</time>
      </trkpt>
      <trkpt lat="43.82396" lon="0.95766">
        <ele>174</ele>
        <time>2017-09-05T10:21:51Z</time>
      </trkpt>
      <trkpt lat="43.82395" lon="0.95765">
        <ele>174</ele>
        <time>2017-09-05T10:22:37Z</time>
      </trkpt>
      <trkpt lat="43.82392" lon="0.95764">
        <ele>174</ele>
        <time>2017-09-05T10:23:22Z</time>
      </trkpt>
      <trkpt lat="43.82393" lon="0.95759">
        <ele>174</ele>
        <time>2017-09-05T10:24:05Z</time>
      </trkpt>
      <trkpt lat="43.82394" lon="0.95761">
        <ele>174</ele>
        <time>2017-09-05T10:24:46Z</time>
      </trkpt>
      <trkpt lat="43.82391" lon="0.95761">
        <ele>174</ele>
        <time>2017-09-05T10:25:32Z</time>
      </trkpt>
      <trkpt lat="43.82392" lon="0.95766">
        <ele>174</ele>
        <time>2017-09-05T10:26:21Z</time>
      </trkpt>
      <trkpt lat="43.82391" lon="0.95761">
        <ele>174</ele>
        <time>2017-09-05T10:27:13Z</time>
      </trkpt>
      <trkpt lat="43.82393" lon="0.95761">
        <ele>174</ele>
        <time>2017-09-05T10:27:56Z</time>
      </trkpt>
      <trkpt lat="43.82392" lon="0.95758">
        <ele>174</ele>
        <time>2017-09-05T10:28:38Z</time>
      </trkpt>
      <trkpt lat="43.82391" lon="0.95755">
        <ele>174</ele>
        <time>2017-09-05T10:29:30Z</time>
      </trkpt>
      <trkpt lat="43.82392" lon="0.95756">
        <ele>174</ele>
        <time>2017-09-05T10:30:16Z</time>
      </trkpt>
      <trkpt lat="43.82393" lon="0.95757">
        <ele>174</ele>
        <time>2017-09-05T10:31:09Z</time>
      </trkpt>
      <trkpt lat="43.82395" lon="0.95761">
        <ele>174</ele>
        <time>2017-09-05T10:32:20Z</time>
      </trkpt>
      <trkpt lat="43.82391" lon="0.9576">
        <ele>174</ele>
        <time>2017-09-05T10:33:24Z</time>
      </trkpt>
      <trkpt lat="43.82397" lon="0.95759">
        <ele>174</ele>
        <time>2017-09-05T10:34:10Z</time>
      </trkpt>
      <trkpt lat="43.82397" lon="0.95761">
        <ele>174</ele>
        <time>2017-09-05T10:35:02Z</time>
      </trkpt>
      <trkpt lat="43.82395" lon="0.95763">
        <ele>174</ele>
        <time>2017-09-05T10:35:44Z</time>
      </trkpt>
      <trkpt lat="43.82395" lon="0.95765">
        <ele>174</ele>
        <time>2017-09-05T10:36:27Z</time>
      </trkpt>
      <trkpt lat="43.82394" lon="0.95762">
        <ele>174</ele>
        <time>2017-09-05T10:37:01Z</time>
      </trkpt>
      <trkpt lat="43.82392" lon="0.95759">
        <ele>174</ele>
        <time>2017-09-05T10:37:27Z</time>
      </trkpt>
      <trkpt lat="43.82394" lon="0.95765">
        <ele>174</ele>
        <time>2017-09-05T10:38:06Z</time>
      </trkpt>
      <trkpt lat="43.82393" lon="0.95765">
        <ele>174</ele>
        <time>2017-09-05T10:38:46Z</time>
      </trkpt>
      <trkpt lat="43.8239" lon="0.95766">
        <ele>174</ele>
        <time>2017-09-05T10:39:42Z</time>
      </trkpt>
      <trkpt lat="43.82391" lon="0.95765">
        <ele>174</ele>
        <time>2017-09-05T10:40:19Z</time>
      </trkpt>
      <trkpt lat="43.82391" lon="0.95764">
        <ele>174</ele>
        <time>2017-09-05T10:40:55Z</time>
      </trkpt>
      <trkpt lat="43.82391" lon="0.95767">
        <ele>174</ele>
        <time>2017-09-05T10:41:38Z</time>
      </trkpt>
      <trkpt lat="43.82394" lon="0.95765">
        <ele>174</ele>
        <time>2017-09-05T10:42:24Z</time>
      </trkpt>
      <trkpt lat="43.82394" lon="0.95765">
        <ele>174</ele>
        <time>2017-09-05T10:43:16Z</time>
      </trkpt>
      <trkpt lat="43.82394" lon="0.95767">
        <ele>174</ele>
        <time>2017-09-05T10:44:13Z</time>
      </trkpt>
      <trkpt lat="43.82393" lon="0.95768">
        <ele>174</ele>
        <time>2017-09-05T10:44:58Z</time>
      </trkpt>
      <trkpt lat="43.82395" lon="0.95767">
        <ele>174</ele>
        <time>2017-09-05T10:45:42Z</time>
      </trkpt>
      <trkpt lat="43.82398" lon="0.95764">
        <ele>174</ele>
        <time>2017-09-05T10:46:25Z</time>
      </trkpt>
      <trkpt lat="43.82397" lon="0.95761">
        <ele>174</ele>
        <time>2017-09-05T10:47:21Z</time>
      </trkpt>
      <trkpt lat="43.82392" lon="0.95762">
        <ele>174</ele>
        <time>2017-09-05T10:48:06Z</time>
      </trkpt>
      <trkpt lat="43.82392" lon="0.95758">
        <ele>174</ele>
        <time>2017-09-05T10:48:58Z</time>
      </trkpt>
      <trkpt lat="43.82391" lon="0.95761">
        <ele>174</ele>
        <time>2017-09-05T10:49:48Z</time>
      </trkpt>
      <trkpt lat="43.82394" lon="0.9576">
        <ele>174</ele>
        <time>2017-09-05T10:50:36Z</time>
      </trkpt>
      <trkpt lat="43.82395" lon="0.9576">
        <ele>174</ele>
        <time>2017-09-05T10:51:19Z</time>
      </trkpt>
      <trkpt lat="43.82389" lon="0.95764">
        <ele>174</ele>
        <time>2017-09-05T10:52:10Z</time>
      </trkpt>
      <trkpt lat="43.82391" lon="0.95762">
        <ele>174</ele>
        <time>2017-09-05T10:53:00Z</time>
      </trkpt>
      <trkpt lat="43.82393" lon="0.95762">
        <ele>174</ele>
        <time>2017-09-05T10:53:40Z</time>
      </trkpt>
      <trkpt lat="43.82392" lon="0.95759">
        <ele>174</ele>
        <time>2017-09-05T10:54:16Z</time>
      </trkpt>
      <trkpt lat="43.82393" lon="0.95758">
        <ele>174</ele>
        <time>2017-09-05T10:54:51Z</time>
      </trkpt>
      <trkpt lat="43.82392" lon="0.95759">
        <ele>174</ele>
        <time>2017-09-05T10:55:37Z</time>
      </trkpt>
      <trkpt lat="43.82389" lon="0.95762">
        <ele>174</ele>
        <time>2017-09-05T10:56:11Z</time>
      </trkpt>
      <trkpt lat="43.8239" lon="0.95763">
        <ele>174</ele>
        <time>2017-09-05T10:56:57Z</time>
      </trkpt>
      <trkpt lat="43.82391" lon="0.95767">
        <ele>174</ele>
        <time>2017-09-05T10:57:34Z</time>
      </trkpt>
      <trkpt lat="43.82387" lon="0.95764">
        <ele>174</ele>
        <time>2017-09-05T10:58:14Z</time>
      </trkpt>
      <trkpt lat="43.82392" lon="0.95765">
        <ele>174</ele>
        <time>2017-09-05T10:59:04Z</time>
      </trkpt>
      <trkpt lat="43.82393" lon="0.95765">
        <ele>174</ele>
        <time>2017-09-05T10:59:42Z</time>
      </trkpt>
      <trkpt lat="43.82389" lon="0.95765">
        <ele>174</ele>
        <time>2017-09-05T11:00:25Z</time>
      </trkpt>
      <trkpt lat="43.8239" lon="0.95763">
        <ele>174</ele>
        <time>2017-09-05T11:01:01Z</time>
      </trkpt>
      <trkpt lat="43.82391" lon="0.95762">
        <ele>174</ele>
        <time>2017-09-05T11:01:38Z</time>
      </trkpt>
      <trkpt lat="43.82394" lon="0.95762">
        <ele>174</ele>
        <time>2017-09-05T11:02:20Z</time>
      </trkpt>
      <trkpt lat="43.82392" lon="0.95764">
        <ele>174</ele>
        <time>2017-09-05T11:03:03Z</time>
      </trkpt>
      <trkpt lat="43.82393" lon="0.95764">
        <ele>174</ele>
        <time>2017-09-05T11:03:50Z</time>
      </trkpt>
      <trkpt lat="43.82395" lon="0.95763">
        <ele>174</ele>
        <time>2017-09-05T11:04:36Z</time>
      </trkpt>
      <trkpt lat="43.82392" lon="0.95763">
        <ele>174</ele>
        <time>2017-09-05T11:05:18Z</time>
      </trkpt>
      <trkpt lat="43.82397" lon="0.95762">
        <ele>174</ele>
        <time>2017-09-05T11:06:06Z</time>
      </trkpt>
      <trkpt lat="43.82397" lon="0.95764">
        <ele>174</ele>
        <time>2017-09-05T11:06:46Z</time>
      </trkpt>
      <trkpt lat="43.82393" lon="0.95767">
        <ele>174</ele>
        <time>2017-09-05T11:07:21Z</time>
      </trkpt>
      <trkpt lat="43.82397" lon="0.95767">
        <ele>174</ele>
        <time>2017-09-05T11:08:05Z</time>
      </trkpt>
      <trkpt lat="43.82391" lon="0.95768">
        <ele>174</ele>
        <time>2017-09-05T11:08:54Z</time>
      </trkpt>
      <trkpt lat="43.82393" lon="0.95768">
        <ele>174</ele>
        <time>2017-09-05T11:09:38Z</time>
      </trkpt>
      <trkpt lat="43.82397" lon="0.95763">
        <ele>174</ele>
        <time>2017-09-05T11:10:16Z</time>
      </trkpt>
      <trkpt lat="43.82396" lon="0.95766">
        <ele>174</ele>
        <time>2017-09-05T11:11:08Z</time>
      </trkpt>
      <trkpt lat="43.82393" lon="0.95767">
        <ele>174</ele>
        <time>2017-09-05T11:11:50Z</time>
      </trkpt>
      <trkpt lat="43.82396" lon="0.95765">
        <ele>174</ele>
        <time>2017-09-05T11:12:46Z</time>
      </trkpt>
      <trkpt lat="43.82393" lon="0.95769">
        <ele>174</ele>
        <time>2017-09-05T11:13:21Z</time>
      </trkpt>
      <trkpt lat="43.82396" lon="0.95768">
        <ele>174</ele>
        <time>2017-09-05T11:14:03Z</time>
      </trkpt>
      <trkpt lat="43.82396" lon="0.95766">
        <ele>174</ele>
        <time>2017-09-05T11:14:36Z</time>
      </trkpt>
      <trkpt lat="43.82393" lon="0.95764">
        <ele>174</ele>
        <time>2017-09-05T11:15:23Z</time>
      </trkpt>
      <trkpt lat="43.82392" lon="0.95766">
        <ele>174</ele>
        <time>2017-09-05T11:16:09Z</time>
      </trkpt>
      <trkpt lat="43.82395" lon="0.95768">
        <ele>174</ele>
        <time>2017-09-05T11:16:46Z</time>
      </trkpt>
      <trkpt lat="43.82396" lon="0.9577">
        <ele>174</ele>
        <time>2017-09-05T11:17:22Z</time>
      </trkpt>
      <trkpt lat="43.82393" lon="0.95768">
        <ele>174</ele>
        <time>2017-09-05T11:18:12Z</time>
      </trkpt>
      <trkpt lat="43.82393" lon="0.95768">
        <ele>174</ele>
        <time>2017-09-05T11:18:50Z</time>
      </trkpt>
      <trkpt lat="43.82393" lon="0.95765">
        <ele>174</ele>
        <time>2017-09-05T11:19:29Z</time>
      </trkpt>
      <trkpt lat="43.82395" lon="0.95768">
        <ele>174</ele>
        <time>2017-09-05T11:20:10Z</time>
      </trkpt>
      <trkpt lat="43.82396" lon="0.95763">
        <ele>174</ele>
        <time>2017-09-05T11:21:00Z</time>
      </trkpt>
      <trkpt lat="43.82397" lon="0.95762">
        <ele>174</ele>
        <time>2017-09-05T11:21:48Z</time>
      </trkpt>
      <trkpt lat="43.82394" lon="0.95765">
        <ele>174</ele>
        <time>2017-09-05T11:22:31Z</time>
      </trkpt>
      <trkpt lat="43.82394" lon="0.95764">
        <ele>174</ele>
        <time>2017-09-05T11:23:21Z</time>
      </trkpt>
      <trkpt lat="43.82398" lon="0.95761">
        <ele>174</ele>
        <time>2017-09-05T11:24:11Z</time>
      </trkpt>
      <trkpt lat="43.8239" lon="0.95768">
        <ele>174</ele>
        <time>2017-09-05T11:25:01Z</time>
      </trkpt>
      <trkpt lat="43.82392" lon="0.95765">
        <ele>174</ele>
        <time>2017-09-05T11:25:45Z</time>
      </trkpt>
      <trkpt lat="43.82395" lon="0.95761">
        <ele>174</ele>
        <time>2017-09-05T11:26:30Z</time>
      </trkpt>
      <trkpt lat="43.82394" lon="0.95764">
        <ele>174</ele>
        <time>2017-09-05T11:27:11Z</time>
      </trkpt>
      <trkpt lat="43.82394" lon="0.95763">
        <ele>174</ele>
        <time>2017-09-05T11:27:57Z</time>
      </trkpt>
      <trkpt lat="43.82393" lon="0.95761">
        <ele>174</ele>
        <time>2017-09-05T11:28:44Z</time>
      </trkpt>
      <trkpt lat="43.82393" lon="0.95761">
        <ele>174</ele>
        <time>2017-09-05T11:29:30Z</time>
      </trkpt>
      <trkpt lat="43.82396" lon="0.9576">
        <ele>174</ele>
        <time>2017-09-05T11:30:13Z</time>
      </trkpt>
      <trkpt lat="43.82393" lon="0.9576">
        <ele>174</ele>
        <time>2017-09-05T11:30:58Z</time>
      </trkpt>
      <trkpt lat="43.8239" lon="0.95763">
        <ele>174</ele>
        <time>2017-09-05T11:31:49Z</time>
      </trkpt>
      <trkpt lat="43.82393" lon="0.95765">
        <ele>174</ele>
        <time>2017-09-05T11:32:35Z</time>
      </trkpt>
      <trkpt lat="43.82394" lon="0.95756">
        <ele>174</ele>
        <time>2017-09-05T11:33:16Z</time>
      </trkpt>
      <trkpt lat="43.82395" lon="0.95758">
        <ele>174</ele>
        <time>2017-09-05T11:33:53Z</time>
      </trkpt>
      <trkpt lat="43.82396" lon="0.9576">
        <ele>174</ele>
        <time>2017-09-05T11:34:34Z</time>
      </trkpt>
      <trkpt lat="43.82393" lon="0.95762">
        <ele>174</ele>
        <time>2017-09-05T11:35:06Z</time>
      </trkpt>
      <trkpt lat="43.82396" lon="0.95761">
        <ele>174</ele>
        <time>2017-09-05T11:35:42Z</time>
      </trkpt>
      <trkpt lat="43.82394" lon="0.9576">
        <ele>174</ele>
        <time>2017-09-05T11:36:12Z</time>
      </trkpt>
      <trkpt lat="43.82394" lon="0.95758">
        <ele>174</ele>
        <time>2017-09-05T11:36:50Z</time>
      </trkpt>
      <trkpt lat="43.82395" lon="0.95759">
        <ele>174</ele>
        <time>2017-09-05T11:37:18Z</time>
      </trkpt>
      <trkpt lat="43.82397" lon="0.95756">
        <ele>174</ele>
        <time>2017-09-05T11:37:46Z</time>
      </trkpt>
      <trkpt lat="43.82397" lon="0.95756">
        <ele>174</ele>
        <time>2017-09-05T11:38:15Z</time>
      </trkpt>
      <trkpt lat="43.82397" lon="0.95758">
        <ele>174</ele>
        <time>2017-09-05T11:38:44Z</time>
      </trkpt>
      <trkpt lat="43.82397" lon="0.9576">
        <ele>174</ele>
        <time>2017-09-05T11:39:18Z</time>
      </trkpt>
      <trkpt lat="43.82397" lon="0.9576">
        <ele>174</ele>
        <time>2017-09-05T11:39:50Z</time>
      </trkpt>
      <trkpt lat="43.824" lon="0.95757">
        <ele>174</ele>
        <time>2017-09-05T11:40:26Z</time>
      </trkpt>
      <trkpt lat="43.82399" lon="0.95753">
        <ele>174</ele>
        <time>2017-09-05T11:41:03Z</time>
      </trkpt>
      <trkpt lat="43.82401" lon="0.95754">
        <ele>174</ele>
        <time>2017-09-05T11:41:46Z</time>
      </trkpt>
      <trkpt lat="43.82401" lon="0.95753">
        <ele>174</ele>
        <time>2017-09-05T11:42:19Z</time>
      </trkpt>
      <trkpt lat="43.82401" lon="0.95751">
        <ele>174</ele>
        <time>2017-09-05T11:43:01Z</time>
      </trkpt>
      <trkpt lat="43.82397" lon="0.9576">
        <ele>174</ele>
        <time>2017-09-05T11:43:47Z</time>
      </trkpt>
      <trkpt lat="43.82399" lon="0.95759">
        <ele>174</ele>
        <time>2017-09-05T11:44:32Z</time>
      </trkpt>
      <trkpt lat="43.824" lon="0.95762">
        <ele>174</ele>
        <time>2017-09-05T11:45:19Z</time>
      </trkpt>
      <trkpt lat="43.82398" lon="0.95763">
        <ele>174</ele>
        <time>2017-09-05T11:46:09Z</time>
      </trkpt>
      <trkpt lat="43.82396" lon="0.95764">
        <ele>174</ele>
        <time>2017-09-05T11:46:58Z</time>
      </trkpt>
      <trkpt lat="43.824" lon="0.95768">
        <ele>174</ele>
        <time>2017-09-05T11:47:46Z</time>
      </trkpt>
      <trkpt lat="43.82399" lon="0.95768">
        <ele>174</ele>
        <time>2017-09-05T11:48:36Z</time>
      </trkpt>
      <trkpt lat="43.82395" lon="0.95763">
        <ele>174</ele>
        <time>2017-09-05T11:49:25Z</time>
      </trkpt>
      <trkpt lat="43.82394" lon="0.95759">
        <ele>174</ele>
        <time>2017-09-05T11:50:00Z</time>
      </trkpt>
      <trkpt lat="43.82395" lon="0.9576">
        <ele>174</ele>
        <time>2017-09-05T11:50:39Z</time>
      </trkpt>
      <trkpt lat="43.82397" lon="0.95758">
        <ele>174</ele>
        <time>2017-09-05T11:51:21Z</time>
      </trkpt>
      <trkpt lat="43.82398" lon="0.9576">
        <ele>174</ele>
        <time>2017-09-05T11:51:52Z</time>
      </trkpt>
      <trkpt lat="43.82393" lon="0.95762">
        <ele>174</ele>
        <time>2017-09-05T11:52:36Z</time>
      </trkpt>
      <trkpt lat="43.82392" lon="0.95757">
        <ele>174</ele>
        <time>2017-09-05T11:53:08Z</time>
      </trkpt>
      <trkpt lat="43.82395" lon="0.95761">
        <ele>174</ele>
        <time>2017-09-05T11:53:56Z</time>
      </trkpt>
      <trkpt lat="43.82391" lon="0.9576">
        <ele>174</ele>
        <time>2017-09-05T11:54:46Z</time>
      </trkpt>
      <trkpt lat="43.82397" lon="0.95761">
        <ele>174</ele>
        <time>2017-09-05T11:55:39Z</time>
      </trkpt>
      <trkpt lat="43.82395" lon="0.95763">
        <ele>174</ele>
        <time>2017-09-05T11:56:27Z</time>
      </trkpt>
      <trkpt lat="43.82396" lon="0.95763">
        <ele>174</ele>
        <time>2017-09-05T11:57:17Z</time>
      </trkpt>
      <trkpt lat="43.82395" lon="0.95761">
        <ele>174</ele>
        <time>2017-09-05T11:58:04Z</time>
      </trkpt>
      <trkpt lat="43.82393" lon="0.95761">
        <ele>174</ele>
        <time>2017-09-05T11:59:02Z</time>
      </trkpt>
      <trkpt lat="43.82395" lon="0.9576">
        <ele>174</ele>
        <time>2017-09-05T11:59:42Z</time>
      </trkpt>
      <trkpt lat="43.82394" lon="0.95759">
        <ele>174</ele>
        <time>2017-09-05T12:00:28Z</time>
      </trkpt>
      <trkpt lat="43.82393" lon="0.95761">
        <ele>174</ele>
        <time>2017-09-05T12:01:10Z</time>
      </trkpt>
      <trkpt lat="43.82393" lon="0.95762">
        <ele>174</ele>
        <time>2017-09-05T12:01:56Z</time>
      </trkpt>
      <trkpt lat="43.82394" lon="0.95763">
        <ele>174</ele>
        <time>2017-09-05T12:02:42Z</time>
      </trkpt>
      <trkpt lat="43.82393" lon="0.95765">
        <ele>174</ele>
        <time>2017-09-05T12:03:28Z</time>
      </trkpt>
      <trkpt lat="43.82392" lon="0.95764">
        <ele>174</ele>
        <time>2017-09-05T12:04:09Z</time>
      </trkpt>
      <trkpt lat="43.82391" lon="0.95762">
        <ele>174</ele>
        <time>2017-09-05T12:04:52Z</time>
      </trkpt>
      <trkpt lat="43.82391" lon="0.95758">
        <ele>174</ele>
        <time>2017-09-05T12:05:26Z</time>
      </trkpt>
      <trkpt lat="43.8239" lon="0.95757">
        <ele>174</ele>
        <time>2017-09-05T12:06:01Z</time>
      </trkpt>
      <trkpt lat="43.82393" lon="0.9576">
        <ele>174</ele>
        <time>2017-09-05T12:06:27Z</time>
      </trkpt>
      <trkpt lat="43.82394" lon="0.9576">
        <ele>174</ele>
        <time>2017-09-05T12:06:55Z</time>
      </trkpt>
      <trkpt lat="43.82394" lon="0.95758">
        <ele>174</ele>
        <time>2017-09-05T12:07:19Z</time>
      </trkpt>
      <trkpt lat="43.82394" lon="0.95758">
        <ele>174</ele>
        <time>2017-09-05T12:07:46Z</time>
      </trkpt>
      <trkpt lat="43.82392" lon="0.95758">
        <ele>174</ele>
        <time>2017-09-05T12:08:30Z</time>
      </trkpt>
      <trkpt lat="43.82392" lon="0.95757">
        <ele>174</ele>
        <time>2017-09-05T12:09:15Z</time>
      </trkpt>
      <trkpt lat="43.82394" lon="0.95757">
        <ele>174</ele>
        <time>2017-09-05T12:09:52Z</time>
      </trkpt>
      <trkpt lat="43.82392" lon="0.95758">
        <ele>174</ele>
        <time>2017-09-05T12:10:48Z</time>
      </trkpt>
      <trkpt lat="43.82393" lon="0.95759">
        <ele>174</ele>
        <time>2017-09-05T12:11:25Z</time>
      </trkpt>
      <trkpt lat="43.82394" lon="0.95762">
        <ele>174</ele>
        <time>2017-09-05T12:12:00Z</time>
      </trkpt>
      <trkpt lat="43.82394" lon="0.95759">
        <ele>174</ele>
        <time>2017-09-05T12:12:49Z</time>
      </trkpt>
      <trkpt lat="43.82395" lon="0.95757">
        <ele>174</ele>
        <time>2017-09-05T12:13:46Z</time>
      </trkpt>
      <trkpt lat="43.82393" lon="0.95757">
        <ele>174</ele>
        <time>2017-09-05T12:14:38Z</time>
      </trkpt>
      <trkpt lat="43.82395" lon="0.95757">
        <ele>174</ele>
        <time>2017-09-05T12:15:22Z</time>
      </trkpt>
      <trkpt lat="43.82397" lon="0.95759">
        <ele>174</ele>
        <time>2017-09-05T12:16:14Z</time>
      </trkpt>
      <trkpt lat="43.82396" lon="0.95762">
        <ele>174</ele>
        <time>2017-09-05T12:16:58Z</time>
      </trkpt>
      <trkpt lat="43.82396" lon="0.9576">
        <ele>174</ele>
        <time>2017-09-05T12:17:39Z</time>
      </trkpt>
      <trkpt lat="43.82394" lon="0.9576">
        <ele>174</ele>
        <time>2017-09-05T12:18:25Z</time>
      </trkpt>
      <trkpt lat="43.82394" lon="0.95763">
        <ele>174</ele>
        <time>2017-09-05T12:19:18Z</time>
      </trkpt>
      <trkpt lat="43.82394" lon="0.95761">
        <ele>174</ele>
        <time>2017-09-05T12:20:01Z</time>
      </trkpt>
      <trkpt lat="43.82395" lon="0.9576">
        <ele>174</ele>
        <time>2017-09-05T12:20:49Z</time>
      </trkpt>
      <trkpt lat="43.82391" lon="0.95763">
        <ele>174</ele>
        <time>2017-09-05T12:21:34Z</time>
      </trkpt>
      <trkpt lat="43.82392" lon="0.95762">
        <ele>174</ele>
        <time>2017-09-05T12:22:24Z</time>
      </trkpt>
      <trkpt lat="43.82394" lon="0.95762">
        <ele>174</ele>
        <time>2017-09-05T12:23:14Z</time>
      </trkpt>
      <trkpt lat="43.82394" lon="0.95763">
        <ele>174</ele>
        <time>2017-09-05T12:23:55Z</time>
      </trkpt>
      <trkpt lat="43.82394" lon="0.95758">
        <ele>174</ele>
        <time>2017-09-05T12:24:46Z</time>
      </trkpt>
      <trkpt lat="43.82394" lon="0.95762">
        <ele>174</ele>
        <time>2017-09-05T12:25:38Z</time>
      </trkpt>
      <trkpt lat="43.82392" lon="0.95762">
        <ele>174</ele>
        <time>2017-09-05T12:26:41Z</time>
      </trkpt>
      <trkpt lat="43.82393" lon="0.95762">
        <ele>174</ele>
        <time>2017-09-05T12:27:36Z</time>
      </trkpt>
      <trkpt lat="43.82395" lon="0.95761">
        <ele>174</ele>
        <time>2017-09-05T12:28:34Z</time>
      </trkpt>
      <trkpt lat="43.82393" lon="0.95763">
        <ele>174</ele>
        <time>2017-09-05T12:29:18Z</time>
      </trkpt>
      <trkpt lat="43.82393" lon="0.95763">
        <ele>174</ele>
        <time>2017-09-05T12:30:09Z</time>
      </trkpt>
      <trkpt lat="43.82392" lon="0.9576">
        <ele>174</ele>
        <time>2017-09-05T12:30:43Z</time>
      </trkpt>
      <trkpt lat="43.82392" lon="0.95758">
        <ele>174</ele>
        <time>2017-09-05T12:31:38Z</time>
      </trkpt>
      <trkpt lat="43.82392" lon="0.95761">
        <ele>174</ele>
        <time>2017-09-05T12:32:36Z</time>
      </trkpt>
      <trkpt lat="43.82391" lon="0.95761">
        <ele>174</ele>
        <time>2017-09-05T12:33:25Z</time>
      </trkpt>
      <trkpt lat="43.82391" lon="0.95761">
        <ele>174</ele>
        <time>2017-09-05T12:34:24Z</time>
      </trkpt>
      <trkpt lat="43.82391" lon="0.95757">
        <ele>174</ele>
        <time>2017-09-05T12:35:08Z</time>
      </trkpt>
      <trkpt lat="43.82392" lon="0.95762">
        <ele>174</ele>
        <time>2017-09-05T12:35:53Z</time>
      </trkpt>
      <trkpt lat="43.82394" lon="0.95762">
        <ele>174</ele>
        <time>2017-09-05T12:36:45Z</time>
      </trkpt>
      <trkpt lat="43.82395" lon="0.95761">
        <ele>174</ele>
        <time>2017-09-05T12:37:30Z</time>
      </trkpt>
      <trkpt lat="43.82394" lon="0.95761">
        <ele>174</ele>
        <time>2017-09-05T12:38:19Z</time>
      </trkpt>
      <trkpt lat="43.82394" lon="0.95758">
        <ele>174</ele>
        <time>2017-09-05T12:39:08Z</time>
      </trkpt>
      <trkpt lat="43.82394" lon="0.95759">
        <ele>174</ele>
        <time>2017-09-05T12:39:55Z</time>
      </trkpt>
      <trkpt lat="43.82396" lon="0.95759">
        <ele>174</ele>
        <time>2017-09-05T12:40:43Z</time>
      </trkpt>
      <trkpt lat="43.82397" lon="0.95762">
        <ele>174</ele>
        <time>2017-09-05T12:41:27Z</time>
      </trkpt>
      <trkpt lat="43.82394" lon="0.95764">
        <ele>174</ele>
        <time>2017-09-05T12:42:21Z</time>
      </trkpt>
      <trkpt lat="43.82396" lon="0.95762">
        <ele>174</ele>
        <time>2017-09-05T12:43:08Z</time>
      </trkpt>
      <trkpt lat="43.82399" lon="0.95763">
        <ele>174</ele>
        <time>2017-09-05T12:44:05Z</time>
      </trkpt>
      <trkpt lat="43.82397" lon="0.95761">
        <ele>174</ele>
        <time>2017-09-05T12:44:44Z</time>
      </trkpt>
      <trkpt lat="43.82395" lon="0.95758">
        <ele>174</ele>
        <time>2017-09-05T12:45:36Z</time>
      </trkpt>
      <trkpt lat="43.82394" lon="0.95761">
        <ele>174</ele>
        <time>2017-09-05T12:46:31Z</time>
      </trkpt>
      <trkpt lat="43.8239" lon="0.95757">
        <ele>174</ele>
        <time>2017-09-05T12:47:12Z</time>
      </trkpt>
      <trkpt lat="43.82391" lon="0.95759">
        <ele>174</ele>
        <time>2017-09-05T12:47:52Z</time>
      </trkpt>
      <trkpt lat="43.82393" lon="0.95759">
        <ele>174</ele>
        <time>2017-09-05T12:48:34Z</time>
      </trkpt>
      <trkpt lat="43.82394" lon="0.95762">
        <ele>174</ele>
        <time>2017-09-05T12:49:15Z</time>
      </trkpt>
      <trkpt lat="43.82398" lon="0.95762">
        <ele>174</ele>
        <time>2017-09-05T12:50:05Z</time>
      </trkpt>
      <trkpt lat="43.82395" lon="0.9576">
        <ele>174</ele>
        <time>2017-09-05T12:50:43Z</time>
      </trkpt>
      <trkpt lat="43.82396" lon="0.9576">
        <ele>174</ele>
        <time>2017-09-05T12:51:29Z</time>
      </trkpt>
      <trkpt lat="43.82394" lon="0.9576">
        <ele>174</ele>
        <time>2017-09-05T12:52:03Z</time>
      </trkpt>
      <trkpt lat="43.82394" lon="0.95757">
        <ele>174</ele>
        <time>2017-09-05T12:52:42Z</time>
      </trkpt>
      <trkpt lat="43.82393" lon="0.95758">
        <ele>174</ele>
        <time>2017-09-05T12:53:10Z</time>
      </trkpt>
      <trkpt lat="43.82394" lon="0.95758">
        <ele>174</ele>
        <time>2017-09-05T12:53:41Z</time>
      </trkpt>
      <trkpt lat="43.82394" lon="0.95759">
        <ele>174</ele>
        <time>2017-09-05T12:54:24Z</time>
      </trkpt>
      <trkpt lat="43.82392" lon="0.95763">
        <ele>174</ele>
        <time>2017-09-05T12:55:05Z</time>
      </trkpt>
      <trkpt lat="43.82388" lon="0.95761">
        <ele>174</ele>
        <time>2017-09-05T12:55:59Z</time>
      </trkpt>
      <trkpt lat="43.82387" lon="0.95761">
        <ele>174</ele>
        <time>2017-09-05T12:56:44Z</time>
      </trkpt>
      <trkpt lat="43.82395" lon="0.95762">
        <ele>174</ele>
        <time>2017-09-05T12:57:00Z</time>
      </trkpt>
      <trkpt lat="43.82403" lon="0.95754">
        <ele>174</ele>
        <time>2017-09-05T12:57:15Z</time>
      </trkpt>
      <trkpt lat="43.82406" lon="0.95749">
        <ele>174</ele>
        <time>2017-09-05T12:57:33Z</time>
      </trkpt>
      <trkpt lat="43.82407" lon="0.95749">
        <ele>174</ele>
        <time>2017-09-05T12:57:34Z</time>
      </trkpt>
      <trkpt lat="43.82415" lon="0.9575">
        <ele>174</ele>
        <time>2017-09-05T12:57:43Z</time>
      </trkpt>
      <trkpt lat="43.82416" lon="0.9575">
        <ele>174</ele>
        <time>2017-09-05T12:57:44Z</time>
      </trkpt>
      <trkpt lat="43.8245" lon="0.95768">
        <ele>173</ele>
        <time>2017-09-05T12:58:00Z</time>
      </trkpt>
      <trkpt lat="43.82477" lon="0.95786">
        <ele>173</ele>
        <time>2017-09-05T12:58:14Z</time>
      </trkpt>
      <trkpt lat="43.82524" lon="0.95816">
        <ele>170</ele>
        <time>2017-09-05T12:58:28Z</time>
      </trkpt>
      <trkpt lat="43.82538" lon="0.95827">
        <ele>170</ele>
        <time>2017-09-05T12:58:32Z</time>
      </trkpt>
      <trkpt lat="43.82539" lon="0.95831">
        <ele>169</ele>
        <time>2017-09-05T12:58:33Z</time>
      </trkpt>
      <trkpt lat="43.82537" lon="0.95835">
        <ele>168</ele>
        <time>2017-09-05T12:58:34Z</time>
      </trkpt>
      <trkpt lat="43.82536" lon="0.95837">
        <ele>168</ele>
        <time>2017-09-05T12:58:35Z</time>
      </trkpt>
      <trkpt lat="43.82533" lon="0.95839">
        <ele>168</ele>
        <time>2017-09-05T12:58:36Z</time>
      </trkpt>
      <trkpt lat="43.82505" lon="0.95858">
        <ele>169</ele>
        <time>2017-09-05T12:58:46Z</time>
      </trkpt>
      <trkpt lat="43.82452" lon="0.95885">
        <ele>172</ele>
        <time>2017-09-05T12:59:06Z</time>
      </trkpt>
      <trkpt lat="43.82383" lon="0.95892">
        <ele>174</ele>
        <time>2017-09-05T12:59:28Z</time>
      </trkpt>
      <trkpt lat="43.8232" lon="0.9589">
        <ele>173</ele>
        <time>2017-09-05T12:59:47Z</time>
      </trkpt>
      <trkpt lat="43.82232" lon="0.95885">
        <ele>172</ele>
        <time>2017-09-05T13:00:09Z</time>
      </trkpt>
      <trkpt lat="43.82139" lon="0.9588">
        <ele>171</ele>
        <time>2017-09-05T13:00:30Z</time>
      </trkpt>
      <trkpt lat="43.82043" lon="0.95875">
        <ele>175</ele>
        <time>2017-09-05T13:00:53Z</time>
      </trkpt>
      <trkpt lat="43.81966" lon="0.95871">
        <ele>177</ele>
        <time>2017-09-05T13:01:14Z</time>
      </trkpt>
      <trkpt lat="43.81898" lon="0.95875">
        <ele>181</ele>
        <time>2017-09-05T13:01:36Z</time>
      </trkpt>
      <trkpt lat="43.81831" lon="0.95912">
        <ele>186</ele>
        <time>2017-09-05T13:01:58Z</time>
      </trkpt>
      <trkpt lat="43.81773" lon="0.95966">
        <ele>188</ele>
        <time>2017-09-05T13:02:19Z</time>
      </trkpt>
      <trkpt lat="43.8174" lon="0.96027">
        <ele>191</ele>
        <time>2017-09-05T13:02:35Z</time>
      </trkpt>
      <trkpt lat="43.81732" lon="0.96119">
        <ele>184</ele>
        <time>2017-09-05T13:02:53Z</time>
      </trkpt>
      <trkpt lat="43.81682" lon="0.96177">
        <ele>182</ele>
        <time>2017-09-05T13:03:11Z</time>
      </trkpt>
      <trkpt lat="43.81614" lon="0.96201">
        <ele>189</ele>
        <time>2017-09-05T13:03:31Z</time>
      </trkpt>
      <trkpt lat="43.81566" lon="0.96256">
        <ele>190</ele>
        <time>2017-09-05T13:03:49Z</time>
      </trkpt>
      <trkpt lat="43.81514" lon="0.96357">
        <ele>188</ele>
        <time>2017-09-05T13:04:13Z</time>
      </trkpt>
      <trkpt lat="43.81443" lon="0.9644">
        <ele>191</ele>
        <time>2017-09-05T13:04:36Z</time>
      </trkpt>
      <trkpt lat="43.81384" lon="0.96507">
        <ele>192</ele>
        <time>2017-09-05T13:04:54Z</time>
      </trkpt>
      <trkpt lat="43.81322" lon="0.96569">
        <ele>194</ele>
        <time>2017-09-05T13:05:12Z</time>
      </trkpt>
      <trkpt lat="43.81233" lon="0.96578">
        <ele>193</ele>
        <time>2017-09-05T13:05:32Z</time>
      </trkpt>
      <trkpt lat="43.81214" lon="0.96579">
        <ele>194</ele>
        <time>2017-09-05T13:05:36Z</time>
      </trkpt>
      <trkpt lat="43.81209" lon="0.9658">
        <ele>194</ele>
        <time>2017-09-05T13:05:37Z</time>
      </trkpt>
      <trkpt lat="43.81205" lon="0.96582">
        <ele>194</ele>
        <time>2017-09-05T13:05:38Z</time>
      </trkpt>
      <trkpt lat="43.81196" lon="0.96587">
        <ele>191</ele>
        <time>2017-09-05T13:05:40Z</time>
      </trkpt>
      <trkpt lat="43.8111" lon="0.96666">
        <ele>196</ele>
        <time>2017-09-05T13:06:03Z</time>
      </trkpt>
      <trkpt lat="43.81071" lon="0.96703">
        <ele>195</ele>
        <time>2017-09-05T13:06:14Z</time>
      </trkpt>
      <trkpt lat="43.80995" lon="0.96776">
        <ele>198</ele>
        <time>2017-09-05T13:06:35Z</time>
      </trkpt>
      <trkpt lat="43.80925" lon="0.96841">
        <ele>199</ele>
        <time>2017-09-05T13:06:55Z</time>
      </trkpt>
      <trkpt lat="43.80848" lon="0.96915">
        <ele>198</ele>
        <time>2017-09-05T13:07:16Z</time>
      </trkpt>
      <trkpt lat="43.80754" lon="0.97005">
        <ele>199</ele>
        <time>2017-09-05T13:07:41Z</time>
      </trkpt>
      <trkpt lat="43.80679" lon="0.97076">
        <ele>202</ele>
        <time>2017-09-05T13:08:01Z</time>
      </trkpt>
      <trkpt lat="43.80582" lon="0.97169">
        <ele>197</ele>
        <time>2017-09-05T13:08:26Z</time>
      </trkpt>
      <trkpt lat="43.80483" lon="0.9725">
        <ele>195</ele>
        <time>2017-09-05T13:08:50Z</time>
      </trkpt>
      <trkpt lat="43.80478" lon="0.97251">
        <ele>195</ele>
        <time>2017-09-05T13:08:51Z</time>
      </trkpt>
      <trkpt lat="43.80469" lon="0.97251">
        <ele>196</ele>
        <time>2017-09-05T13:08:53Z</time>
      </trkpt>
      <trkpt lat="43.80465" lon="0.97251">
        <ele>196</ele>
        <time>2017-09-05T13:08:54Z</time>
      </trkpt>
      <trkpt lat="43.80399" lon="0.9722">
        <ele>205</ele>
        <time>2017-09-05T13:09:12Z</time>
      </trkpt>
      <trkpt lat="43.8034" lon="0.97251">
        <ele>207</ele>
        <time>2017-09-05T13:09:31Z</time>
      </trkpt>
      <trkpt lat="43.80307" lon="0.97324">
        <ele>211</ele>
        <time>2017-09-05T13:09:49Z</time>
      </trkpt>
      <trkpt lat="43.80254" lon="0.97395">
        <ele>210</ele>
        <time>2017-09-05T13:10:12Z</time>
      </trkpt>
      <trkpt lat="43.80184" lon="0.97426">
        <ele>216</ele>
        <time>2017-09-05T13:10:34Z</time>
      </trkpt>
      <trkpt lat="43.80132" lon="0.97485">
        <ele>220</ele>
        <time>2017-09-05T13:10:55Z</time>
      </trkpt>
      <trkpt lat="43.80091" lon="0.9758">
        <ele>221</ele>
        <time>2017-09-05T13:11:20Z</time>
      </trkpt>
      <trkpt lat="43.80053" lon="0.97663">
        <ele>227</ele>
        <time>2017-09-05T13:11:44Z</time>
      </trkpt>
      <trkpt lat="43.80025" lon="0.97733">
        <ele>228</ele>
        <time>2017-09-05T13:12:03Z</time>
      </trkpt>
      <trkpt lat="43.79992" lon="0.97814">
        <ele>231</ele>
        <time>2017-09-05T13:12:25Z</time>
      </trkpt>
      <trkpt lat="43.79973" lon="0.9791">
        <ele>227</ele>
        <time>2017-09-05T13:12:48Z</time>
      </trkpt>
      <trkpt lat="43.79952" lon="0.98014">
        <ele>231</ele>
        <time>2017-09-05T13:13:10Z</time>
      </trkpt>
      <trkpt lat="43.7989" lon="0.9811">
        <ele>232</ele>
        <time>2017-09-05T13:13:34Z</time>
      </trkpt>
      <trkpt lat="43.79826" lon="0.98195">
        <ele>228</ele>
        <time>2017-09-05T13:13:57Z</time>
      </trkpt>
      <trkpt lat="43.79821" lon="0.98231">
        <ele>229</ele>
        <time>2017-09-05T13:14:04Z</time>
      </trkpt>
      <trkpt lat="43.79822" lon="0.98236">
        <ele>230</ele>
        <time>2017-09-05T13:14:05Z</time>
      </trkpt>
      <trkpt lat="43.79823" lon="0.98242">
        <ele>231</ele>
        <time>2017-09-05T13:14:06Z</time>
      </trkpt>
      <trkpt lat="43.79824" lon="0.98246">
        <ele>232</ele>
        <time>2017-09-05T13:14:07Z</time>
      </trkpt>
      <trkpt lat="43.79826" lon="0.98252">
        <ele>232</ele>
        <time>2017-09-05T13:14:08Z</time>
      </trkpt>
      <trkpt lat="43.79828" lon="0.98256">
        <ele>232</ele>
        <time>2017-09-05T13:14:09Z</time>
      </trkpt>
      <trkpt lat="43.79831" lon="0.98261">
        <ele>231</ele>
        <time>2017-09-05T13:14:10Z</time>
      </trkpt>
      <trkpt lat="43.79833" lon="0.98265">
        <ele>230</ele>
        <time>2017-09-05T13:14:11Z</time>
      </trkpt>
      <trkpt lat="43.79836" lon="0.9827">
        <ele>237</ele>
        <time>2017-09-05T13:14:12Z</time>
      </trkpt>
      <trkpt lat="43.79839" lon="0.98273">
        <ele>237</ele>
        <time>2017-09-05T13:14:13Z</time>
      </trkpt>
      <trkpt lat="43.79842" lon="0.98277">
        <ele>237</ele>
        <time>2017-09-05T13:14:14Z</time>
      </trkpt>
      <trkpt lat="43.7989" lon="0.98301">
        <ele>241</ele>
        <time>2017-09-05T13:14:30Z</time>
      </trkpt>
      <trkpt lat="43.79909" lon="0.98336">
        <ele>244</ele>
        <time>2017-09-05T13:14:45Z</time>
      </trkpt>
      <trkpt lat="43.7991" lon="0.98384">
        <ele>241</ele>
        <time>2017-09-05T13:15:01Z</time>
      </trkpt>
      <trkpt lat="43.79904" lon="0.98445">
        <ele>243</ele>
        <time>2017-09-05T13:15:19Z</time>
      </trkpt>
      <trkpt lat="43.79913" lon="0.98489">
        <ele>246</ele>
        <time>2017-09-05T13:15:36Z</time>
      </trkpt>
      <trkpt lat="43.79926" lon="0.98532">
        <ele>250</ele>
        <time>2017-09-05T13:15:54Z</time>
      </trkpt>
      <trkpt lat="43.79947" lon="0.98576">
        <ele>251</ele>
        <time>2017-09-05T13:16:13Z</time>
      </trkpt>
      <trkpt lat="43.7997" lon="0.98655">
        <ele>254</ele>
        <time>2017-09-05T13:16:34Z</time>
      </trkpt>
      <trkpt lat="43.79982" lon="0.98713">
        <ele>257</ele>
        <time>2017-09-05T13:16:52Z</time>
      </trkpt>
      <trkpt lat="43.79982" lon="0.98716">
        <ele>257</ele>
        <time>2017-09-05T13:17:11Z</time>
      </trkpt>
      <trkpt lat="43.79982" lon="0.98717">
        <ele>257</ele>
        <time>2017-09-05T13:17:16Z</time>
      </trkpt>
      <trkpt lat="43.79982" lon="0.98718">
        <ele>257</ele>
        <time>2017-09-05T13:17:17Z</time>
      </trkpt>
      <trkpt lat="43.79982" lon="0.9872">
        <ele>257</ele>
        <time>2017-09-05T13:17:18Z</time>
      </trkpt>
      <trkpt lat="43.79982" lon="0.98723">
        <ele>257</ele>
        <time>2017-09-05T13:17:19Z</time>
      </trkpt>
      <trkpt lat="43.79982" lon="0.98725">
        <ele>257</ele>
        <time>2017-09-05T13:17:20Z</time>
      </trkpt>
      <trkpt lat="43.79983" lon="0.98729">
        <ele>257</ele>
        <time>2017-09-05T13:17:21Z</time>
      </trkpt>
      <trkpt lat="43.79984" lon="0.98732">
        <ele>257</ele>
        <time>2017-09-05T13:17:22Z</time>
      </trkpt>
      <trkpt lat="43.79984" lon="0.98735">
        <ele>257</ele>
        <time>2017-09-05T13:17:23Z</time>
      </trkpt>
      <trkpt lat="43.79985" lon="0.98739">
        <ele>257</ele>
        <time>2017-09-05T13:17:24Z</time>
      </trkpt>
      <trkpt lat="43.80012" lon="0.98816">
        <ele>256</ele>
        <time>2017-09-05T13:17:44Z</time>
      </trkpt>
      <trkpt lat="43.80068" lon="0.98888">
        <ele>259</ele>
        <time>2017-09-05T13:18:08Z</time>
      </trkpt>
      <trkpt lat="43.80109" lon="0.98937">
        <ele>262</ele>
        <time>2017-09-05T13:18:30Z</time>
      </trkpt>
      <trkpt lat="43.80148" lon="0.98985">
        <ele>264</ele>
        <time>2017-09-05T13:18:51Z</time>
      </trkpt>
      <trkpt lat="43.80191" lon="0.99061">
        <ele>265</ele>
        <time>2017-09-05T13:19:17Z</time>
      </trkpt>
      <trkpt lat="43.80219" lon="0.99159">
        <ele>269</ele>
        <time>2017-09-05T13:19:41Z</time>
      </trkpt>
      <trkpt lat="43.80226" lon="0.99263">
        <ele>273</ele>
        <time>2017-09-05T13:20:06Z</time>
      </trkpt>
      <trkpt lat="43.80249" lon="0.99348">
        <ele>275</ele>
        <time>2017-09-05T13:20:28Z</time>
      </trkpt>
      <trkpt lat="43.80295" lon="0.99423">
        <ele>273</ele>
        <time>2017-09-05T13:20:46Z</time>
      </trkpt>
      <trkpt lat="43.80341" lon="0.99488">
        <ele>270</ele>
        <time>2017-09-05T13:20:55Z</time>
      </trkpt>
      <trkpt lat="43.80446" lon="0.99623">
        <ele>268</ele>
        <time>2017-09-05T13:21:15Z</time>
      </trkpt>
      <trkpt lat="43.80505" lon="0.99719">
        <ele>269</ele>
        <time>2017-09-05T13:21:32Z</time>
      </trkpt>
      <trkpt lat="43.8051" lon="0.9973">
        <ele>269</ele>
        <time>2017-09-05T13:21:34Z</time>
      </trkpt>
      <trkpt lat="43.8054" lon="0.99827">
        <ele>270</ele>
        <time>2017-09-05T13:21:52Z</time>
      </trkpt>
      <trkpt lat="43.80558" lon="0.99974">
        <ele>269</ele>
        <time>2017-09-05T13:22:15Z</time>
      </trkpt>
      <trkpt lat="43.80558" lon="1.00106">
        <ele>266</ele>
        <time>2017-09-05T13:22:29Z</time>
      </trkpt>
      <trkpt lat="43.80537" lon="1.00219">
        <ele>265</ele>
        <time>2017-09-05T13:22:40Z</time>
      </trkpt>
      <trkpt lat="43.80537" lon="1.0023">
        <ele>265</ele>
        <time>2017-09-05T13:22:41Z</time>
      </trkpt>
      <trkpt lat="43.80538" lon="1.0024">
        <ele>265</ele>
        <time>2017-09-05T13:22:42Z</time>
      </trkpt>
      <trkpt lat="43.80539" lon="1.0025">
        <ele>266</ele>
        <time>2017-09-05T13:22:43Z</time>
      </trkpt>
      <trkpt lat="43.80543" lon="1.00262">
        <ele>266</ele>
        <time>2017-09-05T13:22:44Z</time>
      </trkpt>
      <trkpt lat="43.80546" lon="1.00271">
        <ele>266</ele>
        <time>2017-09-05T13:22:45Z</time>
      </trkpt>
      <trkpt lat="43.8055" lon="1.0028">
        <ele>266</ele>
        <time>2017-09-05T13:22:46Z</time>
      </trkpt>
      <trkpt lat="43.80555" lon="1.00289">
        <ele>267</ele>
        <time>2017-09-05T13:22:47Z</time>
      </trkpt>
      <trkpt lat="43.80595" lon="1.00357">
        <ele>265</ele>
        <time>2017-09-05T13:22:54Z</time>
      </trkpt>
      <trkpt lat="43.8063" lon="1.0042">
        <ele>259</ele>
        <time>2017-09-05T13:23:00Z</time>
      </trkpt>
      <trkpt lat="43.80657" lon="1.00457">
        <ele>257</ele>
        <time>2017-09-05T13:23:04Z</time>
      </trkpt>
      <trkpt lat="43.80666" lon="1.00464">
        <ele>257</ele>
        <time>2017-09-05T13:23:05Z</time>
      </trkpt>
      <trkpt lat="43.80673" lon="1.00469">
        <ele>255</ele>
        <time>2017-09-05T13:23:06Z</time>
      </trkpt>
      <trkpt lat="43.80717" lon="1.00487">
        <ele>257</ele>
        <time>2017-09-05T13:23:13Z</time>
      </trkpt>
      <trkpt lat="43.80748" lon="1.00499">
        <ele>260</ele>
        <time>2017-09-05T13:23:21Z</time>
      </trkpt>
      <trkpt lat="43.8079" lon="1.00515">
        <ele>265</ele>
        <time>2017-09-05T13:23:36Z</time>
      </trkpt>
      <trkpt lat="43.80829" lon="1.0053">
        <ele>267</ele>
        <time>2017-09-05T13:23:53Z</time>
      </trkpt>
      <trkpt lat="43.80866" lon="1.00544">
        <ele>271</ele>
        <time>2017-09-05T13:24:10Z</time>
      </trkpt>
      <trkpt lat="43.80913" lon="1.00562">
        <ele>272</ele>
        <time>2017-09-05T13:24:29Z</time>
      </trkpt>
      <trkpt lat="43.80983" lon="1.006">
        <ele>271</ele>
        <time>2017-09-05T13:24:49Z</time>
      </trkpt>
      <trkpt lat="43.80992" lon="1.00606">
        <ele>271</ele>
        <time>2017-09-05T13:24:51Z</time>
      </trkpt>
      <trkpt lat="43.81069" lon="1.00656">
        <ele>268</ele>
        <time>2017-09-05T13:25:06Z</time>
      </trkpt>
      <trkpt lat="43.8114" lon="1.00734">
        <ele>272</ele>
        <time>2017-09-05T13:25:21Z</time>
      </trkpt>
      <trkpt lat="43.81159" lon="1.00773">
        <ele>271</ele>
        <time>2017-09-05T13:25:29Z</time>
      </trkpt>
      <trkpt lat="43.81199" lon="1.00868">
        <ele>269</ele>
        <time>2017-09-05T13:25:50Z</time>
      </trkpt>
      <trkpt lat="43.81242" lon="1.00962">
        <ele>269</ele>
        <time>2017-09-05T13:26:06Z</time>
      </trkpt>
      <trkpt lat="43.81247" lon="1.00967">
        <ele>269</ele>
        <time>2017-09-05T13:26:07Z</time>
      </trkpt>
      <trkpt lat="43.81253" lon="1.00971">
        <ele>267</ele>
        <time>2017-09-05T13:26:08Z</time>
      </trkpt>
      <trkpt lat="43.81258" lon="1.00974">
        <ele>267</ele>
        <time>2017-09-05T13:26:09Z</time>
      </trkpt>
      <trkpt lat="43.81264" lon="1.00976">
        <ele>267</ele>
        <time>2017-09-05T13:26:10Z</time>
      </trkpt>
      <trkpt lat="43.8127" lon="1.00978">
        <ele>267</ele>
        <time>2017-09-05T13:26:11Z</time>
      </trkpt>
      <trkpt lat="43.81276" lon="1.00979">
        <ele>267</ele>
        <time>2017-09-05T13:26:12Z</time>
      </trkpt>
      <trkpt lat="43.81282" lon="1.0098">
        <ele>267</ele>
        <time>2017-09-05T13:26:13Z</time>
      </trkpt>
      <trkpt lat="43.81392" lon="1.00992">
        <ele>266</ele>
        <time>2017-09-05T13:26:33Z</time>
      </trkpt>
      <trkpt lat="43.81479" lon="1.01032">
        <ele>268</ele>
        <time>2017-09-05T13:26:53Z</time>
      </trkpt>
      <trkpt lat="43.8149" lon="1.01037">
        <ele>267</ele>
        <time>2017-09-05T13:26:56Z</time>
      </trkpt>
      <trkpt lat="43.81575" lon="1.01081">
        <ele>272</ele>
        <time>2017-09-05T13:27:20Z</time>
      </trkpt>
      <trkpt lat="43.81662" lon="1.01129">
        <ele>273</ele>
        <time>2017-09-05T13:27:43Z</time>
      </trkpt>
      <trkpt lat="43.8178" lon="1.01202">
        <ele>272</ele>
        <time>2017-09-05T13:28:07Z</time>
      </trkpt>
      <trkpt lat="43.81924" lon="1.01287">
        <ele>270</ele>
        <time>2017-09-05T13:28:35Z</time>
      </trkpt>
      <trkpt lat="43.81999" lon="1.01336">
        <ele>270</ele>
        <time>2017-09-05T13:28:49Z</time>
      </trkpt>
      <trkpt lat="43.8208" lon="1.01461">
        <ele>268</ele>
        <time>2017-09-05T13:29:10Z</time>
      </trkpt>
      <trkpt lat="43.82185" lon="1.01633">
        <ele>268</ele>
        <time>2017-09-05T13:29:36Z</time>
      </trkpt>
      <trkpt lat="43.82277" lon="1.0179">
        <ele>264</ele>
        <time>2017-09-05T13:30:01Z</time>
      </trkpt>
      <trkpt lat="43.82343" lon="1.01895">
        <ele>263</ele>
        <time>2017-09-05T13:30:22Z</time>
      </trkpt>
      <trkpt lat="43.82362" lon="1.01911">
        <ele>263</ele>
        <time>2017-09-05T13:30:33Z</time>
      </trkpt>
      <trkpt lat="43.8236" lon="1.01908">
        <ele>263</ele>
        <time>2017-09-05T13:30:59Z</time>
      </trkpt>
      <trkpt lat="43.82359" lon="1.01911">
        <ele>263</ele>
        <time>2017-09-05T13:31:23Z</time>
      </trkpt>
      <trkpt lat="43.82366" lon="1.0193">
        <ele>261</ele>
        <time>2017-09-05T13:31:29Z</time>
      </trkpt>
      <trkpt lat="43.82434" lon="1.02029">
        <ele>261</ele>
        <time>2017-09-05T13:31:48Z</time>
      </trkpt>
      <trkpt lat="43.8251" lon="1.02143">
        <ele>259</ele>
        <time>2017-09-05T13:32:08Z</time>
      </trkpt>
      <trkpt lat="43.82609" lon="1.02278">
        <ele>260</ele>
        <time>2017-09-05T13:32:33Z</time>
      </trkpt>
      <trkpt lat="43.82615" lon="1.02281">
        <ele>260</ele>
        <time>2017-09-05T13:32:34Z</time>
      </trkpt>
      <trkpt lat="43.82621" lon="1.02282">
        <ele>260</ele>
        <time>2017-09-05T13:32:35Z</time>
      </trkpt>
      <trkpt lat="43.82628" lon="1.02283">
        <ele>260</ele>
        <time>2017-09-05T13:32:36Z</time>
      </trkpt>
      <trkpt lat="43.82635" lon="1.02282">
        <ele>260</ele>
        <time>2017-09-05T13:32:37Z</time>
      </trkpt>
      <trkpt lat="43.82641" lon="1.0228">
        <ele>260</ele>
        <time>2017-09-05T13:32:38Z</time>
      </trkpt>
      <trkpt lat="43.82648" lon="1.02277">
        <ele>260</ele>
        <time>2017-09-05T13:32:39Z</time>
      </trkpt>
      <trkpt lat="43.82654" lon="1.02274">
        <ele>259</ele>
        <time>2017-09-05T13:32:40Z</time>
      </trkpt>
      <trkpt lat="43.82756" lon="1.02225">
        <ele>256</ele>
        <time>2017-09-05T13:32:56Z</time>
      </trkpt>
      <trkpt lat="43.82871" lon="1.02189">
        <ele>254</ele>
        <time>2017-09-05T13:33:14Z</time>
      </trkpt>
      <trkpt lat="43.82965" lon="1.02159">
        <ele>253</ele>
        <time>2017-09-05T13:33:32Z</time>
      </trkpt>
      <trkpt lat="43.83021" lon="1.02128">
        <ele>253</ele>
        <time>2017-09-05T13:33:43Z</time>
      </trkpt>
      <trkpt lat="43.83096" lon="1.02079">
        <ele>258</ele>
        <time>2017-09-05T13:33:58Z</time>
      </trkpt>
      <trkpt lat="43.83184" lon="1.02029">
        <ele>260</ele>
        <time>2017-09-05T13:34:18Z</time>
      </trkpt>
      <trkpt lat="43.83276" lon="1.01993">
        <ele>260</ele>
        <time>2017-09-05T13:34:40Z</time>
      </trkpt>
      <trkpt lat="43.83293" lon="1.01985">
        <ele>260</ele>
        <time>2017-09-05T13:34:43Z</time>
      </trkpt>
      <trkpt lat="43.83325" lon="1.01973">
        <ele>260</ele>
        <time>2017-09-05T13:34:49Z</time>
      </trkpt>
      <trkpt lat="43.8333" lon="1.01973">
        <ele>260</ele>
        <time>2017-09-05T13:34:50Z</time>
      </trkpt>
      <trkpt lat="43.83335" lon="1.01975">
        <ele>260</ele>
        <time>2017-09-05T13:34:51Z</time>
      </trkpt>
      <trkpt lat="43.83339" lon="1.01978">
        <ele>260</ele>
        <time>2017-09-05T13:34:52Z</time>
      </trkpt>
      <trkpt lat="43.83344" lon="1.01982">
        <ele>260</ele>
        <time>2017-09-05T13:34:53Z</time>
      </trkpt>
      <trkpt lat="43.83347" lon="1.01987">
        <ele>260</ele>
        <time>2017-09-05T13:34:54Z</time>
      </trkpt>
      <trkpt lat="43.8335" lon="1.01992">
        <ele>260</ele>
        <time>2017-09-05T13:34:55Z</time>
      </trkpt>
      <trkpt lat="43.83353" lon="1.01998">
        <ele>260</ele>
        <time>2017-09-05T13:34:56Z</time>
      </trkpt>
      <trkpt lat="43.83355" lon="1.02004">
        <ele>261</ele>
        <time>2017-09-05T13:34:57Z</time>
      </trkpt>
      <trkpt lat="43.83375" lon="1.02052">
        <ele>262</ele>
        <time>2017-09-05T13:35:06Z</time>
      </trkpt>
      <trkpt lat="43.83421" lon="1.02168">
        <ele>264</ele>
        <time>2017-09-05T13:35:28Z</time>
      </trkpt>
      <trkpt lat="43.83439" lon="1.02249">
        <ele>263</ele>
        <time>2017-09-05T13:35:41Z</time>
      </trkpt>
      <trkpt lat="43.83496" lon="1.02326">
        <ele>262</ele>
        <time>2017-09-05T13:35:57Z</time>
      </trkpt>
      <trkpt lat="43.83563" lon="1.02416">
        <ele>259</ele>
        <time>2017-09-05T13:36:16Z</time>
      </trkpt>
      <trkpt lat="43.83618" lon="1.02502">
        <ele>257</ele>
        <time>2017-09-05T13:36:34Z</time>
      </trkpt>
      <trkpt lat="43.83622" lon="1.02505">
        <ele>257</ele>
        <time>2017-09-05T13:36:35Z</time>
      </trkpt>
      <trkpt lat="43.83706" lon="1.02563">
        <ele>257</ele>
        <time>2017-09-05T13:36:54Z</time>
      </trkpt>
      <trkpt lat="43.83772" lon="1.0265">
        <ele>256</ele>
        <time>2017-09-05T13:37:12Z</time>
      </trkpt>
      <trkpt lat="43.83827" lon="1.0274">
        <ele>254</ele>
        <time>2017-09-05T13:37:25Z</time>
      </trkpt>
      <trkpt lat="43.83831" lon="1.02748">
        <ele>253</ele>
        <time>2017-09-05T13:37:26Z</time>
      </trkpt>
      <trkpt lat="43.83835" lon="1.02757">
        <ele>252</ele>
        <time>2017-09-05T13:37:27Z</time>
      </trkpt>
      <trkpt lat="43.83838" lon="1.02767">
        <ele>250</ele>
        <time>2017-09-05T13:37:28Z</time>
      </trkpt>
      <trkpt lat="43.8384" lon="1.02776">
        <ele>250</ele>
        <time>2017-09-05T13:37:29Z</time>
      </trkpt>
      <trkpt lat="43.83842" lon="1.02787">
        <ele>249</ele>
        <time>2017-09-05T13:37:30Z</time>
      </trkpt>
      <trkpt lat="43.83846" lon="1.02807">
        <ele>249</ele>
        <time>2017-09-05T13:37:32Z</time>
      </trkpt>
      <trkpt lat="43.83851" lon="1.02827">
        <ele>250</ele>
        <time>2017-09-05T13:37:34Z</time>
      </trkpt>
      <trkpt lat="43.83855" lon="1.02836">
        <ele>250</ele>
        <time>2017-09-05T13:37:35Z</time>
      </trkpt>
      <trkpt lat="43.83859" lon="1.02846">
        <ele>249</ele>
        <time>2017-09-05T13:37:36Z</time>
      </trkpt>
      <trkpt lat="43.83864" lon="1.02855">
        <ele>249</ele>
        <time>2017-09-05T13:37:37Z</time>
      </trkpt>
      <trkpt lat="43.83869" lon="1.02863">
        <ele>249</ele>
        <time>2017-09-05T13:37:38Z</time>
      </trkpt>
      <trkpt lat="43.83875" lon="1.02871">
        <ele>249</ele>
        <time>2017-09-05T13:37:39Z</time>
      </trkpt>
      <trkpt lat="43.83892" lon="1.02896">
        <ele>249</ele>
        <time>2017-09-05T13:37:42Z</time>
      </trkpt>
      <trkpt lat="43.83981" lon="1.02982">
        <ele>249</ele>
        <time>2017-09-05T13:37:58Z</time>
      </trkpt>
      <trkpt lat="43.84001" lon="1.02993">
        <ele>249</ele>
        <time>2017-09-05T13:38:02Z</time>
      </trkpt>
      <trkpt lat="43.84007" lon="1.02994">
        <ele>249</ele>
        <time>2017-09-05T13:38:03Z</time>
      </trkpt>
      <trkpt lat="43.84111" lon="1.03018">
        <ele>247</ele>
        <time>2017-09-05T13:38:21Z</time>
      </trkpt>
      <trkpt lat="43.84206" lon="1.03072">
        <ele>245</ele>
        <time>2017-09-05T13:38:40Z</time>
      </trkpt>
      <trkpt lat="43.84318" lon="1.03139">
        <ele>247</ele>
        <time>2017-09-05T13:39:07Z</time>
      </trkpt>
      <trkpt lat="43.84414" lon="1.03219">
        <ele>247</ele>
        <time>2017-09-05T13:39:30Z</time>
      </trkpt>
      <trkpt lat="43.84532" lon="1.03318">
        <ele>250</ele>
        <time>2017-09-05T13:39:57Z</time>
      </trkpt>
      <trkpt lat="43.84566" lon="1.0335">
        <ele>251</ele>
        <time>2017-09-05T13:40:05Z</time>
      </trkpt>
      <trkpt lat="43.8457" lon="1.03357">
        <ele>251</ele>
        <time>2017-09-05T13:40:06Z</time>
      </trkpt>
      <trkpt lat="43.84584" lon="1.03385">
        <ele>251</ele>
        <time>2017-09-05T13:40:10Z</time>
      </trkpt>
      <trkpt lat="43.84644" lon="1.03541">
        <ele>248</ele>
        <time>2017-09-05T13:40:32Z</time>
      </trkpt>
      <trkpt lat="43.84723" lon="1.03643">
        <ele>247</ele>
        <time>2017-09-05T13:40:50Z</time>
      </trkpt>
      <trkpt lat="43.84817" lon="1.03689">
        <ele>245</ele>
        <time>2017-09-05T13:41:08Z</time>
      </trkpt>
      <trkpt lat="43.84902" lon="1.03756">
        <ele>245</ele>
        <time>2017-09-05T13:41:25Z</time>
      </trkpt>
      <trkpt lat="43.84993" lon="1.03822">
        <ele>244</ele>
        <time>2017-09-05T13:41:43Z</time>
      </trkpt>
      <trkpt lat="43.85129" lon="1.03899">
        <ele>242</ele>
        <time>2017-09-05T13:42:09Z</time>
      </trkpt>
      <trkpt lat="43.85251" lon="1.04006">
        <ele>241</ele>
        <time>2017-09-05T13:42:31Z</time>
      </trkpt>
      <trkpt lat="43.85345" lon="1.04146">
        <ele>243</ele>
        <time>2017-09-05T13:42:50Z</time>
      </trkpt>
      <trkpt lat="43.85436" lon="1.0427">
        <ele>244</ele>
        <time>2017-09-05T13:43:11Z</time>
      </trkpt>
      <trkpt lat="43.85497" lon="1.04316">
        <ele>244</ele>
        <time>2017-09-05T13:43:23Z</time>
      </trkpt>
      <trkpt lat="43.85629" lon="1.04371">
        <ele>242</ele>
        <time>2017-09-05T13:43:43Z</time>
      </trkpt>
      <trkpt lat="43.8577" lon="1.0443">
        <ele>241</ele>
        <time>2017-09-05T13:44:06Z</time>
      </trkpt>
      <trkpt lat="43.85839" lon="1.04461">
        <ele>240</ele>
        <time>2017-09-05T13:44:20Z</time>
      </trkpt>
      <trkpt lat="43.85872" lon="1.04494">
        <ele>240</ele>
        <time>2017-09-05T13:44:29Z</time>
      </trkpt>
      <trkpt lat="43.85887" lon="1.04519">
        <ele>241</ele>
        <time>2017-09-05T13:44:34Z</time>
      </trkpt>
      <trkpt lat="43.8589" lon="1.04526">
        <ele>241</ele>
        <time>2017-09-05T13:44:35Z</time>
      </trkpt>
      <trkpt lat="43.85911" lon="1.04581">
        <ele>240</ele>
        <time>2017-09-05T13:44:43Z</time>
      </trkpt>
      <trkpt lat="43.85915" lon="1.04586">
        <ele>240</ele>
        <time>2017-09-05T13:44:44Z</time>
      </trkpt>
      <trkpt lat="43.8592" lon="1.04594">
        <ele>240</ele>
        <time>2017-09-05T13:44:45Z</time>
      </trkpt>
      <trkpt lat="43.86008" lon="1.04666">
        <ele>243</ele>
        <time>2017-09-05T13:45:02Z</time>
      </trkpt>
      <trkpt lat="43.86128" lon="1.04748">
        <ele>240</ele>
        <time>2017-09-05T13:45:25Z</time>
      </trkpt>
      <trkpt lat="43.86267" lon="1.04826">
        <ele>238</ele>
        <time>2017-09-05T13:45:49Z</time>
      </trkpt>
      <trkpt lat="43.86313" lon="1.04843">
        <ele>237</ele>
        <time>2017-09-05T13:45:57Z</time>
      </trkpt>
      <trkpt lat="43.8641" lon="1.04882">
        <ele>235</ele>
        <time>2017-09-05T13:46:18Z</time>
      </trkpt>
      <trkpt lat="43.8644" lon="1.04896">
        <ele>233</ele>
        <time>2017-09-05T13:46:36Z</time>
      </trkpt>
      <trkpt lat="43.86441" lon="1.04895">
        <ele>233</ele>
        <time>2017-09-05T13:47:05Z</time>
      </trkpt>
      <trkpt lat="43.86441" lon="1.04898">
        <ele>233</ele>
        <time>2017-09-05T13:47:35Z</time>
      </trkpt>
      <trkpt lat="43.86476" lon="1.04904">
        <ele>232</ele>
        <time>2017-09-05T13:47:46Z</time>
      </trkpt>
      <trkpt lat="43.86567" lon="1.04884">
        <ele>230</ele>
        <time>2017-09-05T13:48:02Z</time>
      </trkpt>
      <trkpt lat="43.86616" lon="1.04868">
        <ele>231</ele>
        <time>2017-09-05T13:48:12Z</time>
      </trkpt>
      <trkpt lat="43.86673" lon="1.04839">
        <ele>231</ele>
        <time>2017-09-05T13:48:25Z</time>
      </trkpt>
      <trkpt lat="43.8677" lon="1.04793">
        <ele>231</ele>
        <time>2017-09-05T13:48:47Z</time>
      </trkpt>
      <trkpt lat="43.86889" lon="1.04789">
        <ele>232</ele>
        <time>2017-09-05T13:49:11Z</time>
      </trkpt>
      <trkpt lat="43.8701" lon="1.04793">
        <ele>233</ele>
        <time>2017-09-05T13:49:36Z</time>
      </trkpt>
      <trkpt lat="43.871" lon="1.04835">
        <ele>234</ele>
        <time>2017-09-05T13:49:58Z</time>
      </trkpt>
      <trkpt lat="43.87209" lon="1.04901">
        <ele>236</ele>
        <time>2017-09-05T13:50:25Z</time>
      </trkpt>
      <trkpt lat="43.87254" lon="1.04953">
        <ele>234</ele>
        <time>2017-09-05T13:50:36Z</time>
      </trkpt>
      <trkpt lat="43.87347" lon="1.05055">
        <ele>231</ele>
        <time>2017-09-05T13:50:56Z</time>
      </trkpt>
      <trkpt lat="43.87372" lon="1.05067">
        <ele>231</ele>
        <time>2017-09-05T13:51:01Z</time>
      </trkpt>
      <trkpt lat="43.87378" lon="1.05068">
        <ele>231</ele>
        <time>2017-09-05T13:51:02Z</time>
      </trkpt>
      <trkpt lat="43.87498" lon="1.05085">
        <ele>230</ele>
        <time>2017-09-05T13:51:23Z</time>
      </trkpt>
      <trkpt lat="43.87595" lon="1.05151">
        <ele>231</ele>
        <time>2017-09-05T13:51:42Z</time>
      </trkpt>
      <trkpt lat="43.87717" lon="1.05246">
        <ele>229</ele>
        <time>2017-09-05T13:52:05Z</time>
      </trkpt>
      <trkpt lat="43.87834" lon="1.05372">
        <ele>228</ele>
        <time>2017-09-05T13:52:30Z</time>
      </trkpt>
      <trkpt lat="43.87945" lon="1.05499">
        <ele>228</ele>
        <time>2017-09-05T13:52:54Z</time>
      </trkpt>
      <trkpt lat="43.88053" lon="1.05571">
        <ele>225</ele>
        <time>2017-09-05T13:53:12Z</time>
      </trkpt>
      <trkpt lat="43.88185" lon="1.05622">
        <ele>224</ele>
        <time>2017-09-05T13:53:34Z</time>
      </trkpt>
      <trkpt lat="43.8819" lon="1.05626">
        <ele>224</ele>
        <time>2017-09-05T13:53:35Z</time>
      </trkpt>
      <trkpt lat="43.88195" lon="1.05631">
        <ele>224</ele>
        <time>2017-09-05T13:53:36Z</time>
      </trkpt>
      <trkpt lat="43.88199" lon="1.05637">
        <ele>224</ele>
        <time>2017-09-05T13:53:37Z</time>
      </trkpt>
      <trkpt lat="43.88202" lon="1.05644">
        <ele>224</ele>
        <time>2017-09-05T13:53:38Z</time>
      </trkpt>
      <trkpt lat="43.88204" lon="1.05651">
        <ele>224</ele>
        <time>2017-09-05T13:53:39Z</time>
      </trkpt>
      <trkpt lat="43.88206" lon="1.05658">
        <ele>224</ele>
        <time>2017-09-05T13:53:40Z</time>
      </trkpt>
      <trkpt lat="43.88207" lon="1.05665">
        <ele>224</ele>
        <time>2017-09-05T13:53:41Z</time>
      </trkpt>
      <trkpt lat="43.88218" lon="1.0571">
        <ele>224</ele>
        <time>2017-09-05T13:53:48Z</time>
      </trkpt>
      <trkpt lat="43.8822" lon="1.05716">
        <ele>224</ele>
        <time>2017-09-05T13:53:49Z</time>
      </trkpt>
      <trkpt lat="43.88228" lon="1.05732">
        <ele>224</ele>
        <time>2017-09-05T13:53:52Z</time>
      </trkpt>
      <trkpt lat="43.88231" lon="1.05737">
        <ele>224</ele>
        <time>2017-09-05T13:53:53Z</time>
      </trkpt>
      <trkpt lat="43.88234" lon="1.05741">
        <ele>224</ele>
        <time>2017-09-05T13:53:54Z</time>
      </trkpt>
      <trkpt lat="43.88304" lon="1.05816">
        <ele>227</ele>
        <time>2017-09-05T13:54:15Z</time>
      </trkpt>
      <trkpt lat="43.88379" lon="1.05881">
        <ele>225</ele>
        <time>2017-09-05T13:54:34Z</time>
      </trkpt>
      <trkpt lat="43.8849" lon="1.05975">
        <ele>227</ele>
        <time>2017-09-05T13:54:58Z</time>
      </trkpt>
      <trkpt lat="43.88505" lon="1.05987">
        <ele>226</ele>
        <time>2017-09-05T13:55:02Z</time>
      </trkpt>
      <trkpt lat="43.88552" lon="1.06027">
        <ele>226</ele>
        <time>2017-09-05T13:55:15Z</time>
      </trkpt>
      <trkpt lat="43.88648" lon="1.06091">
        <ele>229</ele>
        <time>2017-09-05T13:55:39Z</time>
      </trkpt>
      <trkpt lat="43.88746" lon="1.06172">
        <ele>231</ele>
        <time>2017-09-05T13:56:04Z</time>
      </trkpt>
      <trkpt lat="43.88752" lon="1.06182">
        <ele>230</ele>
        <time>2017-09-05T13:56:06Z</time>
      </trkpt>
      <trkpt lat="43.88764" lon="1.06203">
        <ele>230</ele>
        <time>2017-09-05T13:56:10Z</time>
      </trkpt>
      <trkpt lat="43.88767" lon="1.06208">
        <ele>230</ele>
        <time>2017-09-05T13:56:11Z</time>
      </trkpt>
      <trkpt lat="43.8877" lon="1.06212">
        <ele>230</ele>
        <time>2017-09-05T13:56:12Z</time>
      </trkpt>
      <trkpt lat="43.88774" lon="1.06215">
        <ele>230</ele>
        <time>2017-09-05T13:56:13Z</time>
      </trkpt>
      <trkpt lat="43.88779" lon="1.06217">
        <ele>230</ele>
        <time>2017-09-05T13:56:14Z</time>
      </trkpt>
      <trkpt lat="43.88784" lon="1.06218">
        <ele>230</ele>
        <time>2017-09-05T13:56:15Z</time>
      </trkpt>
      <trkpt lat="43.88789" lon="1.06219">
        <ele>230</ele>
        <time>2017-09-05T13:56:16Z</time>
      </trkpt>
      <trkpt lat="43.88793" lon="1.06218">
        <ele>230</ele>
        <time>2017-09-05T13:56:17Z</time>
      </trkpt>
      <trkpt lat="43.88799" lon="1.06216">
        <ele>230</ele>
        <time>2017-09-05T13:56:18Z</time>
      </trkpt>
      <trkpt lat="43.88882" lon="1.06224">
        <ele>228</ele>
        <time>2017-09-05T13:56:34Z</time>
      </trkpt>
      <trkpt lat="43.88892" lon="1.06232">
        <ele>228</ele>
        <time>2017-09-05T13:56:36Z</time>
      </trkpt>
      <trkpt lat="43.88897" lon="1.06237">
        <ele>228</ele>
        <time>2017-09-05T13:56:37Z</time>
      </trkpt>
      <trkpt lat="43.88902" lon="1.06243">
        <ele>228</ele>
        <time>2017-09-05T13:56:38Z</time>
      </trkpt>
      <trkpt lat="43.88907" lon="1.0625">
        <ele>228</ele>
        <time>2017-09-05T13:56:39Z</time>
      </trkpt>
      <trkpt lat="43.88912" lon="1.06257">
        <ele>228</ele>
        <time>2017-09-05T13:56:40Z</time>
      </trkpt>
      <trkpt lat="43.88943" lon="1.06306">
        <ele>225</ele>
        <time>2017-09-05T13:56:46Z</time>
      </trkpt>
      <trkpt lat="43.88949" lon="1.06316">
        <ele>225</ele>
        <time>2017-09-05T13:56:47Z</time>
      </trkpt>
      <trkpt lat="43.88977" lon="1.06356">
        <ele>225</ele>
        <time>2017-09-05T13:56:52Z</time>
      </trkpt>
      <trkpt lat="43.88983" lon="1.06362">
        <ele>225</ele>
        <time>2017-09-05T13:56:53Z</time>
      </trkpt>
      <trkpt lat="43.8899" lon="1.06366">
        <ele>225</ele>
        <time>2017-09-05T13:56:54Z</time>
      </trkpt>
      <trkpt lat="43.88998" lon="1.06367">
        <ele>225</ele>
        <time>2017-09-05T13:56:55Z</time>
      </trkpt>
      <trkpt lat="43.89005" lon="1.06367">
        <ele>223</ele>
        <time>2017-09-05T13:56:56Z</time>
      </trkpt>
      <trkpt lat="43.89012" lon="1.06365">
        <ele>223</ele>
        <time>2017-09-05T13:56:57Z</time>
      </trkpt>
      <trkpt lat="43.89019" lon="1.06361">
        <ele>223</ele>
        <time>2017-09-05T13:56:58Z</time>
      </trkpt>
      <trkpt lat="43.89026" lon="1.06357">
        <ele>223</ele>
        <time>2017-09-05T13:56:59Z</time>
      </trkpt>
      <trkpt lat="43.89033" lon="1.06352">
        <ele>223</ele>
        <time>2017-09-05T13:57:00Z</time>
      </trkpt>
      <trkpt lat="43.89078" lon="1.06316">
        <ele>219</ele>
        <time>2017-09-05T13:57:06Z</time>
      </trkpt>
      <trkpt lat="43.89095" lon="1.06307">
        <ele>215</ele>
        <time>2017-09-05T13:57:08Z</time>
      </trkpt>
      <trkpt lat="43.89104" lon="1.06304">
        <ele>214</ele>
        <time>2017-09-05T13:57:09Z</time>
      </trkpt>
      <trkpt lat="43.89114" lon="1.06301">
        <ele>213</ele>
        <time>2017-09-05T13:57:10Z</time>
      </trkpt>
      <trkpt lat="43.89229" lon="1.06271">
        <ele>211</ele>
        <time>2017-09-05T13:57:25Z</time>
      </trkpt>
      <trkpt lat="43.89269" lon="1.06266">
        <ele>212</ele>
        <time>2017-09-05T13:57:31Z</time>
      </trkpt>
      <trkpt lat="43.89275" lon="1.06268">
        <ele>213</ele>
        <time>2017-09-05T13:57:32Z</time>
      </trkpt>
      <trkpt lat="43.89334" lon="1.06296">
        <ele>217</ele>
        <time>2017-09-05T13:57:42Z</time>
      </trkpt>
      <trkpt lat="43.89378" lon="1.06342">
        <ele>219</ele>
        <time>2017-09-05T13:57:57Z</time>
      </trkpt>
      <trkpt lat="43.89425" lon="1.06403">
        <ele>222</ele>
        <time>2017-09-05T13:58:20Z</time>
      </trkpt>
      <trkpt lat="43.89455" lon="1.06486">
        <ele>221</ele>
        <time>2017-09-05T13:58:39Z</time>
      </trkpt>
      <trkpt lat="43.89463" lon="1.06515">
        <ele>220</ele>
        <time>2017-09-05T13:58:44Z</time>
      </trkpt>
      <trkpt lat="43.8948" lon="1.06572">
        <ele>219</ele>
        <time>2017-09-05T13:58:52Z</time>
      </trkpt>
      <trkpt lat="43.89519" lon="1.0664">
        <ele>216</ele>
        <time>2017-09-05T13:59:01Z</time>
      </trkpt>
      <trkpt lat="43.89563" lon="1.06689">
        <ele>214</ele>
        <time>2017-09-05T13:59:08Z</time>
      </trkpt>
      <trkpt lat="43.8958" lon="1.06715">
        <ele>213</ele>
        <time>2017-09-05T13:59:11Z</time>
      </trkpt>
      <trkpt lat="43.89585" lon="1.06725">
        <ele>210</ele>
        <time>2017-09-05T13:59:12Z</time>
      </trkpt>
      <trkpt lat="43.89615" lon="1.06813">
        <ele>207</ele>
        <time>2017-09-05T13:59:20Z</time>
      </trkpt>
      <trkpt lat="43.89662" lon="1.06964">
        <ele>208</ele>
        <time>2017-09-05T13:59:35Z</time>
      </trkpt>
      <trkpt lat="43.89667" lon="1.06972">
        <ele>206</ele>
        <time>2017-09-05T13:59:36Z</time>
      </trkpt>
      <trkpt lat="43.89672" lon="1.06979">
        <ele>206</ele>
        <time>2017-09-05T13:59:37Z</time>
      </trkpt>
      <trkpt lat="43.89678" lon="1.06985">
        <ele>206</ele>
        <time>2017-09-05T13:59:38Z</time>
      </trkpt>
      <trkpt lat="43.89684" lon="1.0699">
        <ele>206</ele>
        <time>2017-09-05T13:59:39Z</time>
      </trkpt>
      <trkpt lat="43.89691" lon="1.06994">
        <ele>206</ele>
        <time>2017-09-05T13:59:40Z</time>
      </trkpt>
      <trkpt lat="43.89697" lon="1.06998">
        <ele>205</ele>
        <time>2017-09-05T13:59:41Z</time>
      </trkpt>
      <trkpt lat="43.89809" lon="1.07061">
        <ele>204</ele>
        <time>2017-09-05T14:00:01Z</time>
      </trkpt>
      <trkpt lat="43.89832" lon="1.07072">
        <ele>204</ele>
        <time>2017-09-05T14:00:05Z</time>
      </trkpt>
      <trkpt lat="43.89872" lon="1.071">
        <ele>202</ele>
        <time>2017-09-05T14:00:11Z</time>
      </trkpt>
      <trkpt lat="43.89953" lon="1.07171">
        <ele>202</ele>
        <time>2017-09-05T14:00:23Z</time>
      </trkpt>
      <trkpt lat="43.89959" lon="1.07175">
        <ele>202</ele>
        <time>2017-09-05T14:00:24Z</time>
      </trkpt>
      <trkpt lat="43.89973" lon="1.07191">
        <ele>202</ele>
        <time>2017-09-05T14:00:27Z</time>
      </trkpt>
      <trkpt lat="43.90022" lon="1.07279">
        <ele>200</ele>
        <time>2017-09-05T14:00:41Z</time>
      </trkpt>
      <trkpt lat="43.90096" lon="1.07406">
        <ele>199</ele>
        <time>2017-09-05T14:00:59Z</time>
      </trkpt>
      <trkpt lat="43.90136" lon="1.07456">
        <ele>199</ele>
        <time>2017-09-05T14:01:08Z</time>
      </trkpt>
      <trkpt lat="43.90194" lon="1.07525">
        <ele>201</ele>
        <time>2017-09-05T14:01:26Z</time>
      </trkpt>
      <trkpt lat="43.90283" lon="1.07619">
        <ele>203</ele>
        <time>2017-09-05T14:01:54Z</time>
      </trkpt>
      <trkpt lat="43.90352" lon="1.07711">
        <ele>203</ele>
        <time>2017-09-05T14:02:15Z</time>
      </trkpt>
      <trkpt lat="43.90396" lon="1.07868">
        <ele>200</ele>
        <time>2017-09-05T14:02:38Z</time>
      </trkpt>
      <trkpt lat="43.90414" lon="1.0795">
        <ele>196</ele>
        <time>2017-09-05T14:02:46Z</time>
      </trkpt>
      <trkpt lat="43.90425" lon="1.08011">
        <ele>190</ele>
        <time>2017-09-05T14:02:51Z</time>
      </trkpt>
      <trkpt lat="43.90425" lon="1.08022">
        <ele>189</ele>
        <time>2017-09-05T14:02:52Z</time>
      </trkpt>
      <trkpt lat="43.90422" lon="1.08034">
        <ele>188</ele>
        <time>2017-09-05T14:02:53Z</time>
      </trkpt>
      <trkpt lat="43.90418" lon="1.08045">
        <ele>187</ele>
        <time>2017-09-05T14:02:54Z</time>
      </trkpt>
      <trkpt lat="43.90412" lon="1.08055">
        <ele>189</ele>
        <time>2017-09-05T14:02:55Z</time>
      </trkpt>
      <trkpt lat="43.90405" lon="1.08062">
        <ele>188</ele>
        <time>2017-09-05T14:02:56Z</time>
      </trkpt>
      <trkpt lat="43.90396" lon="1.08069">
        <ele>188</ele>
        <time>2017-09-05T14:02:57Z</time>
      </trkpt>
      <trkpt lat="43.90387" lon="1.08075">
        <ele>188</ele>
        <time>2017-09-05T14:02:58Z</time>
      </trkpt>
      <trkpt lat="43.9034" lon="1.08106">
        <ele>184</ele>
        <time>2017-09-05T14:03:03Z</time>
      </trkpt>
      <trkpt lat="43.90324" lon="1.08122">
        <ele>182</ele>
        <time>2017-09-05T14:03:05Z</time>
      </trkpt>
      <trkpt lat="43.90317" lon="1.08134">
        <ele>181</ele>
        <time>2017-09-05T14:03:06Z</time>
      </trkpt>
      <trkpt lat="43.90313" lon="1.08145">
        <ele>181</ele>
        <time>2017-09-05T14:03:07Z</time>
      </trkpt>
      <trkpt lat="43.90312" lon="1.08159">
        <ele>181</ele>
        <time>2017-09-05T14:03:08Z</time>
      </trkpt>
      <trkpt lat="43.90313" lon="1.08171">
        <ele>178</ele>
        <time>2017-09-05T14:03:09Z</time>
      </trkpt>
      <trkpt lat="43.90318" lon="1.08183">
        <ele>178</ele>
        <time>2017-09-05T14:03:10Z</time>
      </trkpt>
      <trkpt lat="43.90323" lon="1.08192">
        <ele>177</ele>
        <time>2017-09-05T14:03:11Z</time>
      </trkpt>
      <trkpt lat="43.9033" lon="1.08202">
        <ele>177</ele>
        <time>2017-09-05T14:03:12Z</time>
      </trkpt>
      <trkpt lat="43.90336" lon="1.08208">
        <ele>177</ele>
        <time>2017-09-05T14:03:13Z</time>
      </trkpt>
      <trkpt lat="43.90344" lon="1.08214">
        <ele>176</ele>
        <time>2017-09-05T14:03:14Z</time>
      </trkpt>
      <trkpt lat="43.90353" lon="1.08221">
        <ele>176</ele>
        <time>2017-09-05T14:03:15Z</time>
      </trkpt>
      <trkpt lat="43.9041" lon="1.08264">
        <ele>171</ele>
        <time>2017-09-05T14:03:22Z</time>
      </trkpt>
      <trkpt lat="43.90476" lon="1.08315">
        <ele>169</ele>
        <time>2017-09-05T14:03:30Z</time>
      </trkpt>
      <trkpt lat="43.90548" lon="1.08374">
        <ele>166</ele>
        <time>2017-09-05T14:03:40Z</time>
      </trkpt>
      <trkpt lat="43.90664" lon="1.08472">
        <ele>162</ele>
        <time>2017-09-05T14:03:59Z</time>
      </trkpt>
      <trkpt lat="43.90753" lon="1.0857">
        <ele>168</ele>
        <time>2017-09-05T14:04:18Z</time>
      </trkpt>
      <trkpt lat="43.90795" lon="1.0861">
        <ele>169</ele>
        <time>2017-09-05T14:04:34Z</time>
      </trkpt>
      <trkpt lat="43.90796" lon="1.08611">
        <ele>169</ele>
        <time>2017-09-05T14:04:35Z</time>
      </trkpt>
      <trkpt lat="43.90797" lon="1.08612">
        <ele>169</ele>
        <time>2017-09-05T14:04:36Z</time>
      </trkpt>
      <trkpt lat="43.90799" lon="1.08612">
        <ele>169</ele>
        <time>2017-09-05T14:04:37Z</time>
      </trkpt>
      <trkpt lat="43.908" lon="1.08613">
        <ele>169</ele>
        <time>2017-09-05T14:04:38Z</time>
      </trkpt>
      <trkpt lat="43.90802" lon="1.08615">
        <ele>169</ele>
        <time>2017-09-05T14:04:39Z</time>
      </trkpt>
      <trkpt lat="43.90803" lon="1.08616">
        <ele>169</ele>
        <time>2017-09-05T14:04:40Z</time>
      </trkpt>
      <trkpt lat="43.90805" lon="1.08617">
        <ele>169</ele>
        <time>2017-09-05T14:04:41Z</time>
      </trkpt>
      <trkpt lat="43.90806" lon="1.08617">
        <ele>170</ele>
        <time>2017-09-05T14:04:42Z</time>
      </trkpt>
      <trkpt lat="43.90807" lon="1.08618">
        <ele>170</ele>
        <time>2017-09-05T14:04:43Z</time>
      </trkpt>
      <trkpt lat="43.90816" lon="1.08623">
        <ele>170</ele>
        <time>2017-09-05T14:04:54Z</time>
      </trkpt>
      <trkpt lat="43.90817" lon="1.08623">
        <ele>170</ele>
        <time>2017-09-05T14:04:55Z</time>
      </trkpt>
      <trkpt lat="43.90819" lon="1.08623">
        <ele>170</ele>
        <time>2017-09-05T14:04:56Z</time>
      </trkpt>
      <trkpt lat="43.9082" lon="1.08624">
        <ele>170</ele>
        <time>2017-09-05T14:04:57Z</time>
      </trkpt>
      <trkpt lat="43.90822" lon="1.08625">
        <ele>170</ele>
        <time>2017-09-05T14:04:58Z</time>
      </trkpt>
      <trkpt lat="43.90861" lon="1.08647">
        <ele>175</ele>
        <time>2017-09-05T14:05:15Z</time>
      </trkpt>
      <trkpt lat="43.9091" lon="1.08673">
        <ele>179</ele>
        <time>2017-09-05T14:05:31Z</time>
      </trkpt>
      <trkpt lat="43.90957" lon="1.0871">
        <ele>179</ele>
        <time>2017-09-05T14:05:47Z</time>
      </trkpt>
      <trkpt lat="43.90995" lon="1.08747">
        <ele>182</ele>
        <time>2017-09-05T14:06:05Z</time>
      </trkpt>
      <trkpt lat="43.9105" lon="1.08787">
        <ele>181</ele>
        <time>2017-09-05T14:06:24Z</time>
      </trkpt>
      <trkpt lat="43.91057" lon="1.08793">
        <ele>182</ele>
        <time>2017-09-05T14:06:26Z</time>
      </trkpt>
      <trkpt lat="43.91108" lon="1.0885">
        <ele>181</ele>
        <time>2017-09-05T14:06:46Z</time>
      </trkpt>
      <trkpt lat="43.91119" lon="1.08862">
        <ele>181</ele>
        <time>2017-09-05T14:07:03Z</time>
      </trkpt>
      <trkpt lat="43.9112" lon="1.08862">
        <ele>181</ele>
        <time>2017-09-05T14:07:42Z</time>
      </trkpt>
      <trkpt lat="43.9112" lon="1.08862">
        <ele>181</ele>
        <time>2017-09-05T14:08:16Z</time>
      </trkpt>
      <trkpt lat="43.9112" lon="1.08863">
        <ele>181</ele>
        <time>2017-09-05T14:08:46Z</time>
      </trkpt>
      <trkpt lat="43.9112" lon="1.08862">
        <ele>181</ele>
        <time>2017-09-05T14:09:12Z</time>
      </trkpt>
      <trkpt lat="43.9112" lon="1.08862">
        <ele>181</ele>
        <time>2017-09-05T14:09:39Z</time>
      </trkpt>
      <trkpt lat="43.9112" lon="1.08862">
        <ele>181</ele>
        <time>2017-09-05T14:10:13Z</time>
      </trkpt>
      <trkpt lat="43.91119" lon="1.08863">
        <ele>181</ele>
        <time>2017-09-05T14:10:41Z</time>
      </trkpt>
      <trkpt lat="43.9112" lon="1.08862">
        <ele>181</ele>
        <time>2017-09-05T14:11:00Z</time>
      </trkpt>
      <trkpt lat="43.91118" lon="1.08863">
        <ele>181</ele>
        <time>2017-09-05T14:11:28Z</time>
      </trkpt>
      <trkpt lat="43.91119" lon="1.08863">
        <ele>181</ele>
        <time>2017-09-05T14:11:55Z</time>
      </trkpt>
      <trkpt lat="43.91118" lon="1.08868">
        <ele>181</ele>
        <time>2017-09-05T14:12:32Z</time>
      </trkpt>
      <trkpt lat="43.9112" lon="1.08871">
        <ele>181</ele>
        <time>2017-09-05T14:13:10Z</time>
      </trkpt>
      <trkpt lat="43.91122" lon="1.08867">
        <ele>181</ele>
        <time>2017-09-05T14:13:46Z</time>
      </trkpt>
      <trkpt lat="43.91145" lon="1.08891">
        <ele>181</ele>
        <time>2017-09-05T14:14:01Z</time>
      </trkpt>
      <trkpt lat="43.91168" lon="1.08916">
        <ele>182</ele>
        <time>2017-09-05T14:14:07Z</time>
      </trkpt>
      <trkpt lat="43.91256" lon="1.09013">
        <ele>180</ele>
        <time>2017-09-05T14:14:28Z</time>
      </trkpt>
      <trkpt lat="43.91279" lon="1.09042">
        <ele>180</ele>
        <time>2017-09-05T14:14:35Z</time>
      </trkpt>
      <trkpt lat="43.91358" lon="1.09131">
        <ele>182</ele>
        <time>2017-09-05T14:14:59Z</time>
      </trkpt>
      <trkpt lat="43.91441" lon="1.09234">
        <ele>183</ele>
        <time>2017-09-05T14:15:21Z</time>
      </trkpt>
      <trkpt lat="43.91463" lon="1.09268">
        <ele>184</ele>
        <time>2017-09-05T14:15:27Z</time>
      </trkpt>
      <trkpt lat="43.91557" lon="1.09339">
        <ele>184</ele>
        <time>2017-09-05T14:15:47Z</time>
      </trkpt>
      <trkpt lat="43.91674" lon="1.09412">
        <ele>185</ele>
        <time>2017-09-05T14:16:10Z</time>
      </trkpt>
      <trkpt lat="43.91718" lon="1.09444">
        <ele>182</ele>
        <time>2017-09-05T14:16:20Z</time>
      </trkpt>
      <trkpt lat="43.91722" lon="1.09445">
        <ele>182</ele>
        <time>2017-09-05T14:16:21Z</time>
      </trkpt>
      <trkpt lat="43.91763" lon="1.09422">
        <ele>181</ele>
        <time>2017-09-05T14:16:33Z</time>
      </trkpt>
      <trkpt lat="43.91845" lon="1.0939">
        <ele>177</ele>
        <time>2017-09-05T14:16:49Z</time>
      </trkpt>
      <trkpt lat="43.91953" lon="1.09323">
        <ele>174</ele>
        <time>2017-09-05T14:17:08Z</time>
      </trkpt>
      <trkpt lat="43.92042" lon="1.09256">
        <ele>171</ele>
        <time>2017-09-05T14:17:28Z</time>
      </trkpt>
      <trkpt lat="43.92121" lon="1.09195">
        <ele>168</ele>
        <time>2017-09-05T14:17:49Z</time>
      </trkpt>
      <trkpt lat="43.92204" lon="1.09148">
        <ele>166</ele>
        <time>2017-09-05T14:18:10Z</time>
      </trkpt>
      <trkpt lat="43.9229" lon="1.09128">
        <ele>163</ele>
        <time>2017-09-05T14:18:31Z</time>
      </trkpt>
      <trkpt lat="43.92341" lon="1.09121">
        <ele>159</ele>
        <time>2017-09-05T14:18:40Z</time>
      </trkpt>
      <trkpt lat="43.92391" lon="1.09118">
        <ele>157</ele>
        <time>2017-09-05T14:18:46Z</time>
      </trkpt>
      <trkpt lat="43.92416" lon="1.0912">
        <ele>156</ele>
        <time>2017-09-05T14:18:49Z</time>
      </trkpt>
      <trkpt lat="43.92447" lon="1.09122">
        <ele>150</ele>
        <time>2017-09-05T14:18:53Z</time>
      </trkpt>
      <trkpt lat="43.9247" lon="1.09121">
        <ele>148</ele>
        <time>2017-09-05T14:18:56Z</time>
      </trkpt>
      <trkpt lat="43.92499" lon="1.09112">
        <ele>147</ele>
        <time>2017-09-05T14:19:00Z</time>
      </trkpt>
      <trkpt lat="43.92524" lon="1.091">
        <ele>141</ele>
        <time>2017-09-05T14:19:04Z</time>
      </trkpt>
      <trkpt lat="43.92529" lon="1.09097">
        <ele>140</ele>
        <time>2017-09-05T14:19:05Z</time>
      </trkpt>
      <trkpt lat="43.92536" lon="1.09095">
        <ele>140</ele>
        <time>2017-09-05T14:19:06Z</time>
      </trkpt>
      <trkpt lat="43.92542" lon="1.09094">
        <ele>139</ele>
        <time>2017-09-05T14:19:07Z</time>
      </trkpt>
      <trkpt lat="43.92548" lon="1.09095">
        <ele>139</ele>
        <time>2017-09-05T14:19:08Z</time>
      </trkpt>
      <trkpt lat="43.92555" lon="1.09098">
        <ele>138</ele>
        <time>2017-09-05T14:19:09Z</time>
      </trkpt>
      <trkpt lat="43.92561" lon="1.09101">
        <ele>138</ele>
        <time>2017-09-05T14:19:10Z</time>
      </trkpt>
      <trkpt lat="43.92567" lon="1.09105">
        <ele>137</ele>
        <time>2017-09-05T14:19:11Z</time>
      </trkpt>
      <trkpt lat="43.92584" lon="1.09116">
        <ele>131</ele>
        <time>2017-09-05T14:19:15Z</time>
      </trkpt>
      <trkpt lat="43.92588" lon="1.09119">
        <ele>131</ele>
        <time>2017-09-05T14:19:16Z</time>
      </trkpt>
      <trkpt lat="43.92608" lon="1.0913">
        <ele>130</ele>
        <time>2017-09-05T14:19:20Z</time>
      </trkpt>
      <trkpt lat="43.92632" lon="1.09137">
        <ele>128</ele>
        <time>2017-09-05T14:19:24Z</time>
      </trkpt>
      <trkpt lat="43.92665" lon="1.09136">
        <ele>126</ele>
        <time>2017-09-05T14:19:29Z</time>
      </trkpt>
      <trkpt lat="43.92708" lon="1.09133">
        <ele>118</ele>
        <time>2017-09-05T14:19:34Z</time>
      </trkpt>
      <trkpt lat="43.9273" lon="1.0913">
        <ele>117</ele>
        <time>2017-09-05T14:19:37Z</time>
      </trkpt>
      <trkpt lat="43.92737" lon="1.09128">
        <ele>117</ele>
        <time>2017-09-05T14:19:38Z</time>
      </trkpt>
      <trkpt lat="43.92743" lon="1.09124">
        <ele>117</ele>
        <time>2017-09-05T14:19:39Z</time>
      </trkpt>
      <trkpt lat="43.92747" lon="1.09119">
        <ele>117</ele>
        <time>2017-09-05T14:19:40Z</time>
      </trkpt>
      <trkpt lat="43.92751" lon="1.09114">
        <ele>113</ele>
        <time>2017-09-05T14:19:41Z</time>
      </trkpt>
      <trkpt lat="43.92755" lon="1.09108">
        <ele>113</ele>
        <time>2017-09-05T14:19:42Z</time>
      </trkpt>
      <trkpt lat="43.92766" lon="1.09091">
        <ele>113</ele>
        <time>2017-09-05T14:19:45Z</time>
      </trkpt>
      <trkpt lat="43.92769" lon="1.09085">
        <ele>113</ele>
        <time>2017-09-05T14:19:46Z</time>
      </trkpt>
      <trkpt lat="43.92792" lon="1.09045">
        <ele>111</ele>
        <time>2017-09-05T14:19:53Z</time>
      </trkpt>
      <trkpt lat="43.92812" lon="1.09006">
        <ele>110</ele>
        <time>2017-09-05T14:19:58Z</time>
      </trkpt>
      <trkpt lat="43.92817" lon="1.08999">
        <ele>107</ele>
        <time>2017-09-05T14:19:59Z</time>
      </trkpt>
      <trkpt lat="43.92839" lon="1.08969">
        <ele>103</ele>
        <time>2017-09-05T14:20:03Z</time>
      </trkpt>
      <trkpt lat="43.92847" lon="1.08962">
        <ele>102</ele>
        <time>2017-09-05T14:20:04Z</time>
      </trkpt>
      <trkpt lat="43.92854" lon="1.08957">
        <ele>102</ele>
        <time>2017-09-05T14:20:05Z</time>
      </trkpt>
      <trkpt lat="43.92864" lon="1.08953">
        <ele>101</ele>
        <time>2017-09-05T14:20:06Z</time>
      </trkpt>
      <trkpt lat="43.92893" lon="1.08943">
        <ele>100</ele>
        <time>2017-09-05T14:20:09Z</time>
      </trkpt>
      <trkpt lat="43.92901" lon="1.08936">
        <ele>99</ele>
        <time>2017-09-05T14:20:10Z</time>
      </trkpt>
      <trkpt lat="43.92909" lon="1.08927">
        <ele>98</ele>
        <time>2017-09-05T14:20:11Z</time>
      </trkpt>
      <trkpt lat="43.92916" lon="1.08916">
        <ele>96</ele>
        <time>2017-09-05T14:20:12Z</time>
      </trkpt>
      <trkpt lat="43.92921" lon="1.08908">
        <ele>95</ele>
        <time>2017-09-05T14:20:13Z</time>
      </trkpt>
      <trkpt lat="43.92967" lon="1.08828">
        <ele>93</ele>
        <time>2017-09-05T14:20:22Z</time>
      </trkpt>
      <trkpt lat="43.92984" lon="1.08801">
        <ele>92</ele>
        <time>2017-09-05T14:20:26Z</time>
      </trkpt>
      <trkpt lat="43.92988" lon="1.08798">
        <ele>92</ele>
        <time>2017-09-05T14:20:27Z</time>
      </trkpt>
      <trkpt lat="43.92992" lon="1.08796">
        <ele>92</ele>
        <time>2017-09-05T14:20:28Z</time>
      </trkpt>
      <trkpt lat="43.93023" lon="1.08783">
        <ele>91</ele>
        <time>2017-09-05T14:20:37Z</time>
      </trkpt>
      <trkpt lat="43.93026" lon="1.0878">
        <ele>91</ele>
        <time>2017-09-05T14:20:38Z</time>
      </trkpt>
      <trkpt lat="43.93027" lon="1.08775">
        <ele>91</ele>
        <time>2017-09-05T14:20:39Z</time>
      </trkpt>
      <trkpt lat="43.93037" lon="1.08724">
        <ele>90</ele>
        <time>2017-09-05T14:20:48Z</time>
      </trkpt>
      <trkpt lat="43.93039" lon="1.08718">
        <ele>90</ele>
        <time>2017-09-05T14:20:49Z</time>
      </trkpt>
      <trkpt lat="43.93042" lon="1.08714">
        <ele>90</ele>
        <time>2017-09-05T14:20:50Z</time>
      </trkpt>
      <trkpt lat="43.93095" lon="1.08633">
        <ele>90</ele>
        <time>2017-09-05T14:21:08Z</time>
      </trkpt>
      <trkpt lat="43.93162" lon="1.0855">
        <ele>91</ele>
        <time>2017-09-05T14:21:29Z</time>
      </trkpt>
      <trkpt lat="43.93184" lon="1.08565">
        <ele>93</ele>
        <time>2017-09-05T14:21:38Z</time>
      </trkpt>
      <trkpt lat="43.93177" lon="1.08568">
        <ele>92</ele>
        <time>2017-09-05T14:21:43Z</time>
      </trkpt>
      <trkpt lat="43.93175" lon="1.08568">
        <ele>92</ele>
        <time>2017-09-05T14:21:44Z</time>
      </trkpt>
      <trkpt lat="43.93167" lon="1.08571">
        <ele>90</ele>
        <time>2017-09-05T14:21:57Z</time>
      </trkpt>
      <trkpt lat="43.93165" lon="1.08566">
        <ele>90</ele>
        <time>2017-09-05T14:22:36Z</time>
      </trkpt>
      <trkpt lat="43.93165" lon="1.08566">
        <ele>90</ele>
        <time>2017-09-05T14:23:15Z</time>
      </trkpt>
      <trkpt lat="43.93166" lon="1.08566">
        <ele>90</ele>
        <time>2017-09-05T14:23:24Z</time>
      </trkpt>
    </trkseg>
  </trk>
</gpx>